<?xml version="1.0" encoding="UTF-8" standalone="no" ?>
<gpx xmlns="http://www.topografix.com/GPX/1/1" xmlns:xsi="http://www.w3.org/2001/XMLSchema-instance" xsi:schemaLocation="http://www.topografix.com/GPX/1/1 http://www.topografix.com/GPX/1/1/gpx.xsd" version="1.1" creator="VisuGPX - https://www.visugpx.com">
  <metadata>
    <name>Flines Mont de l'Enclus</name>
  </metadata>
  <trk>
    <name><![CDATA[Flines Mont de l'Enclus]]></name>
    <trkseg>
      <trkpt lat="50.50461" lon="3.45417">
        <ele>17.024603</ele>
        <time>2020-06-18T15:09:33.720Z</time>
      </trkpt>
      <trkpt lat="50.50468" lon="3.45372">
        <ele>17.024603</ele>
        <time>2020-06-18T15:09:38.236Z</time>
      </trkpt>
      <trkpt lat="50.50471" lon="3.45343">
        <ele>17.024603</ele>
        <time>2020-06-18T15:09:41.155Z</time>
      </trkpt>
      <trkpt lat="50.50473" lon="3.45332">
        <ele>17.024603</ele>
        <time>2020-06-18T15:09:42.123Z</time>
      </trkpt>
      <trkpt lat="50.50477" lon="3.45312">
        <ele>17.024603</ele>
        <time>2020-06-18T15:09:44.355Z</time>
      </trkpt>
      <trkpt lat="50.50513" lon="3.45201">
        <ele>16.691689</ele>
        <time>2020-06-18T15:09:56.473Z</time>
      </trkpt>
      <trkpt lat="50.50531" lon="3.45152">
        <ele>16.484154</ele>
        <time>2020-06-18T15:10:01.961Z</time>
      </trkpt>
      <trkpt lat="50.50539" lon="3.45133">
        <ele>16.399306</ele>
        <time>2020-06-18T15:10:04.133Z</time>
      </trkpt>
      <trkpt lat="50.50551" lon="3.45111">
        <ele>16.294656</ele>
        <time>2020-06-18T15:10:07.059Z</time>
      </trkpt>
      <trkpt lat="50.50599" lon="3.45026">
        <ele>15.959575</ele>
        <time>2020-06-18T15:10:19.032Z</time>
      </trkpt>
      <trkpt lat="50.50652" lon="3.44916">
        <ele>15.83409</ele>
        <time>2020-06-18T15:10:34.447Z</time>
      </trkpt>
      <trkpt lat="50.50661" lon="3.44894">
        <ele>15.81065</ele>
        <time>2020-06-18T15:10:37.166Z</time>
      </trkpt>
      <trkpt lat="50.50673" lon="3.44871">
        <ele>15.783181</ele>
        <time>2020-06-18T15:10:40.646Z</time>
      </trkpt>
      <trkpt lat="50.50707" lon="3.44823">
        <ele>15.724254</ele>
        <time>2020-06-18T15:10:48.418Z</time>
      </trkpt>
      <trkpt lat="50.51095" lon="3.44486">
        <ele>15.52444</ele>
        <time>2020-06-18T15:12:05.711Z</time>
      </trkpt>
      <trkpt lat="50.51116" lon="3.44468">
        <ele>15.540985</ele>
        <time>2020-06-18T15:12:10.284Z</time>
      </trkpt>
      <trkpt lat="50.51187" lon="3.44406">
        <ele>15.649803</ele>
        <time>2020-06-18T15:12:25.443Z</time>
      </trkpt>
      <trkpt lat="50.5119" lon="3.44403">
        <ele>15.666664</ele>
        <time>2020-06-18T15:12:26.394Z</time>
      </trkpt>
      <trkpt lat="50.51322" lon="3.4435">
        <ele>16.19233</ele>
        <time>2020-06-18T15:12:53.267Z</time>
      </trkpt>
      <trkpt lat="50.5134" lon="3.44349">
        <ele>16.264593</ele>
        <time>2020-06-18T15:12:57.102Z</time>
      </trkpt>
      <trkpt lat="50.51346" lon="3.4435">
        <ele>16.284875</ele>
        <time>2020-06-18T15:12:58.237Z</time>
      </trkpt>
      <trkpt lat="50.5139" lon="3.44363">
        <ele>16.370073</ele>
        <time>2020-06-18T15:13:06.982Z</time>
      </trkpt>
      <trkpt lat="50.51573" lon="3.44428">
        <ele>16.474831</ele>
        <time>2020-06-18T15:13:41.598Z</time>
      </trkpt>
      <trkpt lat="50.51599" lon="3.44445">
        <ele>16.396323</ele>
        <time>2020-06-18T15:13:46.138Z</time>
      </trkpt>
      <trkpt lat="50.51714" lon="3.44519">
        <ele>16.054225</ele>
        <time>2020-06-18T15:14:05.908Z</time>
      </trkpt>
      <trkpt lat="50.51727" lon="3.44527">
        <ele>16.019517</ele>
        <time>2020-06-18T15:14:07.998Z</time>
      </trkpt>
      <trkpt lat="50.51818" lon="3.44585">
        <ele>15.766817</ele>
        <time>2020-06-18T15:14:24.102Z</time>
      </trkpt>
      <trkpt lat="50.51845" lon="3.44602">
        <ele>15.693335</ele>
        <time>2020-06-18T15:14:29.290Z</time>
      </trkpt>
      <trkpt lat="50.5192" lon="3.44671">
        <ele>15.947915</ele>
        <time>2020-06-18T15:14:45.825Z</time>
      </trkpt>
      <trkpt lat="50.51925" lon="3.44675">
        <ele>15.970385</ele>
        <time>2020-06-18T15:14:47.040Z</time>
      </trkpt>
      <trkpt lat="50.51933" lon="3.44684">
        <ele>16.009986</ele>
        <time>2020-06-18T15:14:49.433Z</time>
      </trkpt>
      <trkpt lat="50.51953" lon="3.44702">
        <ele>16.097279</ele>
        <time>2020-06-18T15:14:53.687Z</time>
      </trkpt>
      <trkpt lat="50.51991" lon="3.44724">
        <ele>16.255982</ele>
        <time>2020-06-18T15:15:02.018Z</time>
      </trkpt>
      <trkpt lat="50.52029" lon="3.44725">
        <ele>16.386288</ele>
        <time>2020-06-18T15:15:09.720Z</time>
      </trkpt>
      <trkpt lat="50.52034" lon="3.44722">
        <ele>16.398067</ele>
        <time>2020-06-18T15:15:10.972Z</time>
      </trkpt>
      <trkpt lat="50.52072" lon="3.44707">
        <ele>16.491631</ele>
        <time>2020-06-18T15:15:18.897Z</time>
      </trkpt>
      <trkpt lat="50.52089" lon="3.44693">
        <ele>16.538695</ele>
        <time>2020-06-18T15:15:22.556Z</time>
      </trkpt>
      <trkpt lat="50.52092" lon="3.44691">
        <ele>16.54506</ele>
        <time>2020-06-18T15:15:23.058Z</time>
      </trkpt>
      <trkpt lat="50.52105" lon="3.44679">
        <ele>16.581057</ele>
        <time>2020-06-18T15:15:26.029Z</time>
      </trkpt>
      <trkpt lat="50.52116" lon="3.44669">
        <ele>16.612803</ele>
        <time>2020-06-18T15:15:28.466Z</time>
      </trkpt>
      <trkpt lat="50.52143" lon="3.44666">
        <ele>16.676319</ele>
        <time>2020-06-18T15:15:33.474Z</time>
      </trkpt>
      <trkpt lat="50.52154" lon="3.44675">
        <ele>16.70671</ele>
        <time>2020-06-18T15:15:35.711Z</time>
      </trkpt>
      <trkpt lat="50.52189" lon="3.44712">
        <ele>16.781359</ele>
        <time>2020-06-18T15:15:43.118Z</time>
      </trkpt>
      <trkpt lat="50.52222" lon="3.44745">
        <ele>16.743401</ele>
        <time>2020-06-18T15:15:49.820Z</time>
      </trkpt>
      <trkpt lat="50.52251" lon="3.448">
        <ele>16.699663</ele>
        <time>2020-06-18T15:15:57.635Z</time>
      </trkpt>
      <trkpt lat="50.52281" lon="3.44844">
        <ele>16.659903</ele>
        <time>2020-06-18T15:16:04.725Z</time>
      </trkpt>
      <trkpt lat="50.52311" lon="3.44887">
        <ele>16.621275</ele>
        <time>2020-06-18T15:16:11.734Z</time>
      </trkpt>
      <trkpt lat="50.52348" lon="3.44962">
        <ele>16.690592</ele>
        <time>2020-06-18T15:16:22.600Z</time>
      </trkpt>
      <trkpt lat="50.52354" lon="3.44967">
        <ele>16.700625</ele>
        <time>2020-06-18T15:16:23.898Z</time>
      </trkpt>
      <trkpt lat="50.52364" lon="3.44971">
        <ele>16.714511</ele>
        <time>2020-06-18T15:16:25.784Z</time>
      </trkpt>
      <trkpt lat="50.52397" lon="3.4497">
        <ele>16.760061</ele>
        <time>2020-06-18T15:16:32.071Z</time>
      </trkpt>
      <trkpt lat="50.52465" lon="3.44966">
        <ele>16.85341</ele>
        <time>2020-06-18T15:16:44.806Z</time>
      </trkpt>
      <trkpt lat="50.52496" lon="3.44968">
        <ele>16.900216</ele>
        <time>2020-06-18T15:16:50.697Z</time>
      </trkpt>
      <trkpt lat="50.52556" lon="3.44992">
        <ele>16.994131</ele>
        <time>2020-06-18T15:17:02.215Z</time>
      </trkpt>
      <trkpt lat="50.52569" lon="3.45007">
        <ele>17.019541</ele>
        <time>2020-06-18T15:17:05.086Z</time>
      </trkpt>
      <trkpt lat="50.52594" lon="3.45088">
        <ele>17.106486</ele>
        <time>2020-06-18T15:17:15.524Z</time>
      </trkpt>
      <trkpt lat="50.52608" lon="3.45115">
        <ele>17.143522</ele>
        <time>2020-06-18T15:17:19.404Z</time>
      </trkpt>
      <trkpt lat="50.52695" lon="3.45217">
        <ele>17.692863</ele>
        <time>2020-06-18T15:17:40.417Z</time>
      </trkpt>
      <trkpt lat="50.52698" lon="3.45225">
        <ele>17.725249</ele>
        <time>2020-06-18T15:17:41.818Z</time>
      </trkpt>
      <trkpt lat="50.52707" lon="3.45261">
        <ele>17.848688</ele>
        <time>2020-06-18T15:17:46.923Z</time>
      </trkpt>
      <trkpt lat="50.52719" lon="3.45338">
        <ele>18.141718</ele>
        <time>2020-06-18T15:17:57.944Z</time>
      </trkpt>
      <trkpt lat="50.52726" lon="3.45386">
        <ele>18.415551</ele>
        <time>2020-06-18T15:18:04.962Z</time>
      </trkpt>
      <trkpt lat="50.52741" lon="3.45438">
        <ele>18.732769</ele>
        <time>2020-06-18T15:18:13.266Z</time>
      </trkpt>
      <trkpt lat="50.52758" lon="3.45546">
        <ele>19.348803</ele>
        <time>2020-06-18T15:18:29.082Z</time>
      </trkpt>
      <trkpt lat="50.52769" lon="3.45601">
        <ele>19.65595</ele>
        <time>2020-06-18T15:18:36.917Z</time>
      </trkpt>
      <trkpt lat="50.52802" lon="3.4571">
        <ele>20.191517</ele>
        <time>2020-06-18T15:18:53.176Z</time>
      </trkpt>
      <trkpt lat="50.52899" lon="3.46191">
        <ele>22.658259</ele>
        <time>2020-06-18T15:20:00.653Z</time>
      </trkpt>
      <trkpt lat="50.52939" lon="3.46351">
        <ele>23.960342</ele>
        <time>2020-06-18T15:20:27.476Z</time>
      </trkpt>
      <trkpt lat="50.52951" lon="3.46484">
        <ele>25.071892</ele>
        <time>2020-06-18T15:20:48.637Z</time>
      </trkpt>
      <trkpt lat="50.53003" lon="3.46805">
        <ele>27.607855</ele>
        <time>2020-06-18T15:21:39.599Z</time>
      </trkpt>
      <trkpt lat="50.53008" lon="3.46817">
        <ele>27.697236</ele>
        <time>2020-06-18T15:21:41.646Z</time>
      </trkpt>
      <trkpt lat="50.53012" lon="3.46822">
        <ele>27.744567</ele>
        <time>2020-06-18T15:21:42.796Z</time>
      </trkpt>
      <trkpt lat="50.53018" lon="3.46828">
        <ele>27.821718</ele>
        <time>2020-06-18T15:21:44.578Z</time>
      </trkpt>
      <trkpt lat="50.53025" lon="3.46829">
        <ele>27.890393</ele>
        <time>2020-06-18T15:21:46.694Z</time>
      </trkpt>
      <trkpt lat="50.53175" lon="3.46773">
        <ele>27.954899</ele>
        <time>2020-06-18T15:22:16.679Z</time>
      </trkpt>
      <trkpt lat="50.53195" lon="3.46763">
        <ele>27.828878</ele>
        <time>2020-06-18T15:22:20.160Z</time>
      </trkpt>
      <trkpt lat="50.532" lon="3.46759">
        <ele>27.795872</ele>
        <time>2020-06-18T15:22:20.767Z</time>
      </trkpt>
      <trkpt lat="50.53267" lon="3.46704">
        <ele>27.227085</ele>
        <time>2020-06-18T15:22:30.956Z</time>
      </trkpt>
      <trkpt lat="50.53356" lon="3.46634">
        <ele>25.83381</ele>
        <time>2020-06-18T15:22:44.249Z</time>
      </trkpt>
      <trkpt lat="50.5341" lon="3.46593">
        <ele>24.997934</ele>
        <time>2020-06-18T15:22:53.025Z</time>
      </trkpt>
      <trkpt lat="50.53601" lon="3.4645">
        <ele>24.326504</ele>
        <time>2020-06-18T15:23:30.745Z</time>
      </trkpt>
      <trkpt lat="50.53712" lon="3.46368">
        <ele>23.112597</ele>
        <time>2020-06-18T15:23:48.657Z</time>
      </trkpt>
      <trkpt lat="50.53812" lon="3.46292">
        <ele>21.720013</ele>
        <time>2020-06-18T15:24:03.683Z</time>
      </trkpt>
      <trkpt lat="50.53844" lon="3.46263">
        <ele>21.228351</ele>
        <time>2020-06-18T15:24:08.727Z</time>
      </trkpt>
      <trkpt lat="50.53856" lon="3.46244">
        <ele>20.993482</ele>
        <time>2020-06-18T15:24:11.227Z</time>
      </trkpt>
      <trkpt lat="50.53878" lon="3.46181">
        <ele>20.385014</ele>
        <time>2020-06-18T15:24:17.788Z</time>
      </trkpt>
      <trkpt lat="50.5388" lon="3.46164">
        <ele>20.331017</ele>
        <time>2020-06-18T15:24:19.395Z</time>
      </trkpt>
      <trkpt lat="50.53949" lon="3.45679">
        <ele>19.381528</ele>
        <time>2020-06-18T15:25:12.893Z</time>
      </trkpt>
      <trkpt lat="50.54021" lon="3.45177">
        <ele>18.523391</ele>
        <time>2020-06-18T15:26:07.437Z</time>
      </trkpt>
      <trkpt lat="50.5404" lon="3.45071">
        <ele>18.343476</ele>
        <time>2020-06-18T15:26:19.028Z</time>
      </trkpt>
      <trkpt lat="50.54079" lon="3.44862">
        <ele>17.917206</ele>
        <time>2020-06-18T15:26:43.279Z</time>
      </trkpt>
      <trkpt lat="50.54083" lon="3.44841">
        <ele>17.87426</ele>
        <time>2020-06-18T15:26:45.344Z</time>
      </trkpt>
      <trkpt lat="50.54086" lon="3.44827">
        <ele>17.844671</ele>
        <time>2020-06-18T15:26:46.780Z</time>
      </trkpt>
      <trkpt lat="50.54086" lon="3.44823">
        <ele>17.837004</ele>
        <time>2020-06-18T15:26:47.366Z</time>
      </trkpt>
      <trkpt lat="50.5411" lon="3.4468">
        <ele>17.284134</ele>
        <time>2020-06-18T15:27:01.152Z</time>
      </trkpt>
      <trkpt lat="50.54123" lon="3.44691">
        <ele>17.190798</ele>
        <time>2020-06-18T15:27:03.506Z</time>
      </trkpt>
      <trkpt lat="50.54138" lon="3.44698">
        <ele>17.094402</ele>
        <time>2020-06-18T15:27:05.893Z</time>
      </trkpt>
      <trkpt lat="50.54141" lon="3.447">
        <ele>17.073504</ele>
        <time>2020-06-18T15:27:06.330Z</time>
      </trkpt>
      <trkpt lat="50.5416" lon="3.44707">
        <ele>16.949236</ele>
        <time>2020-06-18T15:27:09.761Z</time>
      </trkpt>
      <trkpt lat="50.5417" lon="3.44711">
        <ele>16.88664</ele>
        <time>2020-06-18T15:27:11.383Z</time>
      </trkpt>
      <trkpt lat="50.54179" lon="3.44715">
        <ele>16.826594</ele>
        <time>2020-06-18T15:27:12.850Z</time>
      </trkpt>
      <trkpt lat="50.54192" lon="3.4472">
        <ele>16.741574</ele>
        <time>2020-06-18T15:27:15.155Z</time>
      </trkpt>
      <trkpt lat="50.54222" lon="3.44731">
        <ele>16.729455</ele>
        <time>2020-06-18T15:27:20.209Z</time>
      </trkpt>
      <trkpt lat="50.54249" lon="3.44741">
        <ele>16.830062</ele>
        <time>2020-06-18T15:27:24.676Z</time>
      </trkpt>
      <trkpt lat="50.54262" lon="3.44741">
        <ele>16.877458</ele>
        <time>2020-06-18T15:27:26.869Z</time>
      </trkpt>
      <trkpt lat="50.5428" lon="3.44728">
        <ele>16.950817</ele>
        <time>2020-06-18T15:27:30.057Z</time>
      </trkpt>
      <trkpt lat="50.54288" lon="3.44721">
        <ele>16.984123</ele>
        <time>2020-06-18T15:27:31.972Z</time>
      </trkpt>
      <trkpt lat="50.54333" lon="3.44658">
        <ele>17.202231</ele>
        <time>2020-06-18T15:27:45.100Z</time>
      </trkpt>
      <trkpt lat="50.54369" lon="3.44612">
        <ele>17.410718</ele>
        <time>2020-06-18T15:27:56.236Z</time>
      </trkpt>
      <trkpt lat="50.54389" lon="3.44586">
        <ele>17.584851</ele>
        <time>2020-06-18T15:28:02.130Z</time>
      </trkpt>
      <trkpt lat="50.54403" lon="3.4458">
        <ele>17.675885</ele>
        <time>2020-06-18T15:28:05.518Z</time>
      </trkpt>
      <trkpt lat="50.54414" lon="3.4458">
        <ele>17.746061</ele>
        <time>2020-06-18T15:28:07.830Z</time>
      </trkpt>
      <trkpt lat="50.54423" lon="3.4458">
        <ele>17.803291</ele>
        <time>2020-06-18T15:28:09.667Z</time>
      </trkpt>
      <trkpt lat="50.54433" lon="3.44583">
        <ele>17.868897</ele>
        <time>2020-06-18T15:28:11.817Z</time>
      </trkpt>
      <trkpt lat="50.54444" lon="3.44586">
        <ele>17.947874</ele>
        <time>2020-06-18T15:28:14.393Z</time>
      </trkpt>
      <trkpt lat="50.54443" lon="3.44602">
        <ele>18.014395</ele>
        <time>2020-06-18T15:28:17.124Z</time>
      </trkpt>
      <trkpt lat="50.54438" lon="3.44687">
        <ele>18.363859</ele>
        <time>2020-06-18T15:28:31.230Z</time>
      </trkpt>
      <trkpt lat="50.54433" lon="3.44779">
        <ele>18.534907</ele>
        <time>2020-06-18T15:28:46.038Z</time>
      </trkpt>
      <trkpt lat="50.54443" lon="3.44924">
        <ele>18.648702</ele>
        <time>2020-06-18T15:29:08.158Z</time>
      </trkpt>
      <trkpt lat="50.54452" lon="3.44978">
        <ele>18.691527</ele>
        <time>2020-06-18T15:29:16.741Z</time>
      </trkpt>
      <trkpt lat="50.54568" lon="3.45465">
        <ele>20.829189</ele>
        <time>2020-06-18T15:30:48.220Z</time>
      </trkpt>
      <trkpt lat="50.54574" lon="3.45481">
        <ele>20.911205</ele>
        <time>2020-06-18T15:30:51.675Z</time>
      </trkpt>
      <trkpt lat="50.5458" lon="3.45499">
        <ele>21.006575</ele>
        <time>2020-06-18T15:30:55.607Z</time>
      </trkpt>
      <trkpt lat="50.54755" lon="3.46215">
        <ele>23.197551</ele>
        <time>2020-06-18T15:33:06.677Z</time>
      </trkpt>
      <trkpt lat="50.54762" lon="3.4624">
        <ele>23.211747</ele>
        <time>2020-06-18T15:33:10.415Z</time>
      </trkpt>
      <trkpt lat="50.54767" lon="3.46264">
        <ele>23.225234</ele>
        <time>2020-06-18T15:33:14.319Z</time>
      </trkpt>
      <trkpt lat="50.54814" lon="3.46462">
        <ele>22.844012</ele>
        <time>2020-06-18T15:33:42.852Z</time>
      </trkpt>
      <trkpt lat="50.5482" lon="3.46483">
        <ele>22.783915</ele>
        <time>2020-06-18T15:33:46.125Z</time>
      </trkpt>
      <trkpt lat="50.54832" lon="3.46526">
        <ele>22.659232</ele>
        <time>2020-06-18T15:33:53.114Z</time>
      </trkpt>
      <trkpt lat="50.54994" lon="3.47188">
        <ele>24.076045</ele>
        <time>2020-06-18T15:35:51.484Z</time>
      </trkpt>
      <trkpt lat="50.55009" lon="3.47249">
        <ele>24.227327</ele>
        <time>2020-06-18T15:36:02.060Z</time>
      </trkpt>
      <trkpt lat="50.55022" lon="3.47297">
        <ele>24.347337</ele>
        <time>2020-06-18T15:36:10.481Z</time>
      </trkpt>
      <trkpt lat="50.55199" lon="3.4802">
        <ele>26.627655</ele>
        <time>2020-06-18T15:38:20.882Z</time>
      </trkpt>
      <trkpt lat="50.55201" lon="3.48028">
        <ele>26.659318</ele>
        <time>2020-06-18T15:38:22.441Z</time>
      </trkpt>
      <trkpt lat="50.55205" lon="3.4802">
        <ele>26.69629</ele>
        <time>2020-06-18T15:38:23.699Z</time>
      </trkpt>
      <trkpt lat="50.5521" lon="3.48008">
        <ele>26.750277</ele>
        <time>2020-06-18T15:38:25.536Z</time>
      </trkpt>
      <trkpt lat="50.55261" lon="3.47984">
        <ele>27.073049</ele>
        <time>2020-06-18T15:38:36.663Z</time>
      </trkpt>
      <trkpt lat="50.55426" lon="3.47881">
        <ele>28.675136</ele>
        <time>2020-06-18T15:39:15.781Z</time>
      </trkpt>
      <trkpt lat="50.55508" lon="3.47831">
        <ele>29.851851</ele>
        <time>2020-06-18T15:39:37.132Z</time>
      </trkpt>
      <trkpt lat="50.5553" lon="3.47818">
        <ele>30.20736</ele>
        <time>2020-06-18T15:39:43.194Z</time>
      </trkpt>
      <trkpt lat="50.55556" lon="3.47802">
        <ele>30.620373</ele>
        <time>2020-06-18T15:39:50.319Z</time>
      </trkpt>
      <trkpt lat="50.55584" lon="3.47785">
        <ele>31.084808</ele>
        <time>2020-06-18T15:39:58.229Z</time>
      </trkpt>
      <trkpt lat="50.55636" lon="3.47763">
        <ele>31.746759</ele>
        <time>2020-06-18T15:40:11.955Z</time>
      </trkpt>
      <trkpt lat="50.55658" lon="3.47761">
        <ele>31.896158</ele>
        <time>2020-06-18T15:40:17.565Z</time>
      </trkpt>
      <trkpt lat="50.55681" lon="3.4776">
        <ele>32.053511</ele>
        <time>2020-06-18T15:40:22.757Z</time>
      </trkpt>
      <trkpt lat="50.55701" lon="3.47748">
        <ele>32.203108</ele>
        <time>2020-06-18T15:40:27.316Z</time>
      </trkpt>
      <trkpt lat="50.55728" lon="3.47699">
        <ele>32.485843</ele>
        <time>2020-06-18T15:40:35.252Z</time>
      </trkpt>
      <trkpt lat="50.55744" lon="3.47681">
        <ele>32.620039</ele>
        <time>2020-06-18T15:40:38.878Z</time>
      </trkpt>
      <trkpt lat="50.55747" lon="3.47679">
        <ele>32.640113</ele>
        <time>2020-06-18T15:40:39.680Z</time>
      </trkpt>
      <trkpt lat="50.55752" lon="3.47676">
        <ele>32.681916</ele>
        <time>2020-06-18T15:40:40.721Z</time>
      </trkpt>
      <trkpt lat="50.55759" lon="3.47674">
        <ele>32.727928</ele>
        <time>2020-06-18T15:40:41.913Z</time>
      </trkpt>
      <trkpt lat="50.55776" lon="3.47674">
        <ele>32.842645</ele>
        <time>2020-06-18T15:40:45.056Z</time>
      </trkpt>
      <trkpt lat="50.55831" lon="3.47675">
        <ele>32.939257</ele>
        <time>2020-06-18T15:40:54.937Z</time>
      </trkpt>
      <trkpt lat="50.55848" lon="3.47676">
        <ele>32.965709</ele>
        <time>2020-06-18T15:40:57.884Z</time>
      </trkpt>
      <trkpt lat="50.55876" lon="3.47695">
        <ele>33.011278</ele>
        <time>2020-06-18T15:41:03.123Z</time>
      </trkpt>
      <trkpt lat="50.55915" lon="3.47765">
        <ele>33.1007</ele>
        <time>2020-06-18T15:41:13.435Z</time>
      </trkpt>
      <trkpt lat="50.56024" lon="3.47769">
        <ele>33.900096</ele>
        <time>2020-06-18T15:41:37.495Z</time>
      </trkpt>
      <trkpt lat="50.56079" lon="3.47789">
        <ele>34.386942</ele>
        <time>2020-06-18T15:41:50.215Z</time>
      </trkpt>
      <trkpt lat="50.56092" lon="3.47804">
        <ele>34.519782</ele>
        <time>2020-06-18T15:41:54.032Z</time>
      </trkpt>
      <trkpt lat="50.56104" lon="3.47783">
        <ele>34.674537</ele>
        <time>2020-06-18T15:41:57.863Z</time>
      </trkpt>
      <trkpt lat="50.56138" lon="3.47691">
        <ele>35.187171</ele>
        <time>2020-06-18T15:42:12.957Z</time>
      </trkpt>
      <trkpt lat="50.56142" lon="3.47684">
        <ele>35.232288</ele>
        <time>2020-06-18T15:42:14.188Z</time>
      </trkpt>
      <trkpt lat="50.5615" lon="3.4768">
        <ele>35.297081</ele>
        <time>2020-06-18T15:42:16.252Z</time>
      </trkpt>
      <trkpt lat="50.56158" lon="3.47679">
        <ele>35.351706</ele>
        <time>2020-06-18T15:42:17.924Z</time>
      </trkpt>
      <trkpt lat="50.56187" lon="3.47692">
        <ele>35.58071</ele>
        <time>2020-06-18T15:42:24.355Z</time>
      </trkpt>
      <trkpt lat="50.56193" lon="3.47696">
        <ele>35.63516</ele>
        <time>2020-06-18T15:42:25.967Z</time>
      </trkpt>
      <trkpt lat="50.5623" lon="3.47745">
        <ele>35.996111</ele>
        <time>2020-06-18T15:42:35.361Z</time>
      </trkpt>
      <trkpt lat="50.56236" lon="3.47754">
        <ele>36.061235</ele>
        <time>2020-06-18T15:42:37.163Z</time>
      </trkpt>
      <trkpt lat="50.5624" lon="3.47748">
        <ele>36.092542</ele>
        <time>2020-06-18T15:42:38.219Z</time>
      </trkpt>
      <trkpt lat="50.56298" lon="3.47689">
        <ele>36.52413</ele>
        <time>2020-06-18T15:42:52.289Z</time>
      </trkpt>
      <trkpt lat="50.56326" lon="3.47642">
        <ele>36.776444</ele>
        <time>2020-06-18T15:43:00.820Z</time>
      </trkpt>
      <trkpt lat="50.5639" lon="3.47615">
        <ele>37.205879</ele>
        <time>2020-06-18T15:43:14.842Z</time>
      </trkpt>
      <trkpt lat="50.56432" lon="3.47581">
        <ele>37.728185</ele>
        <time>2020-06-18T15:43:24.948Z</time>
      </trkpt>
      <trkpt lat="50.56483" lon="3.4754">
        <ele>38.363131</ele>
        <time>2020-06-18T15:43:38.089Z</time>
      </trkpt>
      <trkpt lat="50.56562" lon="3.47477">
        <ele>39.40471</ele>
        <time>2020-06-18T15:43:59.506Z</time>
      </trkpt>
      <trkpt lat="50.56576" lon="3.47466">
        <ele>39.655146</ele>
        <time>2020-06-18T15:44:04.136Z</time>
      </trkpt>
      <trkpt lat="50.56619" lon="3.47432">
        <ele>40.381217</ele>
        <time>2020-06-18T15:44:16.049Z</time>
      </trkpt>
      <trkpt lat="50.56634" lon="3.47422">
        <ele>40.641537</ele>
        <time>2020-06-18T15:44:20.241Z</time>
      </trkpt>
      <trkpt lat="50.56641" lon="3.47421">
        <ele>40.736235</ele>
        <time>2020-06-18T15:44:21.948Z</time>
      </trkpt>
      <trkpt lat="50.56648" lon="3.47418">
        <ele>40.846853</ele>
        <time>2020-06-18T15:44:23.839Z</time>
      </trkpt>
      <trkpt lat="50.56697" lon="3.47412">
        <ele>41.596714</ele>
        <time>2020-06-18T15:44:35.565Z</time>
      </trkpt>
      <trkpt lat="50.56701" lon="3.47411">
        <ele>41.664257</ele>
        <time>2020-06-18T15:44:36.884Z</time>
      </trkpt>
      <trkpt lat="50.56705" lon="3.47409">
        <ele>41.73478</ele>
        <time>2020-06-18T15:44:38.053Z</time>
      </trkpt>
      <trkpt lat="50.56717" lon="3.47403">
        <ele>41.916828</ele>
        <time>2020-06-18T15:44:41.300Z</time>
      </trkpt>
      <trkpt lat="50.56774" lon="3.47365">
        <ele>42.774879</ele>
        <time>2020-06-18T15:44:56.780Z</time>
      </trkpt>
      <trkpt lat="50.56807" lon="3.47489">
        <ele>43.953317</ele>
        <time>2020-06-18T15:45:17.819Z</time>
      </trkpt>
      <trkpt lat="50.56812" lon="3.47507">
        <ele>44.124104</ele>
        <time>2020-06-18T15:45:20.579Z</time>
      </trkpt>
      <trkpt lat="50.56815" lon="3.47518">
        <ele>44.235661</ele>
        <time>2020-06-18T15:45:22.270Z</time>
      </trkpt>
      <trkpt lat="50.5682" lon="3.47528">
        <ele>44.348028</ele>
        <time>2020-06-18T15:45:24.474Z</time>
      </trkpt>
      <trkpt lat="50.56838" lon="3.47544">
        <ele>44.551416</ele>
        <time>2020-06-18T15:45:29.085Z</time>
      </trkpt>
      <trkpt lat="50.56882" lon="3.47565">
        <ele>44.97768</ele>
        <time>2020-06-18T15:45:39.512Z</time>
      </trkpt>
      <trkpt lat="50.569" lon="3.47571">
        <ele>45.149893</ele>
        <time>2020-06-18T15:45:43.937Z</time>
      </trkpt>
      <trkpt lat="50.56943" lon="3.476">
        <ele>45.582309</ele>
        <time>2020-06-18T15:45:54.290Z</time>
      </trkpt>
      <trkpt lat="50.56963" lon="3.47614">
        <ele>45.785114</ele>
        <time>2020-06-18T15:45:59.395Z</time>
      </trkpt>
      <trkpt lat="50.57008" lon="3.47669">
        <ele>46.128947</ele>
        <time>2020-06-18T15:46:11.022Z</time>
      </trkpt>
      <trkpt lat="50.57079" lon="3.47757">
        <ele>46.368825</ele>
        <time>2020-06-18T15:46:28.084Z</time>
      </trkpt>
      <trkpt lat="50.57106" lon="3.47799">
        <ele>46.471055</ele>
        <time>2020-06-18T15:46:34.950Z</time>
      </trkpt>
      <trkpt lat="50.57133" lon="3.47873">
        <ele>46.67885</ele>
        <time>2020-06-18T15:46:44.496Z</time>
      </trkpt>
      <trkpt lat="50.57156" lon="3.47987">
        <ele>47.031792</ele>
        <time>2020-06-18T15:46:59.388Z</time>
      </trkpt>
      <trkpt lat="50.57171" lon="3.48065">
        <ele>47.274201</ele>
        <time>2020-06-18T15:47:10.274Z</time>
      </trkpt>
      <trkpt lat="50.57175" lon="3.4809">
        <ele>47.349363</ele>
        <time>2020-06-18T15:47:13.513Z</time>
      </trkpt>
      <trkpt lat="50.57179" lon="3.48099">
        <ele>47.399055</ele>
        <time>2020-06-18T15:47:15.513Z</time>
      </trkpt>
      <trkpt lat="50.57191" lon="3.48156">
        <ele>47.829227</ele>
        <time>2020-06-18T15:47:24.210Z</time>
      </trkpt>
      <trkpt lat="50.57235" lon="3.48362">
        <ele>49.369461</ele>
        <time>2020-06-18T15:47:57.495Z</time>
      </trkpt>
      <trkpt lat="50.5724" lon="3.48391">
        <ele>49.450353</ele>
        <time>2020-06-18T15:48:01.729Z</time>
      </trkpt>
      <trkpt lat="50.57246" lon="3.48417">
        <ele>49.516087</ele>
        <time>2020-06-18T15:48:05.296Z</time>
      </trkpt>
      <trkpt lat="50.57252" lon="3.48448">
        <ele>49.594426</ele>
        <time>2020-06-18T15:48:09.650Z</time>
      </trkpt>
      <trkpt lat="50.57263" lon="3.48501">
        <ele>49.729216</ele>
        <time>2020-06-18T15:48:18.937Z</time>
      </trkpt>
      <trkpt lat="50.57284" lon="3.48598">
        <ele>49.973486</ele>
        <time>2020-06-18T15:48:30.649Z</time>
      </trkpt>
      <trkpt lat="50.57308" lon="3.48672">
        <ele>50.214634</ele>
        <time>2020-06-18T15:48:39.751Z</time>
      </trkpt>
      <trkpt lat="50.57351" lon="3.48791">
        <ele>50.663342</ele>
        <time>2020-06-18T15:48:55.703Z</time>
      </trkpt>
      <trkpt lat="50.57355" lon="3.4881">
        <ele>50.728666</ele>
        <time>2020-06-18T15:48:58.271Z</time>
      </trkpt>
      <trkpt lat="50.57338" lon="3.48512">
        <ele>53.28406</ele>
        <time>2020-06-18T15:49:45.944Z</time>
      </trkpt>
      <trkpt lat="50.57343" lon="3.48486">
        <ele>53.57413</ele>
        <time>2020-06-18T15:49:50.892Z</time>
      </trkpt>
      <trkpt lat="50.57368" lon="3.48467">
        <ele>54.067762</ele>
        <time>2020-06-18T15:49:58.833Z</time>
      </trkpt>
      <trkpt lat="50.57614" lon="3.48354">
        <ele>59.620009</ele>
        <time>2020-06-18T15:51:12.152Z</time>
      </trkpt>
      <trkpt lat="50.57828" lon="3.48274">
        <ele>63.299624</ele>
        <time>2020-06-18T15:52:10.967Z</time>
      </trkpt>
      <trkpt lat="50.57835" lon="3.48271">
        <ele>63.397591</ele>
        <time>2020-06-18T15:52:12.979Z</time>
      </trkpt>
      <trkpt lat="50.57854" lon="3.48264">
        <ele>63.654531</ele>
        <time>2020-06-18T15:52:16.796Z</time>
      </trkpt>
      <trkpt lat="50.57903" lon="3.48269">
        <ele>63.946284</ele>
        <time>2020-06-18T15:52:26.719Z</time>
      </trkpt>
      <trkpt lat="50.57955" lon="3.48264">
        <ele>63.513144</ele>
        <time>2020-06-18T15:52:35.551Z</time>
      </trkpt>
      <trkpt lat="50.58057" lon="3.48288">
        <ele>62.651319</ele>
        <time>2020-06-18T15:52:50.135Z</time>
      </trkpt>
      <trkpt lat="50.58217" lon="3.48384">
        <ele>59.119052</ele>
        <time>2020-06-18T15:53:12.378Z</time>
      </trkpt>
      <trkpt lat="50.5826" lon="3.484">
        <ele>58.148728</ele>
        <time>2020-06-18T15:53:17.995Z</time>
      </trkpt>
      <trkpt lat="50.5853" lon="3.48404">
        <ele>52.596707</ele>
        <time>2020-06-18T15:53:53.048Z</time>
      </trkpt>
      <trkpt lat="50.58543" lon="3.4841">
        <ele>52.363366</ele>
        <time>2020-06-18T15:53:54.864Z</time>
      </trkpt>
      <trkpt lat="50.5859" lon="3.48481">
        <ele>51.415022</ele>
        <time>2020-06-18T15:54:04.386Z</time>
      </trkpt>
      <trkpt lat="50.58625" lon="3.48547">
        <ele>51.137371</ele>
        <time>2020-06-18T15:54:12.940Z</time>
      </trkpt>
      <trkpt lat="50.58634" lon="3.48585">
        <ele>51.004641</ele>
        <time>2020-06-18T15:54:17.242Z</time>
      </trkpt>
      <trkpt lat="50.58649" lon="3.48728">
        <ele>50.516133</ele>
        <time>2020-06-18T15:54:32.781Z</time>
      </trkpt>
      <trkpt lat="50.58665" lon="3.48769">
        <ele>50.294923</ele>
        <time>2020-06-18T15:54:37.886Z</time>
      </trkpt>
      <trkpt lat="50.58682" lon="3.48786">
        <ele>50.151861</ele>
        <time>2020-06-18T15:54:41.137Z</time>
      </trkpt>
      <trkpt lat="50.5871" lon="3.48796">
        <ele>49.947506</ele>
        <time>2020-06-18T15:54:45.527Z</time>
      </trkpt>
      <trkpt lat="50.58803" lon="3.48807">
        <ele>49.267772</ele>
        <time>2020-06-18T15:54:59.301Z</time>
      </trkpt>
      <trkpt lat="50.58813" lon="3.48812">
        <ele>49.122575</ele>
        <time>2020-06-18T15:55:00.835Z</time>
      </trkpt>
      <trkpt lat="50.58835" lon="3.48839">
        <ele>48.755291</ele>
        <time>2020-06-18T15:55:04.777Z</time>
      </trkpt>
      <trkpt lat="50.58847" lon="3.48855">
        <ele>48.547133</ele>
        <time>2020-06-18T15:55:06.900Z</time>
      </trkpt>
      <trkpt lat="50.58859" lon="3.48834">
        <ele>48.308916</ele>
        <time>2020-06-18T15:55:10.549Z</time>
      </trkpt>
      <trkpt lat="50.58869" lon="3.48814">
        <ele>48.10449</ele>
        <time>2020-06-18T15:55:13.568Z</time>
      </trkpt>
      <trkpt lat="50.58876" lon="3.488">
        <ele>47.946471</ele>
        <time>2020-06-18T15:55:15.976Z</time>
      </trkpt>
      <trkpt lat="50.58898" lon="3.48765">
        <ele>47.535379</ele>
        <time>2020-06-18T15:55:22.213Z</time>
      </trkpt>
      <trkpt lat="50.5893" lon="3.4871">
        <ele>46.908565</ele>
        <time>2020-06-18T15:55:31.652Z</time>
      </trkpt>
      <trkpt lat="50.58945" lon="3.48719">
        <ele>46.723041</ele>
        <time>2020-06-18T15:55:34.822Z</time>
      </trkpt>
      <trkpt lat="50.58963" lon="3.48724">
        <ele>46.508477</ele>
        <time>2020-06-18T15:55:38.546Z</time>
      </trkpt>
      <trkpt lat="50.5898" lon="3.48729">
        <ele>46.309801</ele>
        <time>2020-06-18T15:55:42.069Z</time>
      </trkpt>
      <trkpt lat="50.59008" lon="3.48713">
        <ele>45.976403</ele>
        <time>2020-06-18T15:55:47.935Z</time>
      </trkpt>
      <trkpt lat="50.59022" lon="3.48704">
        <ele>45.804775</ele>
        <time>2020-06-18T15:55:50.917Z</time>
      </trkpt>
      <trkpt lat="50.59026" lon="3.48698">
        <ele>45.740304</ele>
        <time>2020-06-18T15:55:52.077Z</time>
      </trkpt>
      <trkpt lat="50.59035" lon="3.48686">
        <ele>45.605521</ele>
        <time>2020-06-18T15:55:54.478Z</time>
      </trkpt>
      <trkpt lat="50.59039" lon="3.48677">
        <ele>45.518623</ele>
        <time>2020-06-18T15:55:56.113Z</time>
      </trkpt>
      <trkpt lat="50.59042" lon="3.48665">
        <ele>45.43058</ele>
        <time>2020-06-18T15:55:57.610Z</time>
      </trkpt>
      <trkpt lat="50.59042" lon="3.48656">
        <ele>45.364385</ele>
        <time>2020-06-18T15:55:58.866Z</time>
      </trkpt>
      <trkpt lat="50.59042" lon="3.48628">
        <ele>45.15783</ele>
        <time>2020-06-18T15:56:02.669Z</time>
      </trkpt>
      <trkpt lat="50.59039" lon="3.48507">
        <ele>44.432093</ele>
        <time>2020-06-18T15:56:19.479Z</time>
      </trkpt>
      <trkpt lat="50.59042" lon="3.48498">
        <ele>44.375481</ele>
        <time>2020-06-18T15:56:20.807Z</time>
      </trkpt>
      <trkpt lat="50.59071" lon="3.48457">
        <ele>44.045988</ele>
        <time>2020-06-18T15:56:29.276Z</time>
      </trkpt>
      <trkpt lat="50.59089" lon="3.4842">
        <ele>43.792425</ele>
        <time>2020-06-18T15:56:35.715Z</time>
      </trkpt>
      <trkpt lat="50.59102" lon="3.48367">
        <ele>43.490099</ele>
        <time>2020-06-18T15:56:43.403Z</time>
      </trkpt>
      <trkpt lat="50.5911" lon="3.48351">
        <ele>43.384155</ele>
        <time>2020-06-18T15:56:46.014Z</time>
      </trkpt>
      <trkpt lat="50.59122" lon="3.48337">
        <ele>43.188684</ele>
        <time>2020-06-18T15:56:49.383Z</time>
      </trkpt>
      <trkpt lat="50.5914" lon="3.48328">
        <ele>42.899725</ele>
        <time>2020-06-18T15:56:53.102Z</time>
      </trkpt>
      <trkpt lat="50.59243" lon="3.48273">
        <ele>41.232091</ele>
        <time>2020-06-18T15:57:14.308Z</time>
      </trkpt>
      <trkpt lat="50.59332" lon="3.48142">
        <ele>39.771893</ele>
        <time>2020-06-18T15:57:37.593Z</time>
      </trkpt>
      <trkpt lat="50.59369" lon="3.48082">
        <ele>39.232929</ele>
        <time>2020-06-18T15:57:48.922Z</time>
      </trkpt>
      <trkpt lat="50.59314" lon="3.48023">
        <ele>38.842079</ele>
        <time>2020-06-18T15:58:04.575Z</time>
      </trkpt>
      <trkpt lat="50.59304" lon="3.48014">
        <ele>38.906513</ele>
        <time>2020-06-18T15:58:08.095Z</time>
      </trkpt>
      <trkpt lat="50.59293" lon="3.48005">
        <ele>38.974615</ele>
        <time>2020-06-18T15:58:11.245Z</time>
      </trkpt>
      <trkpt lat="50.59219" lon="3.47937">
        <ele>39.434026</ele>
        <time>2020-06-18T15:58:35.426Z</time>
      </trkpt>
      <trkpt lat="50.59216" lon="3.4792">
        <ele>39.494887</ele>
        <time>2020-06-18T15:58:39.121Z</time>
      </trkpt>
      <trkpt lat="50.59222" lon="3.47886">
        <ele>39.615586</ele>
        <time>2020-06-18T15:58:45.144Z</time>
      </trkpt>
      <trkpt lat="50.59244" lon="3.47797">
        <ele>39.832763</ele>
        <time>2020-06-18T15:59:01.214Z</time>
      </trkpt>
      <trkpt lat="50.59268" lon="3.47728">
        <ele>39.970769</ele>
        <time>2020-06-18T15:59:13.352Z</time>
      </trkpt>
      <trkpt lat="50.59314" lon="3.47621">
        <ele>40.198625</ele>
        <time>2020-06-18T15:59:34.035Z</time>
      </trkpt>
      <trkpt lat="50.59319" lon="3.476">
        <ele>40.232386</ele>
        <time>2020-06-18T15:59:37.543Z</time>
      </trkpt>
      <trkpt lat="50.59327" lon="3.47572">
        <ele>40.272179</ele>
        <time>2020-06-18T15:59:42.717Z</time>
      </trkpt>
      <trkpt lat="50.59329" lon="3.47563">
        <ele>40.285095</ele>
        <time>2020-06-18T15:59:44.170Z</time>
      </trkpt>
      <trkpt lat="50.59341" lon="3.47519">
        <ele>40.347542</ele>
        <time>2020-06-18T15:59:52.039Z</time>
      </trkpt>
      <trkpt lat="50.59349" lon="3.47485">
        <ele>40.395297</ele>
        <time>2020-06-18T15:59:57.668Z</time>
      </trkpt>
      <trkpt lat="50.59356" lon="3.47475">
        <ele>40.415333</ele>
        <time>2020-06-18T16:00:00.456Z</time>
      </trkpt>
      <trkpt lat="50.59381" lon="3.47432">
        <ele>40.49126</ele>
        <time>2020-06-18T16:00:09.857Z</time>
      </trkpt>
      <trkpt lat="50.59515" lon="3.47314">
        <ele>40.469973</ele>
        <time>2020-06-18T16:00:48.450Z</time>
      </trkpt>
      <trkpt lat="50.59579" lon="3.47278">
        <ele>40.396727</ele>
        <time>2020-06-18T16:01:03.764Z</time>
      </trkpt>
      <trkpt lat="50.59579" lon="3.47291">
        <ele>40.343822</ele>
        <time>2020-06-18T16:01:05.177Z</time>
      </trkpt>
      <trkpt lat="50.59595" lon="3.47275">
        <ele>40.161157</ele>
        <time>2020-06-18T16:01:09.126Z</time>
      </trkpt>
      <trkpt lat="50.59637" lon="3.47245">
        <ele>39.710156</ele>
        <time>2020-06-18T16:01:18.865Z</time>
      </trkpt>
      <trkpt lat="50.59656" lon="3.47237">
        <ele>39.511826</ele>
        <time>2020-06-18T16:01:23.008Z</time>
      </trkpt>
      <trkpt lat="50.59662" lon="3.47236">
        <ele>39.448524</ele>
        <time>2020-06-18T16:01:24.360Z</time>
      </trkpt>
      <trkpt lat="50.59674" lon="3.47241">
        <ele>39.32867</ele>
        <time>2020-06-18T16:01:26.913Z</time>
      </trkpt>
      <trkpt lat="50.59694" lon="3.47157">
        <ele>38.767208</ele>
        <time>2020-06-18T16:01:38.618Z</time>
      </trkpt>
      <trkpt lat="50.59691" lon="3.47138">
        <ele>38.640458</ele>
        <time>2020-06-18T16:01:41.266Z</time>
      </trkpt>
      <trkpt lat="50.59693" lon="3.47125">
        <ele>38.513272</ele>
        <time>2020-06-18T16:01:42.891Z</time>
      </trkpt>
      <trkpt lat="50.5971" lon="3.47089">
        <ele>38.018772</ele>
        <time>2020-06-18T16:01:48.766Z</time>
      </trkpt>
      <trkpt lat="50.59713" lon="3.4708">
        <ele>37.916104</ele>
        <time>2020-06-18T16:01:49.961Z</time>
      </trkpt>
      <trkpt lat="50.59734" lon="3.46984">
        <ele>36.823005</ele>
        <time>2020-06-18T16:02:02.616Z</time>
      </trkpt>
      <trkpt lat="50.59748" lon="3.46916">
        <ele>36.042437</ele>
        <time>2020-06-18T16:02:11.392Z</time>
      </trkpt>
      <trkpt lat="50.59802" lon="3.4695">
        <ele>34.89883</ele>
        <time>2020-06-18T16:02:18.908Z</time>
      </trkpt>
      <trkpt lat="50.59859" lon="3.46986">
        <ele>33.529583</ele>
        <time>2020-06-18T16:02:26.725Z</time>
      </trkpt>
      <trkpt lat="50.59862" lon="3.46989">
        <ele>33.440595</ele>
        <time>2020-06-18T16:02:27.242Z</time>
      </trkpt>
      <trkpt lat="50.59938" lon="3.47033">
        <ele>31.633823</ele>
        <time>2020-06-18T16:02:37.651Z</time>
      </trkpt>
      <trkpt lat="50.59959" lon="3.47034">
        <ele>31.227319</ele>
        <time>2020-06-18T16:02:40.303Z</time>
      </trkpt>
      <trkpt lat="50.60084" lon="3.46996">
        <ele>28.776783</ele>
        <time>2020-06-18T16:02:57.344Z</time>
      </trkpt>
      <trkpt lat="50.60107" lon="3.47009">
        <ele>28.318608</ele>
        <time>2020-06-18T16:03:00.605Z</time>
      </trkpt>
      <trkpt lat="50.60118" lon="3.47021">
        <ele>28.046155</ele>
        <time>2020-06-18T16:03:02.428Z</time>
      </trkpt>
      <trkpt lat="50.60172" lon="3.47099">
        <ele>25.729984</ele>
        <time>2020-06-18T16:03:12.320Z</time>
      </trkpt>
      <trkpt lat="50.60256" lon="3.47185">
        <ele>22.552485</ele>
        <time>2020-06-18T16:03:24.027Z</time>
      </trkpt>
      <trkpt lat="50.60298" lon="3.47212">
        <ele>20.60385</ele>
        <time>2020-06-18T16:03:29.425Z</time>
      </trkpt>
      <trkpt lat="50.60304" lon="3.47216">
        <ele>20.302142</ele>
        <time>2020-06-18T16:03:30.175Z</time>
      </trkpt>
      <trkpt lat="50.6031" lon="3.47219">
        <ele>20.020863</ele>
        <time>2020-06-18T16:03:30.847Z</time>
      </trkpt>
      <trkpt lat="50.60354" lon="3.47232">
        <ele>18.063897</ele>
        <time>2020-06-18T16:03:36.131Z</time>
      </trkpt>
      <trkpt lat="50.60385" lon="3.47232">
        <ele>16.683145</ele>
        <time>2020-06-18T16:03:39.695Z</time>
      </trkpt>
      <trkpt lat="50.60496" lon="3.47205">
        <ele>11.975508</ele>
        <time>2020-06-18T16:03:52.515Z</time>
      </trkpt>
      <trkpt lat="50.60516" lon="3.47202">
        <ele>11.175696</ele>
        <time>2020-06-18T16:03:55.039Z</time>
      </trkpt>
      <trkpt lat="50.60535" lon="3.47205">
        <ele>10.424204</ele>
        <time>2020-06-18T16:03:57.152Z</time>
      </trkpt>
      <trkpt lat="50.60613" lon="3.47237">
        <ele>7.24217</ele>
        <time>2020-06-18T16:04:06.651Z</time>
      </trkpt>
      <trkpt lat="50.60758" lon="3.47353">
        <ele>4.421247</ele>
        <time>2020-06-18T16:04:27.498Z</time>
      </trkpt>
      <trkpt lat="50.60973" lon="3.47511">
        <ele>11.500627</ele>
        <time>2020-06-18T16:05:42.003Z</time>
      </trkpt>
      <trkpt lat="50.6098" lon="3.47517">
        <ele>12.029223</ele>
        <time>2020-06-18T16:05:46.345Z</time>
      </trkpt>
      <trkpt lat="50.61076" lon="3.47588">
        <ele>18.907423</ele>
        <time>2020-06-18T16:06:44.728Z</time>
      </trkpt>
      <trkpt lat="50.61098" lon="3.47596">
        <ele>20.357089</ele>
        <time>2020-06-18T16:06:57.718Z</time>
      </trkpt>
      <trkpt lat="50.61119" lon="3.47603">
        <ele>21.572218</ele>
        <time>2020-06-18T16:07:10.134Z</time>
      </trkpt>
      <trkpt lat="50.61163" lon="3.47606">
        <ele>24.089692</ele>
        <time>2020-06-18T16:07:34.172Z</time>
      </trkpt>
      <trkpt lat="50.61212" lon="3.47601">
        <ele>26.854605</ele>
        <time>2020-06-18T16:07:56.981Z</time>
      </trkpt>
      <trkpt lat="50.6125" lon="3.47598">
        <ele>29.021017</ele>
        <time>2020-06-18T16:08:11.596Z</time>
      </trkpt>
      <trkpt lat="50.61314" lon="3.47606">
        <ele>31.071693</ele>
        <time>2020-06-18T16:08:32.011Z</time>
      </trkpt>
      <trkpt lat="50.61372" lon="3.47635">
        <ele>31.782267</ele>
        <time>2020-06-18T16:08:46.571Z</time>
      </trkpt>
      <trkpt lat="50.61462" lon="3.47684">
        <ele>32.711075</ele>
        <time>2020-06-18T16:09:03.865Z</time>
      </trkpt>
      <trkpt lat="50.61466" lon="3.47636">
        <ele>32.578021</ele>
        <time>2020-06-18T16:09:09.176Z</time>
      </trkpt>
      <trkpt lat="50.6152" lon="3.47351">
        <ele>31.479056</ele>
        <time>2020-06-18T16:09:38.858Z</time>
      </trkpt>
      <trkpt lat="50.6152" lon="3.4732">
        <ele>31.288997</ele>
        <time>2020-06-18T16:09:41.803Z</time>
      </trkpt>
      <trkpt lat="50.6153" lon="3.47319">
        <ele>31.193346</ele>
        <time>2020-06-18T16:09:43.164Z</time>
      </trkpt>
      <trkpt lat="50.61572" lon="3.47335">
        <ele>30.77451</ele>
        <time>2020-06-18T16:09:49.468Z</time>
      </trkpt>
      <trkpt lat="50.61588" lon="3.47334">
        <ele>30.618475</ele>
        <time>2020-06-18T16:09:51.816Z</time>
      </trkpt>
      <trkpt lat="50.61605" lon="3.47324">
        <ele>30.442468</ele>
        <time>2020-06-18T16:09:54.352Z</time>
      </trkpt>
      <trkpt lat="50.61623" lon="3.47297">
        <ele>30.192865</ele>
        <time>2020-06-18T16:09:57.919Z</time>
      </trkpt>
      <trkpt lat="50.61641" lon="3.47254">
        <ele>29.766958</ele>
        <time>2020-06-18T16:10:02.634Z</time>
      </trkpt>
      <trkpt lat="50.61646" lon="3.47231">
        <ele>29.56978</ele>
        <time>2020-06-18T16:10:04.734Z</time>
      </trkpt>
      <trkpt lat="50.61678" lon="3.47025">
        <ele>27.864469</ele>
        <time>2020-06-18T16:10:23.742Z</time>
      </trkpt>
      <trkpt lat="50.61682" lon="3.47002">
        <ele>27.726634</ele>
        <time>2020-06-18T16:10:26.013Z</time>
      </trkpt>
      <trkpt lat="50.61683" lon="3.46986">
        <ele>27.6405</ele>
        <time>2020-06-18T16:10:27.343Z</time>
      </trkpt>
      <trkpt lat="50.61698" lon="3.46879">
        <ele>27.020777</ele>
        <time>2020-06-18T16:10:37.430Z</time>
      </trkpt>
      <trkpt lat="50.61695" lon="3.46819">
        <ele>26.676736</ele>
        <time>2020-06-18T16:10:43.145Z</time>
      </trkpt>
      <trkpt lat="50.61704" lon="3.4682">
        <ele>26.601495</ele>
        <time>2020-06-18T16:10:44.365Z</time>
      </trkpt>
      <trkpt lat="50.61788" lon="3.46864">
        <ele>26.615672</ele>
        <time>2020-06-18T16:10:59.639Z</time>
      </trkpt>
      <trkpt lat="50.61843" lon="3.46944">
        <ele>27.016903</ele>
        <time>2020-06-18T16:11:14.756Z</time>
      </trkpt>
      <trkpt lat="50.61859" lon="3.46943">
        <ele>27.099468</ele>
        <time>2020-06-18T16:11:18.186Z</time>
      </trkpt>
      <trkpt lat="50.61859" lon="3.46946">
        <ele>27.109053</ele>
        <time>2020-06-18T16:11:18.797Z</time>
      </trkpt>
      <trkpt lat="50.6187" lon="3.46956">
        <ele>27.177477</ele>
        <time>2020-06-18T16:11:21.777Z</time>
      </trkpt>
      <trkpt lat="50.61872" lon="3.46955">
        <ele>27.192357</ele>
        <time>2020-06-18T16:11:22.517Z</time>
      </trkpt>
      <trkpt lat="50.61875" lon="3.46951">
        <ele>27.209033</ele>
        <time>2020-06-18T16:11:23.101Z</time>
      </trkpt>
      <trkpt lat="50.61874" lon="3.46933">
        <ele>27.270377</ele>
        <time>2020-06-18T16:11:25.781Z</time>
      </trkpt>
      <trkpt lat="50.61872" lon="3.4693">
        <ele>27.321576</ele>
        <time>2020-06-18T16:11:26.426Z</time>
      </trkpt>
      <trkpt lat="50.61874" lon="3.46919">
        <ele>27.518452</ele>
        <time>2020-06-18T16:11:28.746Z</time>
      </trkpt>
      <trkpt lat="50.61882" lon="3.46906">
        <ele>27.794118</ele>
        <time>2020-06-18T16:11:31.325Z</time>
      </trkpt>
      <trkpt lat="50.6192" lon="3.46906">
        <ele>28.748205</ele>
        <time>2020-06-18T16:11:41.834Z</time>
      </trkpt>
      <trkpt lat="50.61939" lon="3.46886">
        <ele>29.318454</ele>
        <time>2020-06-18T16:11:48.910Z</time>
      </trkpt>
      <trkpt lat="50.61966" lon="3.46753">
        <ele>31.547653</ele>
        <time>2020-06-18T16:12:17.172Z</time>
      </trkpt>
      <trkpt lat="50.62004" lon="3.46748">
        <ele>32.835811</ele>
        <time>2020-06-18T16:12:30.014Z</time>
      </trkpt>
      <trkpt lat="50.62098" lon="3.46721">
        <ele>36.296873</ele>
        <time>2020-06-18T16:13:03.962Z</time>
      </trkpt>
      <trkpt lat="50.62169" lon="3.46724">
        <ele>38.84126</ele>
        <time>2020-06-18T16:13:29.805Z</time>
      </trkpt>
      <trkpt lat="50.62205" lon="3.46737">
        <ele>40.208833</ele>
        <time>2020-06-18T16:13:43.505Z</time>
      </trkpt>
      <trkpt lat="50.62296" lon="3.468">
        <ele>43.795885</ele>
        <time>2020-06-18T16:14:17.959Z</time>
      </trkpt>
      <trkpt lat="50.62308" lon="3.46828">
        <ele>44.582739</ele>
        <time>2020-06-18T16:14:25.703Z</time>
      </trkpt>
      <trkpt lat="50.62367" lon="3.46963">
        <ele>47.732086</ele>
        <time>2020-06-18T16:15:00.353Z</time>
      </trkpt>
      <trkpt lat="50.62395" lon="3.47004">
        <ele>48.852916</ele>
        <time>2020-06-18T16:15:12.630Z</time>
      </trkpt>
      <trkpt lat="50.6252" lon="3.47058">
        <ele>51.409928</ele>
        <time>2020-06-18T16:15:50.092Z</time>
      </trkpt>
      <trkpt lat="50.62553" lon="3.47075">
        <ele>51.915219</ele>
        <time>2020-06-18T16:15:58.788Z</time>
      </trkpt>
      <trkpt lat="50.62606" lon="3.47097">
        <ele>52.702302</ele>
        <time>2020-06-18T16:16:10.910Z</time>
      </trkpt>
      <trkpt lat="50.62837" lon="3.47257">
        <ele>50.384885</ele>
        <time>2020-06-18T16:16:48.540Z</time>
      </trkpt>
      <trkpt lat="50.62912" lon="3.47344">
        <ele>48.856822</ele>
        <time>2020-06-18T16:17:00.709Z</time>
      </trkpt>
      <trkpt lat="50.62937" lon="3.47366">
        <ele>48.384416</ele>
        <time>2020-06-18T16:17:04.378Z</time>
      </trkpt>
      <trkpt lat="50.62972" lon="3.47378">
        <ele>47.777789</ele>
        <time>2020-06-18T16:17:08.961Z</time>
      </trkpt>
      <trkpt lat="50.63104" lon="3.47372">
        <ele>45.515953</ele>
        <time>2020-06-18T16:17:26.886Z</time>
      </trkpt>
      <trkpt lat="50.63155" lon="3.47359">
        <ele>45.329469</ele>
        <time>2020-06-18T16:17:34.679Z</time>
      </trkpt>
      <trkpt lat="50.63333" lon="3.47252">
        <ele>45.432559</ele>
        <time>2020-06-18T16:18:09.409Z</time>
      </trkpt>
      <trkpt lat="50.63361" lon="3.47264">
        <ele>45.673428</ele>
        <time>2020-06-18T16:18:15.731Z</time>
      </trkpt>
      <trkpt lat="50.63544" lon="3.47492">
        <ele>48.718026</ele>
        <time>2020-06-18T16:19:11.829Z</time>
      </trkpt>
      <trkpt lat="50.63567" lon="3.47498">
        <ele>49.088523</ele>
        <time>2020-06-18T16:19:18.146Z</time>
      </trkpt>
      <trkpt lat="50.63834" lon="3.47456">
        <ele>56.636053</ele>
        <time>2020-06-18T16:20:43.013Z</time>
      </trkpt>
      <trkpt lat="50.63837" lon="3.47455">
        <ele>56.725432</ele>
        <time>2020-06-18T16:20:43.932Z</time>
      </trkpt>
      <trkpt lat="50.63873" lon="3.47451">
        <ele>57.870333</ele>
        <time>2020-06-18T16:20:55.971Z</time>
      </trkpt>
      <trkpt lat="50.63999" lon="3.47435">
        <ele>61.588476</ele>
        <time>2020-06-18T16:21:39.677Z</time>
      </trkpt>
      <trkpt lat="50.64087" lon="3.47424">
        <ele>63.922842</ele>
        <time>2020-06-18T16:22:06.071Z</time>
      </trkpt>
      <trkpt lat="50.64092" lon="3.47422">
        <ele>64.055609</ele>
        <time>2020-06-18T16:22:07.859Z</time>
      </trkpt>
      <trkpt lat="50.64102" lon="3.47418">
        <ele>64.340355</ele>
        <time>2020-06-18T16:22:10.621Z</time>
      </trkpt>
      <trkpt lat="50.64145" lon="3.47375">
        <ele>64.876068</ele>
        <time>2020-06-18T16:22:23.720Z</time>
      </trkpt>
      <trkpt lat="50.64203" lon="3.47276">
        <ele>65.153562</ele>
        <time>2020-06-18T16:22:41.228Z</time>
      </trkpt>
      <trkpt lat="50.64256" lon="3.47201">
        <ele>65.18403</ele>
        <time>2020-06-18T16:22:51.834Z</time>
      </trkpt>
      <trkpt lat="50.64257" lon="3.47199">
        <ele>65.147555</ele>
        <time>2020-06-18T16:22:52.123Z</time>
      </trkpt>
      <trkpt lat="50.64292" lon="3.47148">
        <ele>64.451659</ele>
        <time>2020-06-18T16:22:58.878Z</time>
      </trkpt>
      <trkpt lat="50.64375" lon="3.46964">
        <ele>62.49341</ele>
        <time>2020-06-18T16:23:18.294Z</time>
      </trkpt>
      <trkpt lat="50.64393" lon="3.46902">
        <ele>62.116888</ele>
        <time>2020-06-18T16:23:24.439Z</time>
      </trkpt>
      <trkpt lat="50.64394" lon="3.46898">
        <ele>62.092026</ele>
        <time>2020-06-18T16:23:24.849Z</time>
      </trkpt>
      <trkpt lat="50.64459" lon="3.4661">
        <ele>60.952747</ele>
        <time>2020-06-18T16:23:55.611Z</time>
      </trkpt>
      <trkpt lat="50.64537" lon="3.46302">
        <ele>60.717825</ele>
        <time>2020-06-18T16:24:33.810Z</time>
      </trkpt>
      <trkpt lat="50.64545" lon="3.4629">
        <ele>60.715338</ele>
        <time>2020-06-18T16:24:35.660Z</time>
      </trkpt>
      <trkpt lat="50.64791" lon="3.45877">
        <ele>59.730006</ele>
        <time>2020-06-18T16:25:37.034Z</time>
      </trkpt>
      <trkpt lat="50.64868" lon="3.45742">
        <ele>58.382226</ele>
        <time>2020-06-18T16:25:53.459Z</time>
      </trkpt>
      <trkpt lat="50.64911" lon="3.45649">
        <ele>57.112999</ele>
        <time>2020-06-18T16:26:03.107Z</time>
      </trkpt>
      <trkpt lat="50.64921" lon="3.45607">
        <ele>56.624163</ele>
        <time>2020-06-18T16:26:06.790Z</time>
      </trkpt>
      <trkpt lat="50.64923" lon="3.456">
        <ele>56.537811</ele>
        <time>2020-06-18T16:26:07.448Z</time>
      </trkpt>
      <trkpt lat="50.64942" lon="3.455">
        <ele>55.146296</ele>
        <time>2020-06-18T16:26:16.145Z</time>
      </trkpt>
      <trkpt lat="50.64956" lon="3.45423">
        <ele>54.035678</ele>
        <time>2020-06-18T16:26:22.784Z</time>
      </trkpt>
      <trkpt lat="50.64968" lon="3.45377">
        <ele>53.350851</ele>
        <time>2020-06-18T16:26:26.812Z</time>
      </trkpt>
      <trkpt lat="50.65029" lon="3.45234">
        <ele>50.735865</ele>
        <time>2020-06-18T16:26:40.977Z</time>
      </trkpt>
      <trkpt lat="50.65049" lon="3.45189">
        <ele>49.863632</ele>
        <time>2020-06-18T16:26:45.398Z</time>
      </trkpt>
      <trkpt lat="50.65076" lon="3.45148">
        <ele>48.91281</ele>
        <time>2020-06-18T16:26:50.122Z</time>
      </trkpt>
      <trkpt lat="50.65093" lon="3.45133">
        <ele>48.418477</ele>
        <time>2020-06-18T16:26:52.639Z</time>
      </trkpt>
      <trkpt lat="50.65104" lon="3.45124">
        <ele>48.103111</ele>
        <time>2020-06-18T16:26:54.189Z</time>
      </trkpt>
      <trkpt lat="50.65111" lon="3.45119">
        <ele>47.926073</ele>
        <time>2020-06-18T16:26:55.005Z</time>
      </trkpt>
      <trkpt lat="50.65163" lon="3.45063">
        <ele>46.123134</ele>
        <time>2020-06-18T16:27:02.886Z</time>
      </trkpt>
      <trkpt lat="50.65194" lon="3.45042">
        <ele>45.146103</ele>
        <time>2020-06-18T16:27:07.132Z</time>
      </trkpt>
      <trkpt lat="50.65228" lon="3.4503">
        <ele>44.147059</ele>
        <time>2020-06-18T16:27:11.402Z</time>
      </trkpt>
      <trkpt lat="50.6529" lon="3.45037">
        <ele>42.353448</ele>
        <time>2020-06-18T16:27:19.064Z</time>
      </trkpt>
      <trkpt lat="50.65333" lon="3.45004">
        <ele>41.066005</ele>
        <time>2020-06-18T16:27:24.936Z</time>
      </trkpt>
      <trkpt lat="50.65374" lon="3.44965">
        <ele>39.776181</ele>
        <time>2020-06-18T16:27:30.867Z</time>
      </trkpt>
      <trkpt lat="50.65382" lon="3.44958">
        <ele>39.53311</ele>
        <time>2020-06-18T16:27:31.945Z</time>
      </trkpt>
      <trkpt lat="50.65387" lon="3.44944">
        <ele>39.271376</ele>
        <time>2020-06-18T16:27:33.229Z</time>
      </trkpt>
      <trkpt lat="50.65397" lon="3.44915">
        <ele>38.697078</ele>
        <time>2020-06-18T16:27:35.925Z</time>
      </trkpt>
      <trkpt lat="50.65404" lon="3.4488">
        <ele>38.062474</ele>
        <time>2020-06-18T16:27:39.008Z</time>
      </trkpt>
      <trkpt lat="50.65406" lon="3.44859">
        <ele>37.770032</ele>
        <time>2020-06-18T16:27:40.732Z</time>
      </trkpt>
      <trkpt lat="50.65403" lon="3.44837">
        <ele>37.67247</ele>
        <time>2020-06-18T16:27:42.661Z</time>
      </trkpt>
      <trkpt lat="50.65381" lon="3.44753">
        <ele>37.278378</ele>
        <time>2020-06-18T16:27:50.463Z</time>
      </trkpt>
      <trkpt lat="50.65375" lon="3.44729">
        <ele>37.165283</ele>
        <time>2020-06-18T16:27:52.887Z</time>
      </trkpt>
      <trkpt lat="50.65371" lon="3.44714">
        <ele>37.09216</ele>
        <time>2020-06-18T16:27:54.517Z</time>
      </trkpt>
      <trkpt lat="50.65336" lon="3.44581">
        <ele>36.772524</ele>
        <time>2020-06-18T16:28:12.246Z</time>
      </trkpt>
      <trkpt lat="50.65335" lon="3.44515">
        <ele>37.445336</ele>
        <time>2020-06-18T16:28:22.384Z</time>
      </trkpt>
      <trkpt lat="50.65315" lon="3.44445">
        <ele>38.233503</ele>
        <time>2020-06-18T16:28:35.302Z</time>
      </trkpt>
      <trkpt lat="50.65317" lon="3.44432">
        <ele>38.370106</ele>
        <time>2020-06-18T16:28:37.628Z</time>
      </trkpt>
      <trkpt lat="50.6532" lon="3.44422">
        <ele>38.492585</ele>
        <time>2020-06-18T16:28:39.665Z</time>
      </trkpt>
      <trkpt lat="50.65411" lon="3.4435">
        <ele>40.37429</ele>
        <time>2020-06-18T16:29:07.704Z</time>
      </trkpt>
      <trkpt lat="50.65498" lon="3.44194">
        <ele>43.322391</ele>
        <time>2020-06-18T16:29:45.898Z</time>
      </trkpt>
      <trkpt lat="50.65509" lon="3.44161">
        <ele>43.907862</ele>
        <time>2020-06-18T16:29:52.193Z</time>
      </trkpt>
      <trkpt lat="50.65513" lon="3.4415">
        <ele>44.130729</ele>
        <time>2020-06-18T16:29:54.721Z</time>
      </trkpt>
      <trkpt lat="50.65571" lon="3.43951">
        <ele>47.77319</ele>
        <time>2020-06-18T16:30:36.545Z</time>
      </trkpt>
      <trkpt lat="50.656" lon="3.4382">
        <ele>50.760151</ele>
        <time>2020-06-18T16:31:06.364Z</time>
      </trkpt>
      <trkpt lat="50.65616" lon="3.43725">
        <ele>53.00705</ele>
        <time>2020-06-18T16:31:29.906Z</time>
      </trkpt>
      <trkpt lat="50.6563" lon="3.43572">
        <ele>55.720503</ele>
        <time>2020-06-18T16:32:04.219Z</time>
      </trkpt>
      <trkpt lat="50.65632" lon="3.43472">
        <ele>57.020037</ele>
        <time>2020-06-18T16:32:22.290Z</time>
      </trkpt>
      <trkpt lat="50.65671" lon="3.43464">
        <ele>57.811312</ele>
        <time>2020-06-18T16:32:30.774Z</time>
      </trkpt>
      <trkpt lat="50.65718" lon="3.43468">
        <ele>58.331435</ele>
        <time>2020-06-18T16:32:40.461Z</time>
      </trkpt>
      <trkpt lat="50.65779" lon="3.43498">
        <ele>58.311022</ele>
        <time>2020-06-18T16:32:51.928Z</time>
      </trkpt>
      <trkpt lat="50.658" lon="3.43509">
        <ele>58.303756</ele>
        <time>2020-06-18T16:32:55.187Z</time>
      </trkpt>
      <trkpt lat="50.65856" lon="3.43381">
        <ele>58.390284</ele>
        <time>2020-06-18T16:33:11.922Z</time>
      </trkpt>
      <trkpt lat="50.65884" lon="3.43243">
        <ele>58.765386</ele>
        <time>2020-06-18T16:33:30.270Z</time>
      </trkpt>
      <trkpt lat="50.65891" lon="3.43209">
        <ele>58.858509</ele>
        <time>2020-06-18T16:33:35.086Z</time>
      </trkpt>
      <trkpt lat="50.65893" lon="3.43186">
        <ele>58.918251</ele>
        <time>2020-06-18T16:33:38.206Z</time>
      </trkpt>
      <trkpt lat="50.65889" lon="3.43161">
        <ele>58.985894</ele>
        <time>2020-06-18T16:33:41.705Z</time>
      </trkpt>
      <trkpt lat="50.65858" lon="3.43129">
        <ele>59.412252</ele>
        <time>2020-06-18T16:33:49.642Z</time>
      </trkpt>
      <trkpt lat="50.65849" lon="3.43116">
        <ele>59.57175</ele>
        <time>2020-06-18T16:33:52.311Z</time>
      </trkpt>
      <trkpt lat="50.65845" lon="3.43095">
        <ele>59.757371</ele>
        <time>2020-06-18T16:33:55.387Z</time>
      </trkpt>
      <trkpt lat="50.65847" lon="3.42991">
        <ele>60.633124</ele>
        <time>2020-06-18T16:34:10.804Z</time>
      </trkpt>
      <trkpt lat="50.65836" lon="3.4287">
        <ele>62.005281</ele>
        <time>2020-06-18T16:34:31.294Z</time>
      </trkpt>
      <trkpt lat="50.65854" lon="3.4278">
        <ele>63.836862</ele>
        <time>2020-06-18T16:34:50.456Z</time>
      </trkpt>
      <trkpt lat="50.65857" lon="3.42659">
        <ele>66.180505</ele>
        <time>2020-06-18T16:35:16.663Z</time>
      </trkpt>
      <trkpt lat="50.65856" lon="3.42643">
        <ele>66.489518</ele>
        <time>2020-06-18T16:35:20.627Z</time>
      </trkpt>
      <trkpt lat="50.65853" lon="3.42587">
        <ele>67.494159</ele>
        <time>2020-06-18T16:35:33.644Z</time>
      </trkpt>
      <trkpt lat="50.65913" lon="3.42417">
        <ele>70.757838</ele>
        <time>2020-06-18T16:36:15.613Z</time>
      </trkpt>
      <trkpt lat="50.65923" lon="3.42397">
        <ele>71.191306</ele>
        <time>2020-06-18T16:36:18.968Z</time>
      </trkpt>
      <trkpt lat="50.65936" lon="3.42386">
        <ele>71.590499</ele>
        <time>2020-06-18T16:36:22.856Z</time>
      </trkpt>
      <trkpt lat="50.6597" lon="3.42402">
        <ele>71.229018</ele>
        <time>2020-06-18T16:36:30.734Z</time>
      </trkpt>
      <trkpt lat="50.66019" lon="3.42429">
        <ele>70.482527</ele>
        <time>2020-06-18T16:36:41.228Z</time>
      </trkpt>
      <trkpt lat="50.66095" lon="3.4248">
        <ele>69.294068</ele>
        <time>2020-06-18T16:36:56.430Z</time>
      </trkpt>
      <trkpt lat="50.66335" lon="3.4264">
        <ele>61.925072</ele>
        <time>2020-06-18T16:37:42.864Z</time>
      </trkpt>
      <trkpt lat="50.66383" lon="3.42661">
        <ele>60.3958</ele>
        <time>2020-06-18T16:37:51.918Z</time>
      </trkpt>
      <trkpt lat="50.66551" lon="3.42712">
        <ele>54.443835</ele>
        <time>2020-06-18T16:38:21.587Z</time>
      </trkpt>
      <trkpt lat="50.6663" lon="3.42771">
        <ele>51.141211</ele>
        <time>2020-06-18T16:38:36.041Z</time>
      </trkpt>
      <trkpt lat="50.66739" lon="3.42897">
        <ele>45.673319</ele>
        <time>2020-06-18T16:38:58.520Z</time>
      </trkpt>
      <trkpt lat="50.66741" lon="3.42899">
        <ele>45.573175</ele>
        <time>2020-06-18T16:38:58.884Z</time>
      </trkpt>
      <trkpt lat="50.67047" lon="3.43263">
        <ele>34.789075</ele>
        <time>2020-06-18T16:40:07.933Z</time>
      </trkpt>
      <trkpt lat="50.67152" lon="3.43258">
        <ele>32.83176</ele>
        <time>2020-06-18T16:40:27.932Z</time>
      </trkpt>
      <trkpt lat="50.6717" lon="3.43264">
        <ele>32.484504</ele>
        <time>2020-06-18T16:40:31.567Z</time>
      </trkpt>
      <trkpt lat="50.67195" lon="3.43287">
        <ele>31.947839</ele>
        <time>2020-06-18T16:40:37.201Z</time>
      </trkpt>
      <trkpt lat="50.67392" lon="3.43447">
        <ele>28.752537</ele>
        <time>2020-06-18T16:41:21.066Z</time>
      </trkpt>
      <trkpt lat="50.67418" lon="3.43462">
        <ele>28.549203</ele>
        <time>2020-06-18T16:41:26.972Z</time>
      </trkpt>
      <trkpt lat="50.67448" lon="3.43464">
        <ele>28.336646</ele>
        <time>2020-06-18T16:41:33.213Z</time>
      </trkpt>
      <trkpt lat="50.67507" lon="3.43451">
        <ele>27.906668</ele>
        <time>2020-06-18T16:41:46.224Z</time>
      </trkpt>
      <trkpt lat="50.67628" lon="3.43425">
        <ele>27.479825</ele>
        <time>2020-06-18T16:42:14.622Z</time>
      </trkpt>
      <trkpt lat="50.67671" lon="3.43416">
        <ele>27.443263</ele>
        <time>2020-06-18T16:42:25.290Z</time>
      </trkpt>
      <trkpt lat="50.67738" lon="3.4339">
        <ele>27.382818</ele>
        <time>2020-06-18T16:42:41.867Z</time>
      </trkpt>
      <trkpt lat="50.67767" lon="3.43355">
        <ele>27.296834</ele>
        <time>2020-06-18T16:42:50.748Z</time>
      </trkpt>
      <trkpt lat="50.67782" lon="3.43333">
        <ele>27.247604</ele>
        <time>2020-06-18T16:42:55.817Z</time>
      </trkpt>
      <trkpt lat="50.67804" lon="3.43332">
        <ele>27.195906</ele>
        <time>2020-06-18T16:43:01.003Z</time>
      </trkpt>
      <trkpt lat="50.67894" lon="3.43363">
        <ele>26.978451</ele>
        <time>2020-06-18T16:43:22.171Z</time>
      </trkpt>
      <trkpt lat="50.67916" lon="3.43377">
        <ele>26.908022</ele>
        <time>2020-06-18T16:43:27.392Z</time>
      </trkpt>
      <trkpt lat="50.68045" lon="3.43455">
        <ele>26.461701</ele>
        <time>2020-06-18T16:43:58.707Z</time>
      </trkpt>
      <trkpt lat="50.68216" lon="3.4356">
        <ele>26.095004</ele>
        <time>2020-06-18T16:44:41.825Z</time>
      </trkpt>
      <trkpt lat="50.6828" lon="3.43592">
        <ele>25.909416</ele>
        <time>2020-06-18T16:44:57.709Z</time>
      </trkpt>
      <trkpt lat="50.68294" lon="3.43595">
        <ele>25.86599</ele>
        <time>2020-06-18T16:45:00.833Z</time>
      </trkpt>
      <trkpt lat="50.68311" lon="3.43598">
        <ele>25.811717</ele>
        <time>2020-06-18T16:45:04.888Z</time>
      </trkpt>
      <trkpt lat="50.68433" lon="3.43579">
        <ele>25.419554</ele>
        <time>2020-06-18T16:45:32.728Z</time>
      </trkpt>
      <trkpt lat="50.68546" lon="3.4359">
        <ele>25.02364</ele>
        <time>2020-06-18T16:45:58.474Z</time>
      </trkpt>
      <trkpt lat="50.68632" lon="3.4362">
        <ele>24.815268</ele>
        <time>2020-06-18T16:46:18.441Z</time>
      </trkpt>
      <trkpt lat="50.68821" lon="3.43586">
        <ele>25.220485</ele>
        <time>2020-06-18T16:47:04.029Z</time>
      </trkpt>
      <trkpt lat="50.68845" lon="3.43602">
        <ele>25.495402</ele>
        <time>2020-06-18T16:47:11.501Z</time>
      </trkpt>
      <trkpt lat="50.68867" lon="3.43635">
        <ele>25.830028</ele>
        <time>2020-06-18T16:47:21.016Z</time>
      </trkpt>
      <trkpt lat="50.6888" lon="3.43645">
        <ele>25.981117</ele>
        <time>2020-06-18T16:47:25.402Z</time>
      </trkpt>
      <trkpt lat="50.68941" lon="3.43682">
        <ele>26.748101</ele>
        <time>2020-06-18T16:47:47.397Z</time>
      </trkpt>
      <trkpt lat="50.69077" lon="3.43798">
        <ele>29.717173</ele>
        <time>2020-06-18T16:48:41.425Z</time>
      </trkpt>
      <trkpt lat="50.6909" lon="3.438">
        <ele>29.971564</ele>
        <time>2020-06-18T16:48:45.440Z</time>
      </trkpt>
      <trkpt lat="50.69126" lon="3.43742">
        <ele>29.931067</ele>
        <time>2020-06-18T16:48:59.709Z</time>
      </trkpt>
      <trkpt lat="50.6914" lon="3.43735">
        <ele>29.899915</ele>
        <time>2020-06-18T16:49:03.663Z</time>
      </trkpt>
      <trkpt lat="50.69163" lon="3.43744">
        <ele>29.8508</ele>
        <time>2020-06-18T16:49:09.329Z</time>
      </trkpt>
      <trkpt lat="50.69243" lon="3.43802">
        <ele>29.67043</ele>
        <time>2020-06-18T16:49:27.988Z</time>
      </trkpt>
      <trkpt lat="50.69379" lon="3.43863">
        <ele>27.388033</ele>
        <time>2020-06-18T16:49:55.216Z</time>
      </trkpt>
      <trkpt lat="50.69485" lon="3.43937">
        <ele>25.421374</ele>
        <time>2020-06-18T16:50:17.322Z</time>
      </trkpt>
      <trkpt lat="50.69509" lon="3.43965">
        <ele>24.908792</ele>
        <time>2020-06-18T16:50:23.052Z</time>
      </trkpt>
      <trkpt lat="50.69586" lon="3.44072">
        <ele>23.346128</ele>
        <time>2020-06-18T16:50:43.227Z</time>
      </trkpt>
      <trkpt lat="50.69649" lon="3.44158">
        <ele>22.624343</ele>
        <time>2020-06-18T16:51:00.122Z</time>
      </trkpt>
      <trkpt lat="50.69754" lon="3.44235">
        <ele>22.006416</ele>
        <time>2020-06-18T16:51:27.270Z</time>
      </trkpt>
      <trkpt lat="50.69759" lon="3.44261">
        <ele>22.010368</ele>
        <time>2020-06-18T16:51:31.465Z</time>
      </trkpt>
      <trkpt lat="50.69749" lon="3.44277">
        <ele>22.013699</ele>
        <time>2020-06-18T16:51:34.251Z</time>
      </trkpt>
      <trkpt lat="50.69707" lon="3.4437">
        <ele>22.030271</ele>
        <time>2020-06-18T16:51:47.648Z</time>
      </trkpt>
      <trkpt lat="50.69699" lon="3.44388">
        <ele>22.03351</ele>
        <time>2020-06-18T16:51:50.377Z</time>
      </trkpt>
      <trkpt lat="50.69751" lon="3.44479">
        <ele>21.782563</ele>
        <time>2020-06-18T16:52:04.188Z</time>
      </trkpt>
      <trkpt lat="50.69807" lon="3.44562">
        <ele>21.456364</ele>
        <time>2020-06-18T16:52:16.381Z</time>
      </trkpt>
      <trkpt lat="50.69858" lon="3.44611">
        <ele>21.137897</ele>
        <time>2020-06-18T16:52:25.294Z</time>
      </trkpt>
      <trkpt lat="50.70073" lon="3.44751">
        <ele>19.381244</ele>
        <time>2020-06-18T16:53:00.527Z</time>
      </trkpt>
      <trkpt lat="50.70079" lon="3.44756">
        <ele>19.332916</ele>
        <time>2020-06-18T16:53:01.670Z</time>
      </trkpt>
      <trkpt lat="50.70117" lon="3.44823">
        <ele>18.956326</ele>
        <time>2020-06-18T16:53:10.497Z</time>
      </trkpt>
      <trkpt lat="50.70175" lon="3.44927">
        <ele>18.42647</ele>
        <time>2020-06-18T16:53:24.275Z</time>
      </trkpt>
      <trkpt lat="50.702" lon="3.45073">
        <ele>17.921767</ele>
        <time>2020-06-18T16:53:39.421Z</time>
      </trkpt>
      <trkpt lat="50.70201" lon="3.45079">
        <ele>17.89881</ele>
        <time>2020-06-18T16:53:39.998Z</time>
      </trkpt>
      <trkpt lat="50.70205" lon="3.45097">
        <ele>17.838071</ele>
        <time>2020-06-18T16:53:41.919Z</time>
      </trkpt>
      <trkpt lat="50.70215" lon="3.4512">
        <ele>17.741111</ele>
        <time>2020-06-18T16:53:44.927Z</time>
      </trkpt>
      <trkpt lat="50.70217" lon="3.45125">
        <ele>17.72443</ele>
        <time>2020-06-18T16:53:45.345Z</time>
      </trkpt>
      <trkpt lat="50.70496" lon="3.45354">
        <ele>16.647858</ele>
        <time>2020-06-18T16:54:36.408Z</time>
      </trkpt>
      <trkpt lat="50.7063" lon="3.45433">
        <ele>17.033674</ele>
        <time>2020-06-18T16:55:03.075Z</time>
      </trkpt>
      <trkpt lat="50.70727" lon="3.45515">
        <ele>17.811857</ele>
        <time>2020-06-18T16:55:27.201Z</time>
      </trkpt>
      <trkpt lat="50.70782" lon="3.45546">
        <ele>18.614873</ele>
        <time>2020-06-18T16:55:41.647Z</time>
      </trkpt>
      <trkpt lat="50.70808" lon="3.45573">
        <ele>19.046195</ele>
        <time>2020-06-18T16:55:49.777Z</time>
      </trkpt>
      <trkpt lat="50.70852" lon="3.45591">
        <ele>19.664991</ele>
        <time>2020-06-18T16:56:01.203Z</time>
      </trkpt>
      <trkpt lat="50.70953" lon="3.45634">
        <ele>20.669113</ele>
        <time>2020-06-18T16:56:26.562Z</time>
      </trkpt>
      <trkpt lat="50.7111" lon="3.45699">
        <ele>21.288947</ele>
        <time>2020-06-18T16:56:58.613Z</time>
      </trkpt>
      <trkpt lat="50.71151" lon="3.45717">
        <ele>21.144959</ele>
        <time>2020-06-18T16:57:05.285Z</time>
      </trkpt>
      <trkpt lat="50.71183" lon="3.45732">
        <ele>21.031976</ele>
        <time>2020-06-18T16:57:10.440Z</time>
      </trkpt>
      <trkpt lat="50.71208" lon="3.45749">
        <ele>20.938177</ele>
        <time>2020-06-18T16:57:14.630Z</time>
      </trkpt>
      <trkpt lat="50.71243" lon="3.45775">
        <ele>20.661253</ele>
        <time>2020-06-18T16:57:20.335Z</time>
      </trkpt>
      <trkpt lat="50.71287" lon="3.45818">
        <ele>20.188024</ele>
        <time>2020-06-18T16:57:27.880Z</time>
      </trkpt>
      <trkpt lat="50.71326" lon="3.45731">
        <ele>19.573417</ele>
        <time>2020-06-18T16:57:37.786Z</time>
      </trkpt>
      <trkpt lat="50.71345" lon="3.45679">
        <ele>19.239614</ele>
        <time>2020-06-18T16:57:43.574Z</time>
      </trkpt>
      <trkpt lat="50.71347" lon="3.45676">
        <ele>19.227078</ele>
        <time>2020-06-18T16:57:43.928Z</time>
      </trkpt>
      <trkpt lat="50.71354" lon="3.45666">
        <ele>19.172092</ele>
        <time>2020-06-18T16:57:45.522Z</time>
      </trkpt>
      <trkpt lat="50.71361" lon="3.45661">
        <ele>19.130725</ele>
        <time>2020-06-18T16:57:46.661Z</time>
      </trkpt>
      <trkpt lat="50.7137" lon="3.45656">
        <ele>19.077081</ele>
        <time>2020-06-18T16:57:48.239Z</time>
      </trkpt>
      <trkpt lat="50.71415" lon="3.45647">
        <ele>18.829741</ele>
        <time>2020-06-18T16:57:55.340Z</time>
      </trkpt>
      <trkpt lat="50.71583" lon="3.45612">
        <ele>17.928726</ele>
        <time>2020-06-18T16:58:22.404Z</time>
      </trkpt>
      <trkpt lat="50.71618" lon="3.45604">
        <ele>17.747048</ele>
        <time>2020-06-18T16:58:28.216Z</time>
      </trkpt>
      <trkpt lat="50.71871" lon="3.4555">
        <ele>16.238474</ele>
        <time>2020-06-18T16:59:08.103Z</time>
      </trkpt>
      <trkpt lat="50.71903" lon="3.45543">
        <ele>16.123283</ele>
        <time>2020-06-18T16:59:12.872Z</time>
      </trkpt>
      <trkpt lat="50.71911" lon="3.45541">
        <ele>16.093953</ele>
        <time>2020-06-18T16:59:14.116Z</time>
      </trkpt>
      <trkpt lat="50.71964" lon="3.4553">
        <ele>15.903806</ele>
        <time>2020-06-18T16:59:22.405Z</time>
      </trkpt>
      <trkpt lat="50.72035" lon="3.45515">
        <ele>15.650814</ele>
        <time>2020-06-18T16:59:34.037Z</time>
      </trkpt>
      <trkpt lat="50.72223" lon="3.45476">
        <ele>16.786066</ele>
        <time>2020-06-18T17:00:14.464Z</time>
      </trkpt>
      <trkpt lat="50.72335" lon="3.45453">
        <ele>17.765925</ele>
        <time>2020-06-18T17:00:40.510Z</time>
      </trkpt>
      <trkpt lat="50.7237" lon="3.45445">
        <ele>18.070767</ele>
        <time>2020-06-18T17:00:48.153Z</time>
      </trkpt>
      <trkpt lat="50.724" lon="3.45437">
        <ele>18.337856</ele>
        <time>2020-06-18T17:00:54.688Z</time>
      </trkpt>
      <trkpt lat="50.72558" lon="3.45402">
        <ele>18.866687</ele>
        <time>2020-06-18T17:01:25.573Z</time>
      </trkpt>
      <trkpt lat="50.72588" lon="3.45396">
        <ele>18.945482</ele>
        <time>2020-06-18T17:01:30.852Z</time>
      </trkpt>
      <trkpt lat="50.72605" lon="3.45393">
        <ele>18.91293</ele>
        <time>2020-06-18T17:01:33.964Z</time>
      </trkpt>
      <trkpt lat="50.72688" lon="3.45375">
        <ele>18.754889</ele>
        <time>2020-06-18T17:01:48.666Z</time>
      </trkpt>
      <trkpt lat="50.72742" lon="3.45363">
        <ele>18.653391</ele>
        <time>2020-06-18T17:01:57.639Z</time>
      </trkpt>
      <trkpt lat="50.728" lon="3.45351">
        <ele>18.313625</ele>
        <time>2020-06-18T17:02:07.117Z</time>
      </trkpt>
      <trkpt lat="50.73042" lon="3.45298">
        <ele>16.343089</ele>
        <time>2020-06-18T17:02:43.391Z</time>
      </trkpt>
      <trkpt lat="50.73064" lon="3.45293">
        <ele>16.166386</ele>
        <time>2020-06-18T17:02:46.733Z</time>
      </trkpt>
      <trkpt lat="50.7312" lon="3.45281">
        <ele>15.716219</ele>
        <time>2020-06-18T17:02:55.447Z</time>
      </trkpt>
      <trkpt lat="50.73314" lon="3.4524">
        <ele>14.645864</ele>
        <time>2020-06-18T17:03:26.552Z</time>
      </trkpt>
      <trkpt lat="50.73431" lon="3.45215">
        <ele>13.910046</ele>
        <time>2020-06-18T17:03:44.639Z</time>
      </trkpt>
      <trkpt lat="50.73513" lon="3.45198">
        <ele>13.676017</ele>
        <time>2020-06-18T17:03:57.690Z</time>
      </trkpt>
      <trkpt lat="50.73519" lon="3.45196">
        <ele>13.683794</ele>
        <time>2020-06-18T17:03:58.648Z</time>
      </trkpt>
      <trkpt lat="50.73646" lon="3.45169">
        <ele>13.850285</ele>
        <time>2020-06-18T17:04:23.619Z</time>
      </trkpt>
      <trkpt lat="50.73664" lon="3.45166">
        <ele>13.897555</ele>
        <time>2020-06-18T17:04:27.157Z</time>
      </trkpt>
      <trkpt lat="50.7375" lon="3.45147">
        <ele>14.242745</ele>
        <time>2020-06-18T17:04:45.053Z</time>
      </trkpt>
      <trkpt lat="50.73865" lon="3.45123">
        <ele>14.611774</ele>
        <time>2020-06-18T17:05:07.583Z</time>
      </trkpt>
      <trkpt lat="50.73876" lon="3.4512">
        <ele>14.624731</ele>
        <time>2020-06-18T17:05:09.424Z</time>
      </trkpt>
      <trkpt lat="50.73891" lon="3.45117">
        <ele>14.642918</ele>
        <time>2020-06-18T17:05:12.303Z</time>
      </trkpt>
      <trkpt lat="50.7394" lon="3.45106">
        <ele>14.703107</ele>
        <time>2020-06-18T17:05:20.792Z</time>
      </trkpt>
      <trkpt lat="50.74264" lon="3.45036">
        <ele>14.8392</ele>
        <time>2020-06-18T17:06:21.158Z</time>
      </trkpt>
      <trkpt lat="50.74292" lon="3.4503">
        <ele>14.777283</ele>
        <time>2020-06-18T17:06:25.646Z</time>
      </trkpt>
      <trkpt lat="50.7437" lon="3.45014">
        <ele>14.601806</ele>
        <time>2020-06-18T17:06:38.258Z</time>
      </trkpt>
      <trkpt lat="50.74445" lon="3.44998">
        <ele>14.38859</ele>
        <time>2020-06-18T17:06:50.195Z</time>
      </trkpt>
      <trkpt lat="50.74464" lon="3.44994">
        <ele>14.334201</ele>
        <time>2020-06-18T17:06:53.364Z</time>
      </trkpt>
      <trkpt lat="50.74625" lon="3.4496">
        <ele>14.058388</ele>
        <time>2020-06-18T17:07:21.712Z</time>
      </trkpt>
      <trkpt lat="50.74674" lon="3.44949">
        <ele>14.033282</ele>
        <time>2020-06-18T17:07:30.627Z</time>
      </trkpt>
      <trkpt lat="50.74676" lon="3.44959">
        <ele>14.029948</ele>
        <time>2020-06-18T17:07:32.071Z</time>
      </trkpt>
      <trkpt lat="50.7471" lon="3.45119">
        <ele>13.881544</ele>
        <time>2020-06-18T17:07:57.875Z</time>
      </trkpt>
      <trkpt lat="50.74718" lon="3.45144">
        <ele>13.844949</ele>
        <time>2020-06-18T17:08:02.056Z</time>
      </trkpt>
      <trkpt lat="50.74726" lon="3.45147">
        <ele>13.828734</ele>
        <time>2020-06-18T17:08:03.708Z</time>
      </trkpt>
      <trkpt lat="50.7476" lon="3.45161">
        <ele>13.759389</ele>
        <time>2020-06-18T17:08:09.462Z</time>
      </trkpt>
      <trkpt lat="50.74781" lon="3.45178">
        <ele>13.710509</ele>
        <time>2020-06-18T17:08:13.605Z</time>
      </trkpt>
      <trkpt lat="50.74924" lon="3.45334">
        <ele>12.689978</ele>
        <time>2020-06-18T17:08:40.636Z</time>
      </trkpt>
      <trkpt lat="50.74928" lon="3.4534">
        <ele>12.651758</ele>
        <time>2020-06-18T17:08:41.424Z</time>
      </trkpt>
      <trkpt lat="50.74941" lon="3.45363">
        <ele>12.518035</ele>
        <time>2020-06-18T17:08:44.581Z</time>
      </trkpt>
      <trkpt lat="50.7495" lon="3.45375">
        <ele>12.439649</ele>
        <time>2020-06-18T17:08:46.150Z</time>
      </trkpt>
      <trkpt lat="50.74971" lon="3.45387">
        <ele>12.358087</ele>
        <time>2020-06-18T17:08:49.667Z</time>
      </trkpt>
      <trkpt lat="50.75002" lon="3.45383">
        <ele>12.254166</ele>
        <time>2020-06-18T17:08:54.243Z</time>
      </trkpt>
      <trkpt lat="50.75016" lon="3.45383">
        <ele>12.205871</ele>
        <time>2020-06-18T17:08:56.275Z</time>
      </trkpt>
      <trkpt lat="50.75022" lon="3.45377">
        <ele>12.181294</ele>
        <time>2020-06-18T17:08:57.277Z</time>
      </trkpt>
      <trkpt lat="50.75106" lon="3.45317">
        <ele>11.867549</ele>
        <time>2020-06-18T17:09:13.047Z</time>
      </trkpt>
      <trkpt lat="50.752" lon="3.45307">
        <ele>12.419956</ele>
        <time>2020-06-18T17:09:32.759Z</time>
      </trkpt>
      <trkpt lat="50.75213" lon="3.45303">
        <ele>12.526623</ele>
        <time>2020-06-18T17:09:36.252Z</time>
      </trkpt>
      <trkpt lat="50.75238" lon="3.45285">
        <ele>12.732214</ele>
        <time>2020-06-18T17:09:42.110Z</time>
      </trkpt>
      <trkpt lat="50.75316" lon="3.45213">
        <ele>13.30031</ele>
        <time>2020-06-18T17:10:02.081Z</time>
      </trkpt>
      <trkpt lat="50.75346" lon="3.45196">
        <ele>13.411447</ele>
        <time>2020-06-18T17:10:09.181Z</time>
      </trkpt>
      <trkpt lat="50.75399" lon="3.45175">
        <ele>13.596029</ele>
        <time>2020-06-18T17:10:19.285Z</time>
      </trkpt>
      <trkpt lat="50.754" lon="3.45174">
        <ele>13.602093</ele>
        <time>2020-06-18T17:10:19.611Z</time>
      </trkpt>
      <trkpt lat="50.75417" lon="3.45164">
        <ele>13.663559</ele>
        <time>2020-06-18T17:10:22.908Z</time>
      </trkpt>
      <trkpt lat="50.75438" lon="3.45153">
        <ele>13.740255</ele>
        <time>2020-06-18T17:10:26.829Z</time>
      </trkpt>
      <trkpt lat="50.75446" lon="3.4515">
        <ele>13.76579</ele>
        <time>2020-06-18T17:10:28.205Z</time>
      </trkpt>
      <trkpt lat="50.7544" lon="3.45166">
        <ele>13.806238</ele>
        <time>2020-06-18T17:10:30.266Z</time>
      </trkpt>
      <trkpt lat="50.75439" lon="3.45172">
        <ele>13.808548</ele>
        <time>2020-06-18T17:10:30.925Z</time>
      </trkpt>
      <trkpt lat="50.75435" lon="3.45205">
        <ele>13.755802</ele>
        <time>2020-06-18T17:10:34.629Z</time>
      </trkpt>
      <trkpt lat="50.75418" lon="3.45471">
        <ele>13.288167</ele>
        <time>2020-06-18T17:11:03.128Z</time>
      </trkpt>
      <trkpt lat="50.75406" lon="3.45692">
        <ele>12.448913</ele>
        <time>2020-06-18T17:11:24.762Z</time>
      </trkpt>
      <trkpt lat="50.75409" lon="3.45727">
        <ele>12.315395</ele>
        <time>2020-06-18T17:11:28.288Z</time>
      </trkpt>
      <trkpt lat="50.75409" lon="3.45729">
        <ele>12.307964</ele>
        <time>2020-06-18T17:11:28.430Z</time>
      </trkpt>
      <trkpt lat="50.75411" lon="3.45734">
        <ele>12.286948</ele>
        <time>2020-06-18T17:11:28.971Z</time>
      </trkpt>
      <trkpt lat="50.75414" lon="3.45743">
        <ele>12.267903</ele>
        <time>2020-06-18T17:11:29.994Z</time>
      </trkpt>
      <trkpt lat="50.75425" lon="3.45762">
        <ele>12.221285</ele>
        <time>2020-06-18T17:11:32.624Z</time>
      </trkpt>
      <trkpt lat="50.75435" lon="3.45784">
        <ele>12.172058</ele>
        <time>2020-06-18T17:11:35.150Z</time>
      </trkpt>
      <trkpt lat="50.7545" lon="3.45823">
        <ele>12.088561</ele>
        <time>2020-06-18T17:11:39.654Z</time>
      </trkpt>
      <trkpt lat="50.75494" lon="3.45993">
        <ele>11.77555</ele>
        <time>2020-06-18T17:12:00.061Z</time>
      </trkpt>
      <trkpt lat="50.75517" lon="3.46057">
        <ele>11.804927</ele>
        <time>2020-06-18T17:12:09.052Z</time>
      </trkpt>
      <trkpt lat="50.7552" lon="3.46065">
        <ele>11.808675</ele>
        <time>2020-06-18T17:12:10.046Z</time>
      </trkpt>
      <trkpt lat="50.75524" lon="3.46072">
        <ele>11.812292</ele>
        <time>2020-06-18T17:12:11.408Z</time>
      </trkpt>
      <trkpt lat="50.75551" lon="3.46124">
        <ele>11.839052</ele>
        <time>2020-06-18T17:12:19.144Z</time>
      </trkpt>
      <trkpt lat="50.7556" lon="3.4614">
        <ele>11.847819</ele>
        <time>2020-06-18T17:12:21.790Z</time>
      </trkpt>
      <trkpt lat="50.75577" lon="3.4617">
        <ele>11.863793</ele>
        <time>2020-06-18T17:12:26.216Z</time>
      </trkpt>
      <trkpt lat="50.75615" lon="3.4626">
        <ele>12.11231</ele>
        <time>2020-06-18T17:12:37.560Z</time>
      </trkpt>
      <trkpt lat="50.757" lon="3.46362">
        <ele>12.827894</ele>
        <time>2020-06-18T17:12:59.175Z</time>
      </trkpt>
      <trkpt lat="50.75705" lon="3.46369">
        <ele>12.872648</ele>
        <time>2020-06-18T17:13:00.026Z</time>
      </trkpt>
      <trkpt lat="50.75708" lon="3.46375">
        <ele>12.906401</ele>
        <time>2020-06-18T17:13:02.044Z</time>
      </trkpt>
      <trkpt lat="50.75717" lon="3.46419">
        <ele>13.132804</ele>
        <time>2020-06-18T17:13:08.602Z</time>
      </trkpt>
      <trkpt lat="50.75717" lon="3.46428">
        <ele>13.306021</ele>
        <time>2020-06-18T17:13:10.639Z</time>
      </trkpt>
      <trkpt lat="50.75716" lon="3.46452">
        <ele>13.764728</ele>
        <time>2020-06-18T17:13:15.421Z</time>
      </trkpt>
      <trkpt lat="50.75715" lon="3.46459">
        <ele>13.898309</ele>
        <time>2020-06-18T17:13:16.665Z</time>
      </trkpt>
      <trkpt lat="50.75712" lon="3.46474">
        <ele>14.194312</ele>
        <time>2020-06-18T17:13:18.479Z</time>
      </trkpt>
      <trkpt lat="50.7571" lon="3.46481">
        <ele>14.336294</ele>
        <time>2020-06-18T17:13:19.944Z</time>
      </trkpt>
      <trkpt lat="50.75706" lon="3.4649">
        <ele>14.558613</ele>
        <time>2020-06-18T17:13:23.502Z</time>
      </trkpt>
      <trkpt lat="50.75613" lon="3.46598">
        <ele>18.016191</ele>
        <time>2020-06-18T17:14:03.507Z</time>
      </trkpt>
      <trkpt lat="50.75589" lon="3.46625">
        <ele>18.850115</ele>
        <time>2020-06-18T17:14:14.065Z</time>
      </trkpt>
      <trkpt lat="50.75579" lon="3.46636">
        <ele>19.172894</ele>
        <time>2020-06-18T17:14:18.616Z</time>
      </trkpt>
      <trkpt lat="50.75585" lon="3.46655">
        <ele>19.519566</ele>
        <time>2020-06-18T17:14:22.390Z</time>
      </trkpt>
      <trkpt lat="50.75659" lon="3.46857">
        <ele>23.273076</ele>
        <time>2020-06-18T17:15:06.565Z</time>
      </trkpt>
      <trkpt lat="50.75673" lon="3.47004">
        <ele>24.666279</ele>
        <time>2020-06-18T17:15:28.506Z</time>
      </trkpt>
      <trkpt lat="50.75675" lon="3.47018">
        <ele>24.799325</ele>
        <time>2020-06-18T17:15:31.407Z</time>
      </trkpt>
      <trkpt lat="50.7569" lon="3.47034">
        <ele>25.06869</ele>
        <time>2020-06-18T17:15:35.030Z</time>
      </trkpt>
      <trkpt lat="50.75774" lon="3.47135">
        <ele>27.24595</ele>
        <time>2020-06-18T17:16:01.333Z</time>
      </trkpt>
      <trkpt lat="50.75816" lon="3.47175">
        <ele>28.520556</ele>
        <time>2020-06-18T17:16:14.769Z</time>
      </trkpt>
      <trkpt lat="50.75819" lon="3.47196">
        <ele>28.887877</ele>
        <time>2020-06-18T17:16:17.901Z</time>
      </trkpt>
      <trkpt lat="50.75808" lon="3.47266">
        <ele>30.065448</ele>
        <time>2020-06-18T17:16:35.204Z</time>
      </trkpt>
      <trkpt lat="50.75808" lon="3.47311">
        <ele>31.1279</ele>
        <time>2020-06-18T17:16:43.507Z</time>
      </trkpt>
      <trkpt lat="50.75808" lon="3.47317">
        <ele>31.339436</ele>
        <time>2020-06-18T17:16:46.104Z</time>
      </trkpt>
      <trkpt lat="50.75806" lon="3.4732">
        <ele>31.466862</ele>
        <time>2020-06-18T17:16:49.079Z</time>
      </trkpt>
      <trkpt lat="50.75724" lon="3.47416">
        <ele>37.168829</ele>
        <time>2020-06-18T17:17:30.455Z</time>
      </trkpt>
      <trkpt lat="50.75719" lon="3.47422">
        <ele>37.510183</ele>
        <time>2020-06-18T17:17:36.564Z</time>
      </trkpt>
      <trkpt lat="50.75717" lon="3.47425">
        <ele>37.65381</ele>
        <time>2020-06-18T17:17:37.517Z</time>
      </trkpt>
      <trkpt lat="50.75687" lon="3.4745">
        <ele>39.519276</ele>
        <time>2020-06-18T17:17:57.760Z</time>
      </trkpt>
      <trkpt lat="50.75647" lon="3.47494">
        <ele>42.716436</ele>
        <time>2020-06-18T17:18:22.577Z</time>
      </trkpt>
      <trkpt lat="50.75601" lon="3.47582">
        <ele>47.935911</ele>
        <time>2020-06-18T17:19:03.053Z</time>
      </trkpt>
      <trkpt lat="50.75597" lon="3.4759">
        <ele>48.38357</ele>
        <time>2020-06-18T17:19:06.893Z</time>
      </trkpt>
      <trkpt lat="50.75605" lon="3.47605">
        <ele>49.298149</ele>
        <time>2020-06-18T17:19:16.694Z</time>
      </trkpt>
      <trkpt lat="50.75629" lon="3.47662">
        <ele>52.38961</ele>
        <time>2020-06-18T17:19:38.588Z</time>
      </trkpt>
      <trkpt lat="50.75648" lon="3.47693">
        <ele>54.54752</ele>
        <time>2020-06-18T17:19:55.328Z</time>
      </trkpt>
      <trkpt lat="50.7567" lon="3.47718">
        <ele>56.818264</ele>
        <time>2020-06-18T17:20:07.831Z</time>
      </trkpt>
      <trkpt lat="50.75688" lon="3.47727">
        <ele>58.49981</ele>
        <time>2020-06-18T17:20:19.961Z</time>
      </trkpt>
      <trkpt lat="50.75708" lon="3.4773">
        <ele>60.144653</ele>
        <time>2020-06-18T17:20:30.637Z</time>
      </trkpt>
      <trkpt lat="50.75709" lon="3.47738">
        <ele>60.566679</ele>
        <time>2020-06-18T17:20:36.161Z</time>
      </trkpt>
      <trkpt lat="50.75701" lon="3.47774">
        <ele>62.586588</ele>
        <time>2020-06-18T17:20:47.149Z</time>
      </trkpt>
      <trkpt lat="50.75647" lon="3.47896">
        <ele>70.265275</ele>
        <time>2020-06-18T17:21:48.233Z</time>
      </trkpt>
      <trkpt lat="50.75619" lon="3.47974">
        <ele>74.256112</ele>
        <time>2020-06-18T17:22:19.298Z</time>
      </trkpt>
      <trkpt lat="50.75615" lon="3.47984">
        <ele>74.770862</ele>
        <time>2020-06-18T17:22:23.417Z</time>
      </trkpt>
      <trkpt lat="50.7562" lon="3.47992">
        <ele>75.278331</ele>
        <time>2020-06-18T17:22:28.555Z</time>
      </trkpt>
      <trkpt lat="50.75641" lon="3.48032">
        <ele>77.576005</ele>
        <time>2020-06-18T17:22:43.870Z</time>
      </trkpt>
      <trkpt lat="50.75809" lon="3.48215">
        <ele>87.836449</ele>
        <time>2020-06-18T17:24:06.082Z</time>
      </trkpt>
      <trkpt lat="50.75832" lon="3.48238">
        <ele>89.020969</ele>
        <time>2020-06-18T17:24:14.657Z</time>
      </trkpt>
      <trkpt lat="50.75876" lon="3.4828">
        <ele>90.108063</ele>
        <time>2020-06-18T17:24:34.396Z</time>
      </trkpt>
      <trkpt lat="50.75898" lon="3.48298">
        <ele>90.604693</ele>
        <time>2020-06-18T17:24:45.229Z</time>
      </trkpt>
      <trkpt lat="50.75905" lon="3.48311">
        <ele>90.828499</ele>
        <time>2020-06-18T17:24:48.008Z</time>
      </trkpt>
      <trkpt lat="50.75906" lon="3.4832">
        <ele>90.945157</ele>
        <time>2020-06-18T17:24:49.942Z</time>
      </trkpt>
      <trkpt lat="50.75904" lon="3.48342">
        <ele>91.225996</ele>
        <time>2020-06-18T17:24:55.641Z</time>
      </trkpt>
      <trkpt lat="50.75904" lon="3.48352">
        <ele>91.357525</ele>
        <time>2020-06-18T17:24:58.244Z</time>
      </trkpt>
      <trkpt lat="50.75902" lon="3.4837">
        <ele>91.593382</ele>
        <time>2020-06-18T17:25:00.682Z</time>
      </trkpt>
      <trkpt lat="50.75902" lon="3.48377">
        <ele>91.678089</ele>
        <time>2020-06-18T17:25:02.059Z</time>
      </trkpt>
      <trkpt lat="50.759" lon="3.48399">
        <ele>91.961469</ele>
        <time>2020-06-18T17:25:07.330Z</time>
      </trkpt>
      <trkpt lat="50.75896" lon="3.48468">
        <ele>92.720984</ele>
        <time>2020-06-18T17:25:19.394Z</time>
      </trkpt>
      <trkpt lat="50.75893" lon="3.48522">
        <ele>92.484534</ele>
        <time>2020-06-18T17:25:27.429Z</time>
      </trkpt>
      <trkpt lat="50.75883" lon="3.4853">
        <ele>92.404638</ele>
        <time>2020-06-18T17:25:28.775Z</time>
      </trkpt>
      <trkpt lat="50.75817" lon="3.48558">
        <ele>91.934122</ele>
        <time>2020-06-18T17:25:39.765Z</time>
      </trkpt>
      <trkpt lat="50.75795" lon="3.48578">
        <ele>91.7614</ele>
        <time>2020-06-18T17:25:44.223Z</time>
      </trkpt>
      <trkpt lat="50.75783" lon="3.486">
        <ele>91.634013</ele>
        <time>2020-06-18T17:25:46.420Z</time>
      </trkpt>
      <trkpt lat="50.75768" lon="3.48624">
        <ele>91.453559</ele>
        <time>2020-06-18T17:25:50.403Z</time>
      </trkpt>
      <trkpt lat="50.75655" lon="3.48768">
        <ele>89.208848</ele>
        <time>2020-06-18T17:26:09.716Z</time>
      </trkpt>
      <trkpt lat="50.75615" lon="3.48801">
        <ele>88.452951</ele>
        <time>2020-06-18T17:26:16.613Z</time>
      </trkpt>
      <trkpt lat="50.75605" lon="3.48809">
        <ele>88.225307</ele>
        <time>2020-06-18T17:26:18.233Z</time>
      </trkpt>
      <trkpt lat="50.75599" lon="3.48817">
        <ele>88.057621</ele>
        <time>2020-06-18T17:26:19.480Z</time>
      </trkpt>
      <trkpt lat="50.75541" lon="3.48905">
        <ele>86.431705</ele>
        <time>2020-06-18T17:26:30.908Z</time>
      </trkpt>
      <trkpt lat="50.75536" lon="3.48918">
        <ele>86.237776</ele>
        <time>2020-06-18T17:26:32.218Z</time>
      </trkpt>
      <trkpt lat="50.75534" lon="3.48922">
        <ele>86.172787</ele>
        <time>2020-06-18T17:26:32.656Z</time>
      </trkpt>
      <trkpt lat="50.75531" lon="3.48932">
        <ele>86.035554</ele>
        <time>2020-06-18T17:26:33.580Z</time>
      </trkpt>
      <trkpt lat="50.75514" lon="3.49003">
        <ele>84.993997</ele>
        <time>2020-06-18T17:26:39.584Z</time>
      </trkpt>
      <trkpt lat="50.75504" lon="3.49022">
        <ele>84.038718</ele>
        <time>2020-06-18T17:26:41.346Z</time>
      </trkpt>
      <trkpt lat="50.75466" lon="3.49055">
        <ele>81.366548</ele>
        <time>2020-06-18T17:26:46.196Z</time>
      </trkpt>
      <trkpt lat="50.75457" lon="3.49069">
        <ele>80.592056</ele>
        <time>2020-06-18T17:26:47.608Z</time>
      </trkpt>
      <trkpt lat="50.75437" lon="3.49103">
        <ele>78.808328</ele>
        <time>2020-06-18T17:26:50.745Z</time>
      </trkpt>
      <trkpt lat="50.75425" lon="3.49113">
        <ele>78.011173</ele>
        <time>2020-06-18T17:26:52.312Z</time>
      </trkpt>
      <trkpt lat="50.75422" lon="3.49114">
        <ele>77.791779</ele>
        <time>2020-06-18T17:26:52.669Z</time>
      </trkpt>
      <trkpt lat="50.75419" lon="3.49113">
        <ele>77.627968</ele>
        <time>2020-06-18T17:26:52.946Z</time>
      </trkpt>
      <trkpt lat="50.75384" lon="3.49084">
        <ele>75.178089</ele>
        <time>2020-06-18T17:26:57.287Z</time>
      </trkpt>
      <trkpt lat="50.75378" lon="3.49083">
        <ele>74.815331</ele>
        <time>2020-06-18T17:26:57.922Z</time>
      </trkpt>
      <trkpt lat="50.75374" lon="3.49085">
        <ele>74.577009</ele>
        <time>2020-06-18T17:26:58.310Z</time>
      </trkpt>
      <trkpt lat="50.75345" lon="3.49133">
        <ele>71.540065</ele>
        <time>2020-06-18T17:27:02.843Z</time>
      </trkpt>
      <trkpt lat="50.75256" lon="3.49179">
        <ele>64.617864</ele>
        <time>2020-06-18T17:27:12.712Z</time>
      </trkpt>
      <trkpt lat="50.75188" lon="3.49249">
        <ele>59.000609</ele>
        <time>2020-06-18T17:27:21.604Z</time>
      </trkpt>
      <trkpt lat="50.75191" lon="3.49263">
        <ele>58.440167</ele>
        <time>2020-06-18T17:27:23.071Z</time>
      </trkpt>
      <trkpt lat="50.75195" lon="3.49416">
        <ele>52.612399</ele>
        <time>2020-06-18T17:27:38.444Z</time>
      </trkpt>
      <trkpt lat="50.75197" lon="3.4949">
        <ele>49.83118</ele>
        <time>2020-06-18T17:27:45.951Z</time>
      </trkpt>
      <trkpt lat="50.75193" lon="3.49494">
        <ele>49.545684</ele>
        <time>2020-06-18T17:27:46.731Z</time>
      </trkpt>
      <trkpt lat="50.75075" lon="3.49527">
        <ele>42.99163</ele>
        <time>2020-06-18T17:28:05.813Z</time>
      </trkpt>
      <trkpt lat="50.74937" lon="3.49537">
        <ele>35.914437</ele>
        <time>2020-06-18T17:28:27.881Z</time>
      </trkpt>
      <trkpt lat="50.74923" lon="3.49552">
        <ele>35.056776</ele>
        <time>2020-06-18T17:28:30.712Z</time>
      </trkpt>
      <trkpt lat="50.74916" lon="3.49604">
        <ele>33.434126</ele>
        <time>2020-06-18T17:28:36.129Z</time>
      </trkpt>
      <trkpt lat="50.74908" lon="3.49615">
        <ele>32.885262</ele>
        <time>2020-06-18T17:28:37.965Z</time>
      </trkpt>
      <trkpt lat="50.74619" lon="3.49623">
        <ele>22.990672</ele>
        <time>2020-06-18T17:29:27.626Z</time>
      </trkpt>
      <trkpt lat="50.74611" lon="3.49624">
        <ele>22.770832</ele>
        <time>2020-06-18T17:29:29.196Z</time>
      </trkpt>
      <trkpt lat="50.74619" lon="3.4968">
        <ele>21.879866</ele>
        <time>2020-06-18T17:29:36.124Z</time>
      </trkpt>
      <trkpt lat="50.74632" lon="3.49758">
        <ele>20.629998</ele>
        <time>2020-06-18T17:29:46.311Z</time>
      </trkpt>
      <trkpt lat="50.74622" lon="3.49761">
        <ele>20.405624</ele>
        <time>2020-06-18T17:29:48.177Z</time>
      </trkpt>
      <trkpt lat="50.74517" lon="3.49804">
        <ele>18.902954</ele>
        <time>2020-06-18T17:30:10.326Z</time>
      </trkpt>
      <trkpt lat="50.74462" lon="3.49812">
        <ele>18.130435</ele>
        <time>2020-06-18T17:30:21.178Z</time>
      </trkpt>
      <trkpt lat="50.74413" lon="3.49829">
        <ele>17.43536</ele>
        <time>2020-06-18T17:30:30.933Z</time>
      </trkpt>
      <trkpt lat="50.74405" lon="3.4983">
        <ele>17.317958</ele>
        <time>2020-06-18T17:30:32.490Z</time>
      </trkpt>
      <trkpt lat="50.74386" lon="3.49827">
        <ele>17.057152</ele>
        <time>2020-06-18T17:30:35.044Z</time>
      </trkpt>
      <trkpt lat="50.74363" lon="3.49812">
        <ele>16.707612</ele>
        <time>2020-06-18T17:30:38.538Z</time>
      </trkpt>
      <trkpt lat="50.74339" lon="3.49786">
        <ele>16.309602</ele>
        <time>2020-06-18T17:30:42.521Z</time>
      </trkpt>
      <trkpt lat="50.74314" lon="3.49727">
        <ele>15.679248</ele>
        <time>2020-06-18T17:30:48.984Z</time>
      </trkpt>
      <trkpt lat="50.74308" lon="3.49715">
        <ele>15.543893</ele>
        <time>2020-06-18T17:30:50.351Z</time>
      </trkpt>
      <trkpt lat="50.74305" lon="3.49708">
        <ele>15.469116</ele>
        <time>2020-06-18T17:30:51.211Z</time>
      </trkpt>
      <trkpt lat="50.74297" lon="3.49698">
        <ele>15.393668</ele>
        <time>2020-06-18T17:30:52.679Z</time>
      </trkpt>
      <trkpt lat="50.7429" lon="3.49692">
        <ele>15.366725</ele>
        <time>2020-06-18T17:30:53.785Z</time>
      </trkpt>
      <trkpt lat="50.74285" lon="3.4969">
        <ele>15.347</ele>
        <time>2020-06-18T17:30:54.595Z</time>
      </trkpt>
      <trkpt lat="50.74277" lon="3.49688">
        <ele>15.321356</ele>
        <time>2020-06-18T17:30:55.655Z</time>
      </trkpt>
      <trkpt lat="50.74219" lon="3.49677">
        <ele>15.115131</ele>
        <time>2020-06-18T17:31:05.146Z</time>
      </trkpt>
      <trkpt lat="50.74167" lon="3.49651">
        <ele>14.922564</ele>
        <time>2020-06-18T17:31:14.193Z</time>
      </trkpt>
      <trkpt lat="50.74119" lon="3.4963">
        <ele>14.849344</ele>
        <time>2020-06-18T17:31:23.777Z</time>
      </trkpt>
      <trkpt lat="50.74104" lon="3.49623">
        <ele>14.950584</ele>
        <time>2020-06-18T17:31:26.708Z</time>
      </trkpt>
      <trkpt lat="50.74098" lon="3.49621">
        <ele>14.989096</ele>
        <time>2020-06-18T17:31:27.789Z</time>
      </trkpt>
      <trkpt lat="50.74031" lon="3.4964">
        <ele>15.42864</ele>
        <time>2020-06-18T17:31:41.489Z</time>
      </trkpt>
      <trkpt lat="50.74001" lon="3.4964">
        <ele>15.621005</ele>
        <time>2020-06-18T17:31:47.956Z</time>
      </trkpt>
      <trkpt lat="50.73896" lon="3.49603">
        <ele>16.699617</ele>
        <time>2020-06-18T17:32:12.669Z</time>
      </trkpt>
      <trkpt lat="50.73879" lon="3.49599">
        <ele>16.924609</ele>
        <time>2020-06-18T17:32:17.230Z</time>
      </trkpt>
      <trkpt lat="50.73859" lon="3.49599">
        <ele>17.195529</ele>
        <time>2020-06-18T17:32:21.992Z</time>
      </trkpt>
      <trkpt lat="50.73835" lon="3.49598">
        <ele>17.507353</ele>
        <time>2020-06-18T17:32:28.135Z</time>
      </trkpt>
      <trkpt lat="50.73797" lon="3.49582">
        <ele>18.030483</ele>
        <time>2020-06-18T17:32:37.897Z</time>
      </trkpt>
      <trkpt lat="50.73779" lon="3.49574">
        <ele>18.274682</ele>
        <time>2020-06-18T17:32:42.474Z</time>
      </trkpt>
      <trkpt lat="50.73769" lon="3.49566">
        <ele>18.412004</ele>
        <time>2020-06-18T17:32:45.467Z</time>
      </trkpt>
      <trkpt lat="50.73566" lon="3.49468">
        <ele>20.966704</ele>
        <time>2020-06-18T17:33:35.456Z</time>
      </trkpt>
      <trkpt lat="50.7343" lon="3.49432">
        <ele>22.512412</ele>
        <time>2020-06-18T17:34:06.525Z</time>
      </trkpt>
      <trkpt lat="50.73421" lon="3.49425">
        <ele>22.664265</ele>
        <time>2020-06-18T17:34:08.801Z</time>
      </trkpt>
      <trkpt lat="50.73419" lon="3.49417">
        <ele>22.754998</ele>
        <time>2020-06-18T17:34:10.133Z</time>
      </trkpt>
      <trkpt lat="50.73418" lon="3.4939">
        <ele>23.030122</ele>
        <time>2020-06-18T17:34:14.375Z</time>
      </trkpt>
      <trkpt lat="50.73426" lon="3.49339">
        <ele>23.579638</ele>
        <time>2020-06-18T17:34:22.767Z</time>
      </trkpt>
      <trkpt lat="50.73425" lon="3.49242">
        <ele>24.576283</ele>
        <time>2020-06-18T17:34:38.368Z</time>
      </trkpt>
      <trkpt lat="50.73417" lon="3.492">
        <ele>25.032575</ele>
        <time>2020-06-18T17:34:45.523Z</time>
      </trkpt>
      <trkpt lat="50.73414" lon="3.49194">
        <ele>25.108891</ele>
        <time>2020-06-18T17:34:46.779Z</time>
      </trkpt>
      <trkpt lat="50.73409" lon="3.49187">
        <ele>25.21925</ele>
        <time>2020-06-18T17:34:49.031Z</time>
      </trkpt>
      <trkpt lat="50.73299" lon="3.49117">
        <ele>27.709222</ele>
        <time>2020-06-18T17:35:22.456Z</time>
      </trkpt>
      <trkpt lat="50.73231" lon="3.49052">
        <ele>29.41696</ele>
        <time>2020-06-18T17:35:45.546Z</time>
      </trkpt>
      <trkpt lat="50.73214" lon="3.49039">
        <ele>29.737675</ele>
        <time>2020-06-18T17:35:50.821Z</time>
      </trkpt>
      <trkpt lat="50.73196" lon="3.49024">
        <ele>30.090143</ele>
        <time>2020-06-18T17:35:56.235Z</time>
      </trkpt>
      <trkpt lat="50.73117" lon="3.48962">
        <ele>31.623668</ele>
        <time>2020-06-18T17:36:19.298Z</time>
      </trkpt>
      <trkpt lat="50.73108" lon="3.48943">
        <ele>31.872806</ele>
        <time>2020-06-18T17:36:22.964Z</time>
      </trkpt>
      <trkpt lat="50.73094" lon="3.48875">
        <ele>32.560645</ele>
        <time>2020-06-18T17:36:34.635Z</time>
      </trkpt>
      <trkpt lat="50.73085" lon="3.48852">
        <ele>32.718147</ele>
        <time>2020-06-18T17:36:38.418Z</time>
      </trkpt>
      <trkpt lat="50.73057" lon="3.48809">
        <ele>33.066502</ele>
        <time>2020-06-18T17:36:47.118Z</time>
      </trkpt>
      <trkpt lat="50.73038" lon="3.48792">
        <ele>33.26008</ele>
        <time>2020-06-18T17:36:52.048Z</time>
      </trkpt>
      <trkpt lat="50.73021" lon="3.48783">
        <ele>33.423015</ele>
        <time>2020-06-18T17:36:55.996Z</time>
      </trkpt>
      <trkpt lat="50.7302" lon="3.48795">
        <ele>33.490291</ele>
        <time>2020-06-18T17:36:57.984Z</time>
      </trkpt>
      <trkpt lat="50.73014" lon="3.48823">
        <ele>33.658939</ele>
        <time>2020-06-18T17:37:01.966Z</time>
      </trkpt>
      <trkpt lat="50.7285" lon="3.49241">
        <ele>34.87041</ele>
        <time>2020-06-18T17:38:03.515Z</time>
      </trkpt>
      <trkpt lat="50.72845" lon="3.49254">
        <ele>34.873524</ele>
        <time>2020-06-18T17:38:04.932Z</time>
      </trkpt>
      <trkpt lat="50.72826" lon="3.49301">
        <ele>34.885038</ele>
        <time>2020-06-18T17:38:10.636Z</time>
      </trkpt>
      <trkpt lat="50.72804" lon="3.49362">
        <ele>34.899892</ele>
        <time>2020-06-18T17:38:17.927Z</time>
      </trkpt>
      <trkpt lat="50.7275" lon="3.49556">
        <ele>35.62206</ele>
        <time>2020-06-18T17:38:42.544Z</time>
      </trkpt>
      <trkpt lat="50.72616" lon="3.4976">
        <ele>38.710215</ele>
        <time>2020-06-18T17:39:31.991Z</time>
      </trkpt>
      <trkpt lat="50.72594" lon="3.49817">
        <ele>39.590888</ele>
        <time>2020-06-18T17:39:45.015Z</time>
      </trkpt>
      <trkpt lat="50.72585" lon="3.49864">
        <ele>40.650679</ele>
        <time>2020-06-18T17:39:54.935Z</time>
      </trkpt>
      <trkpt lat="50.72584" lon="3.49916">
        <ele>41.80627</ele>
        <time>2020-06-18T17:40:05.294Z</time>
      </trkpt>
      <trkpt lat="50.72585" lon="3.49988">
        <ele>43.37711</ele>
        <time>2020-06-18T17:40:21.340Z</time>
      </trkpt>
      <trkpt lat="50.72567" lon="3.50112">
        <ele>46.220857</ele>
        <time>2020-06-18T17:40:50.751Z</time>
      </trkpt>
      <trkpt lat="50.72564" lon="3.50172">
        <ele>47.752713</ele>
        <time>2020-06-18T17:41:05.221Z</time>
      </trkpt>
      <trkpt lat="50.72564" lon="3.50183">
        <ele>48.043884</ele>
        <time>2020-06-18T17:41:08.411Z</time>
      </trkpt>
      <trkpt lat="50.72566" lon="3.50196">
        <ele>48.374016</ele>
        <time>2020-06-18T17:41:12.454Z</time>
      </trkpt>
      <trkpt lat="50.72578" lon="3.50254">
        <ele>49.916393</ele>
        <time>2020-06-18T17:41:27.071Z</time>
      </trkpt>
      <trkpt lat="50.72572" lon="3.50329">
        <ele>51.833338</ele>
        <time>2020-06-18T17:41:44.183Z</time>
      </trkpt>
      <trkpt lat="50.72564" lon="3.50386">
        <ele>53.190275</ele>
        <time>2020-06-18T17:41:57.427Z</time>
      </trkpt>
      <trkpt lat="50.72558" lon="3.50426">
        <ele>53.641319</ele>
        <time>2020-06-18T17:42:07.352Z</time>
      </trkpt>
      <trkpt lat="50.72548" lon="3.50465">
        <ele>54.110829</ele>
        <time>2020-06-18T17:42:15.075Z</time>
      </trkpt>
      <trkpt lat="50.72519" lon="3.50518">
        <ele>54.875336</ele>
        <time>2020-06-18T17:42:27.074Z</time>
      </trkpt>
      <trkpt lat="50.72496" lon="3.50595">
        <ele>55.812676</ele>
        <time>2020-06-18T17:42:40.038Z</time>
      </trkpt>
      <trkpt lat="50.72478" lon="3.50626">
        <ele>56.200405</ele>
        <time>2020-06-18T17:42:44.404Z</time>
      </trkpt>
      <trkpt lat="50.72458" lon="3.50636">
        <ele>55.867316</ele>
        <time>2020-06-18T17:42:47.540Z</time>
      </trkpt>
      <trkpt lat="50.72392" lon="3.5062">
        <ele>54.817579</ele>
        <time>2020-06-18T17:42:56.964Z</time>
      </trkpt>
      <trkpt lat="50.72363" lon="3.5062">
        <ele>54.372401</ele>
        <time>2020-06-18T17:43:00.757Z</time>
      </trkpt>
      <trkpt lat="50.72347" lon="3.50627">
        <ele>54.109403</ele>
        <time>2020-06-18T17:43:02.805Z</time>
      </trkpt>
      <trkpt lat="50.72327" lon="3.5068">
        <ele>53.49969</ele>
        <time>2020-06-18T17:43:07.824Z</time>
      </trkpt>
      <trkpt lat="50.72303" lon="3.50744">
        <ele>52.630973</ele>
        <time>2020-06-18T17:43:14.007Z</time>
      </trkpt>
      <trkpt lat="50.72298" lon="3.50752">
        <ele>52.510794</ele>
        <time>2020-06-18T17:43:14.809Z</time>
      </trkpt>
      <trkpt lat="50.72287" lon="3.50763">
        <ele>52.26093</ele>
        <time>2020-06-18T17:43:16.411Z</time>
      </trkpt>
      <trkpt lat="50.72179" lon="3.50968">
        <ele>50.323779</ele>
        <time>2020-06-18T17:43:39.550Z</time>
      </trkpt>
      <trkpt lat="50.72115" lon="3.51075">
        <ele>50.777965</ele>
        <time>2020-06-18T17:43:59.494Z</time>
      </trkpt>
      <trkpt lat="50.72107" lon="3.51081">
        <ele>50.822613</ele>
        <time>2020-06-18T17:44:02.119Z</time>
      </trkpt>
      <trkpt lat="50.71784" lon="3.51362">
        <ele>59.366976</ele>
        <time>2020-06-18T17:45:55.217Z</time>
      </trkpt>
      <trkpt lat="50.71613" lon="3.51467">
        <ele>60.661991</ele>
        <time>2020-06-18T17:46:34.641Z</time>
      </trkpt>
      <trkpt lat="50.71596" lon="3.51475">
        <ele>60.653781</ele>
        <time>2020-06-18T17:46:37.526Z</time>
      </trkpt>
      <trkpt lat="50.71579" lon="3.51482">
        <ele>60.262987</ele>
        <time>2020-06-18T17:46:39.880Z</time>
      </trkpt>
      <trkpt lat="50.71469" lon="3.51504">
        <ele>57.801052</ele>
        <time>2020-06-18T17:46:54.103Z</time>
      </trkpt>
      <trkpt lat="50.71378" lon="3.51486">
        <ele>55.378753</ele>
        <time>2020-06-18T17:47:05.194Z</time>
      </trkpt>
      <trkpt lat="50.71249" lon="3.51499">
        <ele>51.332393</ele>
        <time>2020-06-18T17:47:20.939Z</time>
      </trkpt>
      <trkpt lat="50.7118" lon="3.51509">
        <ele>49.686907</ele>
        <time>2020-06-18T17:47:29.602Z</time>
      </trkpt>
      <trkpt lat="50.71047" lon="3.51533">
        <ele>46.776202</ele>
        <time>2020-06-18T17:47:47.092Z</time>
      </trkpt>
      <trkpt lat="50.70838" lon="3.51573">
        <ele>44.404294</ele>
        <time>2020-06-18T17:48:17.459Z</time>
      </trkpt>
      <trkpt lat="50.70776" lon="3.51631">
        <ele>44.003024</ele>
        <time>2020-06-18T17:48:28.756Z</time>
      </trkpt>
      <trkpt lat="50.70755" lon="3.51653">
        <ele>43.865331</ele>
        <time>2020-06-18T17:48:32.838Z</time>
      </trkpt>
      <trkpt lat="50.70747" lon="3.51664">
        <ele>43.806968</ele>
        <time>2020-06-18T17:48:34.579Z</time>
      </trkpt>
      <trkpt lat="50.7066" lon="3.51803">
        <ele>43.955796</ele>
        <time>2020-06-18T17:48:57.247Z</time>
      </trkpt>
      <trkpt lat="50.70575" lon="3.51905">
        <ele>44.586977</ele>
        <time>2020-06-18T17:49:18.632Z</time>
      </trkpt>
      <trkpt lat="50.70462" lon="3.52029">
        <ele>46.686407</ele>
        <time>2020-06-18T17:49:52.828Z</time>
      </trkpt>
      <trkpt lat="50.7039" lon="3.52084">
        <ele>48.941312</ele>
        <time>2020-06-18T17:50:18.286Z</time>
      </trkpt>
      <trkpt lat="50.70344" lon="3.52133">
        <ele>50.701631</ele>
        <time>2020-06-18T17:50:37.293Z</time>
      </trkpt>
      <trkpt lat="50.70317" lon="3.52167">
        <ele>51.806039</ele>
        <time>2020-06-18T17:50:49.764Z</time>
      </trkpt>
      <trkpt lat="50.70294" lon="3.52196">
        <ele>52.717059</ele>
        <time>2020-06-18T17:51:00.195Z</time>
      </trkpt>
      <trkpt lat="50.70253" lon="3.52245">
        <ele>54.087894</ele>
        <time>2020-06-18T17:51:17.593Z</time>
      </trkpt>
      <trkpt lat="50.70215" lon="3.52279">
        <ele>55.244435</ele>
        <time>2020-06-18T17:51:32.082Z</time>
      </trkpt>
      <trkpt lat="50.70096" lon="3.52367">
        <ele>57.784056</ele>
        <time>2020-06-18T17:52:07.178Z</time>
      </trkpt>
      <trkpt lat="50.7004" lon="3.52403">
        <ele>58.261719</ele>
        <time>2020-06-18T17:52:20.011Z</time>
      </trkpt>
      <trkpt lat="50.69936" lon="3.52433">
        <ele>58.623383</ele>
        <time>2020-06-18T17:52:46.065Z</time>
      </trkpt>
      <trkpt lat="50.69852" lon="3.52507">
        <ele>58.133184</ele>
        <time>2020-06-18T17:53:07.402Z</time>
      </trkpt>
      <trkpt lat="50.69799" lon="3.52522">
        <ele>57.746507</ele>
        <time>2020-06-18T17:53:18.957Z</time>
      </trkpt>
      <trkpt lat="50.69768" lon="3.52596">
        <ele>56.494671</ele>
        <time>2020-06-18T17:53:30.293Z</time>
      </trkpt>
      <trkpt lat="50.69717" lon="3.5267">
        <ele>54.960518</ele>
        <time>2020-06-18T17:53:43.217Z</time>
      </trkpt>
      <trkpt lat="50.69535" lon="3.52503">
        <ele>48.060406</ele>
        <time>2020-06-18T17:54:19.276Z</time>
      </trkpt>
      <trkpt lat="50.69477" lon="3.52454">
        <ele>45.875782</ele>
        <time>2020-06-18T17:54:30.517Z</time>
      </trkpt>
      <trkpt lat="50.69421" lon="3.5239">
        <ele>43.677048</ele>
        <time>2020-06-18T17:54:42.461Z</time>
      </trkpt>
      <trkpt lat="50.6933" lon="3.52307">
        <ele>40.958978</ele>
        <time>2020-06-18T17:55:01.605Z</time>
      </trkpt>
      <trkpt lat="50.69224" lon="3.52579">
        <ele>37.709764</ele>
        <time>2020-06-18T17:55:29.971Z</time>
      </trkpt>
      <trkpt lat="50.69195" lon="3.52623">
        <ele>37.16365</ele>
        <time>2020-06-18T17:55:35.641Z</time>
      </trkpt>
      <trkpt lat="50.69168" lon="3.5265">
        <ele>36.728506</ele>
        <time>2020-06-18T17:55:40.104Z</time>
      </trkpt>
      <trkpt lat="50.69132" lon="3.52676">
        <ele>36.188817</ele>
        <time>2020-06-18T17:55:45.597Z</time>
      </trkpt>
      <trkpt lat="50.69023" lon="3.52729">
        <ele>34.715967</ele>
        <time>2020-06-18T17:56:01.632Z</time>
      </trkpt>
      <trkpt lat="50.69002" lon="3.52752">
        <ele>34.388927</ele>
        <time>2020-06-18T17:56:05.286Z</time>
      </trkpt>
      <trkpt lat="50.68983" lon="3.52794">
        <ele>33.973564</ele>
        <time>2020-06-18T17:56:09.913Z</time>
      </trkpt>
      <trkpt lat="50.68956" lon="3.52911">
        <ele>33.338077</ele>
        <time>2020-06-18T17:56:21.543Z</time>
      </trkpt>
      <trkpt lat="50.68937" lon="3.52959">
        <ele>33.077076</ele>
        <time>2020-06-18T17:56:27.128Z</time>
      </trkpt>
      <trkpt lat="50.68905" lon="3.53032">
        <ele>32.665055</ele>
        <time>2020-06-18T17:56:36.217Z</time>
      </trkpt>
      <trkpt lat="50.68897" lon="3.53056">
        <ele>32.543154</ele>
        <time>2020-06-18T17:56:38.928Z</time>
      </trkpt>
      <trkpt lat="50.68888" lon="3.53085">
        <ele>32.420353</ele>
        <time>2020-06-18T17:56:42.318Z</time>
      </trkpt>
      <trkpt lat="50.68857" lon="3.53253">
        <ele>31.784939</ele>
        <time>2020-06-18T17:56:59.380Z</time>
      </trkpt>
      <trkpt lat="50.68852" lon="3.53297">
        <ele>31.623115</ele>
        <time>2020-06-18T17:57:03.989Z</time>
      </trkpt>
      <trkpt lat="50.68852" lon="3.53374">
        <ele>31.46472</ele>
        <time>2020-06-18T17:57:11.747Z</time>
      </trkpt>
      <trkpt lat="50.68847" lon="3.53406">
        <ele>31.440311</ele>
        <time>2020-06-18T17:57:15.387Z</time>
      </trkpt>
      <trkpt lat="50.68838" lon="3.53428">
        <ele>31.421423</ele>
        <time>2020-06-18T17:57:17.898Z</time>
      </trkpt>
      <trkpt lat="50.68821" lon="3.53456">
        <ele>31.392661</ele>
        <time>2020-06-18T17:57:22.163Z</time>
      </trkpt>
      <trkpt lat="50.68774" lon="3.53557">
        <ele>31.300496</ele>
        <time>2020-06-18T17:57:35.620Z</time>
      </trkpt>
      <trkpt lat="50.68757" lon="3.53565">
        <ele>31.361636</ele>
        <time>2020-06-18T17:57:39.053Z</time>
      </trkpt>
      <trkpt lat="50.68675" lon="3.53579">
        <ele>32.457245</ele>
        <time>2020-06-18T17:57:57.583Z</time>
      </trkpt>
      <trkpt lat="50.68663" lon="3.53584">
        <ele>32.619655</ele>
        <time>2020-06-18T17:58:00.906Z</time>
      </trkpt>
      <trkpt lat="50.6864" lon="3.53611">
        <ele>33.009487</ele>
        <time>2020-06-18T17:58:08.029Z</time>
      </trkpt>
      <trkpt lat="50.6862" lon="3.53653">
        <ele>33.450571</ele>
        <time>2020-06-18T17:58:16.322Z</time>
      </trkpt>
      <trkpt lat="50.68614" lon="3.53651">
        <ele>33.520716</ele>
        <time>2020-06-18T17:58:18.518Z</time>
      </trkpt>
      <trkpt lat="50.68495" lon="3.53558">
        <ele>37.342956</ele>
        <time>2020-06-18T17:59:08.130Z</time>
      </trkpt>
      <trkpt lat="50.68477" lon="3.53554">
        <ele>37.884375</ele>
        <time>2020-06-18T17:59:15.911Z</time>
      </trkpt>
      <trkpt lat="50.68372" lon="3.53573">
        <ele>41.796542</ele>
        <time>2020-06-18T18:00:01.438Z</time>
      </trkpt>
      <trkpt lat="50.68089" lon="3.53698">
        <ele>53.896551</ele>
        <time>2020-06-18T18:02:13.293Z</time>
      </trkpt>
      <trkpt lat="50.68048" lon="3.53708">
        <ele>54.796188</ele>
        <time>2020-06-18T18:02:29.342Z</time>
      </trkpt>
      <trkpt lat="50.68012" lon="3.53708">
        <ele>55.570073</ele>
        <time>2020-06-18T18:02:42.647Z</time>
      </trkpt>
      <trkpt lat="50.67833" lon="3.53651">
        <ele>57.900509</ele>
        <time>2020-06-18T18:03:38.790Z</time>
      </trkpt>
      <trkpt lat="50.67779" lon="3.53645">
        <ele>57.962366</ele>
        <time>2020-06-18T18:03:51.728Z</time>
      </trkpt>
      <trkpt lat="50.67767" lon="3.5364">
        <ele>57.976726</ele>
        <time>2020-06-18T18:03:53.478Z</time>
      </trkpt>
      <trkpt lat="50.67473" lon="3.53614">
        <ele>53.463439</ele>
        <time>2020-06-18T18:04:33.347Z</time>
      </trkpt>
      <trkpt lat="50.67453" lon="3.5362">
        <ele>53.087021</ele>
        <time>2020-06-18T18:04:35.982Z</time>
      </trkpt>
      <trkpt lat="50.67435" lon="3.53626">
        <ele>52.733607</ele>
        <time>2020-06-18T18:04:38.553Z</time>
      </trkpt>
      <trkpt lat="50.6736" lon="3.53651">
        <ele>51.144648</ele>
        <time>2020-06-18T18:04:48.539Z</time>
      </trkpt>
      <trkpt lat="50.6734" lon="3.53658">
        <ele>50.560546</ele>
        <time>2020-06-18T18:04:51.208Z</time>
      </trkpt>
      <trkpt lat="50.67332" lon="3.53657">
        <ele>50.331719</ele>
        <time>2020-06-18T18:04:52.291Z</time>
      </trkpt>
      <trkpt lat="50.67325" lon="3.53667">
        <ele>50.056979</ele>
        <time>2020-06-18T18:04:53.478Z</time>
      </trkpt>
      <trkpt lat="50.67313" lon="3.53683">
        <ele>49.626057</ele>
        <time>2020-06-18T18:04:55.428Z</time>
      </trkpt>
      <trkpt lat="50.67306" lon="3.53694">
        <ele>49.350946</ele>
        <time>2020-06-18T18:04:56.705Z</time>
      </trkpt>
      <trkpt lat="50.673" lon="3.53705">
        <ele>49.07622</ele>
        <time>2020-06-18T18:04:57.910Z</time>
      </trkpt>
      <trkpt lat="50.67269" lon="3.53753">
        <ele>47.849254</ele>
        <time>2020-06-18T18:05:03.384Z</time>
      </trkpt>
      <trkpt lat="50.67213" lon="3.53828">
        <ele>45.467204</ele>
        <time>2020-06-18T18:05:12.095Z</time>
      </trkpt>
      <trkpt lat="50.67133" lon="3.53947">
        <ele>40.963624</ele>
        <time>2020-06-18T18:05:24.866Z</time>
      </trkpt>
      <trkpt lat="50.67106" lon="3.53985">
        <ele>39.505125</ele>
        <time>2020-06-18T18:05:29.016Z</time>
      </trkpt>
      <trkpt lat="50.66978" lon="3.54151">
        <ele>33.608729</ele>
        <time>2020-06-18T18:05:48.613Z</time>
      </trkpt>
      <trkpt lat="50.66903" lon="3.54231">
        <ele>31.910748</ele>
        <time>2020-06-18T18:06:00.428Z</time>
      </trkpt>
      <trkpt lat="50.66853" lon="3.54283">
        <ele>31.092369</ele>
        <time>2020-06-18T18:06:09.160Z</time>
      </trkpt>
      <trkpt lat="50.66823" lon="3.54303">
        <ele>30.66048</ele>
        <time>2020-06-18T18:06:14.290Z</time>
      </trkpt>
      <trkpt lat="50.6673" lon="3.54338">
        <ele>30.470141</ele>
        <time>2020-06-18T18:06:31.314Z</time>
      </trkpt>
      <trkpt lat="50.66673" lon="3.54359">
        <ele>30.519158</ele>
        <time>2020-06-18T18:06:42.520Z</time>
      </trkpt>
      <trkpt lat="50.66687" lon="3.54393">
        <ele>30.540723</ele>
        <time>2020-06-18T18:06:47.161Z</time>
      </trkpt>
      <trkpt lat="50.66697" lon="3.5441">
        <ele>30.553107</ele>
        <time>2020-06-18T18:06:49.811Z</time>
      </trkpt>
      <trkpt lat="50.66671" lon="3.54514">
        <ele>30.978865</ele>
        <time>2020-06-18T18:07:03.226Z</time>
      </trkpt>
      <trkpt lat="50.66641" lon="3.54638">
        <ele>31.513166</ele>
        <time>2020-06-18T18:07:21.089Z</time>
      </trkpt>
      <trkpt lat="50.66625" lon="3.54692">
        <ele>31.809266</ele>
        <time>2020-06-18T18:07:29.956Z</time>
      </trkpt>
      <trkpt lat="50.66601" lon="3.54724">
        <ele>32.207886</ele>
        <time>2020-06-18T18:07:37.606Z</time>
      </trkpt>
      <trkpt lat="50.66496" lon="3.54843">
        <ele>33.87561</ele>
        <time>2020-06-18T18:08:09.548Z</time>
      </trkpt>
      <trkpt lat="50.66438" lon="3.54906">
        <ele>34.414265</ele>
        <time>2020-06-18T18:08:25.354Z</time>
      </trkpt>
      <trkpt lat="50.66309" lon="3.55052">
        <ele>35.434853</ele>
        <time>2020-06-18T18:08:57.403Z</time>
      </trkpt>
      <trkpt lat="50.66237" lon="3.55145">
        <ele>35.906129</ele>
        <time>2020-06-18T18:09:15.957Z</time>
      </trkpt>
      <trkpt lat="50.66084" lon="3.55372">
        <ele>37.213689</ele>
        <time>2020-06-18T18:09:58.957Z</time>
      </trkpt>
      <trkpt lat="50.66058" lon="3.55427">
        <ele>37.682707</ele>
        <time>2020-06-18T18:10:08.872Z</time>
      </trkpt>
      <trkpt lat="50.65975" lon="3.5579">
        <ele>41.24171</ele>
        <time>2020-06-18T18:11:10.105Z</time>
      </trkpt>
      <trkpt lat="50.65943" lon="3.55862">
        <ele>42.149438</ele>
        <time>2020-06-18T18:11:24.774Z</time>
      </trkpt>
      <trkpt lat="50.65911" lon="3.55908">
        <ele>42.850517</ele>
        <time>2020-06-18T18:11:36.096Z</time>
      </trkpt>
      <trkpt lat="50.65873" lon="3.55949">
        <ele>43.587904</ele>
        <time>2020-06-18T18:11:48.243Z</time>
      </trkpt>
      <trkpt lat="50.65821" lon="3.56006">
        <ele>44.580172</ele>
        <time>2020-06-18T18:12:04.318Z</time>
      </trkpt>
      <trkpt lat="50.65702" lon="3.56135">
        <ele>46.253308</ele>
        <time>2020-06-18T18:12:39.689Z</time>
      </trkpt>
      <trkpt lat="50.6561" lon="3.56216">
        <ele>47.072107</ele>
        <time>2020-06-18T18:13:00.967Z</time>
      </trkpt>
      <trkpt lat="50.65599" lon="3.56229">
        <ele>47.052189</ele>
        <time>2020-06-18T18:13:03.538Z</time>
      </trkpt>
      <trkpt lat="50.6556" lon="3.5627">
        <ele>46.982583</ele>
        <time>2020-06-18T18:13:11.818Z</time>
      </trkpt>
      <trkpt lat="50.65446" lon="3.56395">
        <ele>46.902413</ele>
        <time>2020-06-18T18:13:34.546Z</time>
      </trkpt>
      <trkpt lat="50.6541" lon="3.56446">
        <ele>47.039532</ele>
        <time>2020-06-18T18:13:42.618Z</time>
      </trkpt>
      <trkpt lat="50.65385" lon="3.56485">
        <ele>47.138747</ele>
        <time>2020-06-18T18:13:49.416Z</time>
      </trkpt>
      <trkpt lat="50.65381" lon="3.56501">
        <ele>47.171606</ele>
        <time>2020-06-18T18:13:51.959Z</time>
      </trkpt>
      <trkpt lat="50.65354" lon="3.56528">
        <ele>47.261635</ele>
        <time>2020-06-18T18:14:00.500Z</time>
      </trkpt>
      <trkpt lat="50.65306" lon="3.56578">
        <ele>47.778692</ele>
        <time>2020-06-18T18:14:17.525Z</time>
      </trkpt>
      <trkpt lat="50.65294" lon="3.56584">
        <ele>47.935818</ele>
        <time>2020-06-18T18:14:20.816Z</time>
      </trkpt>
      <trkpt lat="50.65282" lon="3.56605">
        <ele>48.186627</ele>
        <time>2020-06-18T18:14:25.656Z</time>
      </trkpt>
      <trkpt lat="50.65203" lon="3.56741">
        <ele>49.765846</ele>
        <time>2020-06-18T18:14:54.771Z</time>
      </trkpt>
      <trkpt lat="50.65183" lon="3.56767">
        <ele>50.000242</ele>
        <time>2020-06-18T18:15:01.613Z</time>
      </trkpt>
      <trkpt lat="50.65126" lon="3.56814">
        <ele>50.569531</ele>
        <time>2020-06-18T18:15:16.498Z</time>
      </trkpt>
      <trkpt lat="50.65102" lon="3.56832">
        <ele>50.809515</ele>
        <time>2020-06-18T18:15:22.474Z</time>
      </trkpt>
      <trkpt lat="50.65074" lon="3.56852">
        <ele>51.084325</ele>
        <time>2020-06-18T18:15:28.840Z</time>
      </trkpt>
      <trkpt lat="50.65052" lon="3.56872">
        <ele>51.308201</ele>
        <time>2020-06-18T18:15:33.702Z</time>
      </trkpt>
      <trkpt lat="50.65039" lon="3.5689">
        <ele>51.334237</ele>
        <time>2020-06-18T18:15:37.040Z</time>
      </trkpt>
      <trkpt lat="50.65032" lon="3.56902">
        <ele>51.295521</ele>
        <time>2020-06-18T18:15:38.873Z</time>
      </trkpt>
      <trkpt lat="50.65024" lon="3.56917">
        <ele>51.250816</ele>
        <time>2020-06-18T18:15:41.051Z</time>
      </trkpt>
      <trkpt lat="50.64994" lon="3.5695">
        <ele>51.116087</ele>
        <time>2020-06-18T18:15:47.144Z</time>
      </trkpt>
      <trkpt lat="50.64971" lon="3.56958">
        <ele>51.029944</ele>
        <time>2020-06-18T18:15:50.784Z</time>
      </trkpt>
      <trkpt lat="50.64912" lon="3.56977">
        <ele>50.807533</ele>
        <time>2020-06-18T18:15:59.751Z</time>
      </trkpt>
      <trkpt lat="50.64764" lon="3.57007">
        <ele>50.775208</ele>
        <time>2020-06-18T18:16:24.441Z</time>
      </trkpt>
      <trkpt lat="50.64758" lon="3.57015">
        <ele>50.779248</ele>
        <time>2020-06-18T18:16:25.493Z</time>
      </trkpt>
      <trkpt lat="50.64755" lon="3.57031">
        <ele>50.7849</ele>
        <time>2020-06-18T18:16:28.291Z</time>
      </trkpt>
      <trkpt lat="50.6477" lon="3.57184">
        <ele>51.952925</ele>
        <time>2020-06-18T18:16:50.593Z</time>
      </trkpt>
      <trkpt lat="50.64767" lon="3.57201">
        <ele>52.164685</ele>
        <time>2020-06-18T18:16:53.778Z</time>
      </trkpt>
      <trkpt lat="50.64762" lon="3.57209">
        <ele>52.3026</ele>
        <time>2020-06-18T18:16:56.194Z</time>
      </trkpt>
      <trkpt lat="50.64757" lon="3.57212">
        <ele>52.419012</ele>
        <time>2020-06-18T18:16:57.668Z</time>
      </trkpt>
      <trkpt lat="50.6469" lon="3.5724">
        <ele>53.737742</ele>
        <time>2020-06-18T18:17:16.047Z</time>
      </trkpt>
      <trkpt lat="50.64508" lon="3.57354">
        <ele>60.551304</ele>
        <time>2020-06-18T18:18:22.297Z</time>
      </trkpt>
      <trkpt lat="50.64503" lon="3.57356">
        <ele>60.755665</ele>
        <time>2020-06-18T18:18:24.985Z</time>
      </trkpt>
      <trkpt lat="50.64496" lon="3.57362">
        <ele>61.097413</ele>
        <time>2020-06-18T18:18:29.580Z</time>
      </trkpt>
      <trkpt lat="50.6446" lon="3.57385">
        <ele>63.778385</ele>
        <time>2020-06-18T18:18:47.517Z</time>
      </trkpt>
      <trkpt lat="50.64449" lon="3.57393">
        <ele>64.603933</ele>
        <time>2020-06-18T18:18:52.816Z</time>
      </trkpt>
      <trkpt lat="50.64381" lon="3.5741">
        <ele>69.280059</ele>
        <time>2020-06-18T18:19:29.533Z</time>
      </trkpt>
      <trkpt lat="50.6434" lon="3.57437">
        <ele>72.273043</ele>
        <time>2020-06-18T18:19:55.051Z</time>
      </trkpt>
      <trkpt lat="50.64201" lon="3.57557">
        <ele>82.594899</ele>
        <time>2020-06-18T18:21:17.139Z</time>
      </trkpt>
      <trkpt lat="50.64094" lon="3.57717">
        <ele>87.647379</ele>
        <time>2020-06-18T18:22:13.737Z</time>
      </trkpt>
      <trkpt lat="50.64076" lon="3.57743">
        <ele>88.243871</ele>
        <time>2020-06-18T18:22:21.250Z</time>
      </trkpt>
      <trkpt lat="50.64074" lon="3.57748">
        <ele>88.34227</ele>
        <time>2020-06-18T18:22:21.668Z</time>
      </trkpt>
      <trkpt lat="50.63953" lon="3.57873">
        <ele>86.653858</ele>
        <time>2020-06-18T18:22:40.837Z</time>
      </trkpt>
      <trkpt lat="50.63939" lon="3.57894">
        <ele>86.151905</ele>
        <time>2020-06-18T18:22:43.050Z</time>
      </trkpt>
      <trkpt lat="50.6392" lon="3.5792">
        <ele>85.514672</ele>
        <time>2020-06-18T18:22:45.994Z</time>
      </trkpt>
      <trkpt lat="50.63852" lon="3.58029">
        <ele>84.065558</ele>
        <time>2020-06-18T18:22:57.972Z</time>
      </trkpt>
      <trkpt lat="50.6384" lon="3.58043">
        <ele>83.907328</ele>
        <time>2020-06-18T18:22:59.790Z</time>
      </trkpt>
      <trkpt lat="50.63837" lon="3.58009">
        <ele>83.682366</ele>
        <time>2020-06-18T18:23:03.169Z</time>
      </trkpt>
      <trkpt lat="50.63827" lon="3.57787">
        <ele>84.438441</ele>
        <time>2020-06-18T18:23:37.205Z</time>
      </trkpt>
      <trkpt lat="50.63826" lon="3.57769">
        <ele>84.704297</ele>
        <time>2020-06-18T18:23:40.999Z</time>
      </trkpt>
      <trkpt lat="50.63823" lon="3.57753">
        <ele>84.960189</ele>
        <time>2020-06-18T18:23:44.222Z</time>
      </trkpt>
      <trkpt lat="50.63814" lon="3.57676">
        <ele>86.119055</ele>
        <time>2020-06-18T18:24:00.337Z</time>
      </trkpt>
      <trkpt lat="50.63795" lon="3.57553">
        <ele>87.740653</ele>
        <time>2020-06-18T18:24:26.188Z</time>
      </trkpt>
      <trkpt lat="50.6378" lon="3.5749">
        <ele>88.443705</ele>
        <time>2020-06-18T18:24:38.910Z</time>
      </trkpt>
      <trkpt lat="50.63723" lon="3.57331">
        <ele>90.071882</ele>
        <time>2020-06-18T18:25:04.464Z</time>
      </trkpt>
      <trkpt lat="50.63696" lon="3.57257">
        <ele>90.056351</ele>
        <time>2020-06-18T18:25:14.053Z</time>
      </trkpt>
      <trkpt lat="50.63693" lon="3.5725">
        <ele>90.054765</ele>
        <time>2020-06-18T18:25:15.434Z</time>
      </trkpt>
      <trkpt lat="50.63597" lon="3.56992">
        <ele>89.920641</ele>
        <time>2020-06-18T18:25:59.021Z</time>
      </trkpt>
      <trkpt lat="50.63564" lon="3.56782">
        <ele>89.910485</ele>
        <time>2020-06-18T18:26:32.439Z</time>
      </trkpt>
      <trkpt lat="50.63558" lon="3.56748">
        <ele>89.966651</ele>
        <time>2020-06-18T18:26:38.151Z</time>
      </trkpt>
      <trkpt lat="50.63534" lon="3.56644">
        <ele>90.141079</ele>
        <time>2020-06-18T18:26:56.095Z</time>
      </trkpt>
      <trkpt lat="50.6345" lon="3.56413">
        <ele>91.004509</ele>
        <time>2020-06-18T18:27:41.725Z</time>
      </trkpt>
      <trkpt lat="50.63409" lon="3.56247">
        <ele>91.659806</ele>
        <time>2020-06-18T18:28:13.367Z</time>
      </trkpt>
      <trkpt lat="50.63339" lon="3.55907">
        <ele>91.757428</ele>
        <time>2020-06-18T18:29:12.975Z</time>
      </trkpt>
      <trkpt lat="50.63307" lon="3.55829">
        <ele>91.423142</ele>
        <time>2020-06-18T18:29:24.733Z</time>
      </trkpt>
      <trkpt lat="50.63281" lon="3.55793">
        <ele>90.82054</ele>
        <time>2020-06-18T18:29:31.097Z</time>
      </trkpt>
      <trkpt lat="50.63245" lon="3.55703">
        <ele>88.844064</ele>
        <time>2020-06-18T18:29:43.330Z</time>
      </trkpt>
      <trkpt lat="50.63222" lon="3.55638">
        <ele>87.478082</ele>
        <time>2020-06-18T18:29:48.991Z</time>
      </trkpt>
      <trkpt lat="50.63186" lon="3.55519">
        <ele>85.190974</ele>
        <time>2020-06-18T18:29:59.089Z</time>
      </trkpt>
      <trkpt lat="50.63167" lon="3.55477">
        <ele>84.379642</ele>
        <time>2020-06-18T18:30:03.134Z</time>
      </trkpt>
      <trkpt lat="50.63151" lon="3.55428">
        <ele>83.517502</ele>
        <time>2020-06-18T18:30:07.564Z</time>
      </trkpt>
      <trkpt lat="50.63136" lon="3.55346">
        <ele>82.182199</ele>
        <time>2020-06-18T18:30:14.763Z</time>
      </trkpt>
      <trkpt lat="50.6311" lon="3.5527">
        <ele>81.304869</ele>
        <time>2020-06-18T18:30:22.379Z</time>
      </trkpt>
      <trkpt lat="50.63042" lon="3.55163">
        <ele>80.35498</ele>
        <time>2020-06-18T18:30:36.526Z</time>
      </trkpt>
      <trkpt lat="50.63024" lon="3.55096">
        <ele>79.898998</ele>
        <time>2020-06-18T18:30:43.781Z</time>
      </trkpt>
      <trkpt lat="50.63014" lon="3.55018">
        <ele>79.748092</ele>
        <time>2020-06-18T18:30:51.965Z</time>
      </trkpt>
      <trkpt lat="50.63" lon="3.54962">
        <ele>79.663367</ele>
        <time>2020-06-18T18:30:58.205Z</time>
      </trkpt>
      <trkpt lat="50.62998" lon="3.54954">
        <ele>79.649963</ele>
        <time>2020-06-18T18:30:59.151Z</time>
      </trkpt>
      <trkpt lat="50.62929" lon="3.54796">
        <ele>79.457504</ele>
        <time>2020-06-18T18:31:20.747Z</time>
      </trkpt>
      <trkpt lat="50.62925" lon="3.54801">
        <ele>79.458756</ele>
        <time>2020-06-18T18:31:21.933Z</time>
      </trkpt>
      <trkpt lat="50.62857" lon="3.54899">
        <ele>79.484081</ele>
        <time>2020-06-18T18:31:45.513Z</time>
      </trkpt>
      <trkpt lat="50.62807" lon="3.55009">
        <ele>78.985063</ele>
        <time>2020-06-18T18:32:05.670Z</time>
      </trkpt>
      <trkpt lat="50.62784" lon="3.55049">
        <ele>78.467218</ele>
        <time>2020-06-18T18:32:12.852Z</time>
      </trkpt>
      <trkpt lat="50.62754" lon="3.55076">
        <ele>77.944262</ele>
        <time>2020-06-18T18:32:19.757Z</time>
      </trkpt>
      <trkpt lat="50.6273" lon="3.55099">
        <ele>77.519617</ele>
        <time>2020-06-18T18:32:25.195Z</time>
      </trkpt>
      <trkpt lat="50.62709" lon="3.55087">
        <ele>77.183253</ele>
        <time>2020-06-18T18:32:29.262Z</time>
      </trkpt>
      <trkpt lat="50.62675" lon="3.55074">
        <ele>76.499354</ele>
        <time>2020-06-18T18:32:35.615Z</time>
      </trkpt>
      <trkpt lat="50.62558" lon="3.55132">
        <ele>72.377203</ele>
        <time>2020-06-18T18:32:56.753Z</time>
      </trkpt>
      <trkpt lat="50.62437" lon="3.55142">
        <ele>68.279885</ele>
        <time>2020-06-18T18:33:17.596Z</time>
      </trkpt>
      <trkpt lat="50.62156" lon="3.55068">
        <ele>59.473664</ele>
        <time>2020-06-18T18:34:07.341Z</time>
      </trkpt>
      <trkpt lat="50.62147" lon="3.55063">
        <ele>59.335317</ele>
        <time>2020-06-18T18:34:09.148Z</time>
      </trkpt>
      <trkpt lat="50.62132" lon="3.5505">
        <ele>59.19675</ele>
        <time>2020-06-18T18:34:12.542Z</time>
      </trkpt>
      <trkpt lat="50.61988" lon="3.54886">
        <ele>58.041418</ele>
        <time>2020-06-18T18:34:52.591Z</time>
      </trkpt>
      <trkpt lat="50.61971" lon="3.54877">
        <ele>58.123232</ele>
        <time>2020-06-18T18:34:57.134Z</time>
      </trkpt>
      <trkpt lat="50.61968" lon="3.54877">
        <ele>58.137612</ele>
        <time>2020-06-18T18:34:58.208Z</time>
      </trkpt>
      <trkpt lat="50.6196" lon="3.54878">
        <ele>58.173803</ele>
        <time>2020-06-18T18:35:00.507Z</time>
      </trkpt>
      <trkpt lat="50.61869" lon="3.54967">
        <ele>58.673218</ele>
        <time>2020-06-18T18:35:29.728Z</time>
      </trkpt>
      <trkpt lat="50.61749" lon="3.55046">
        <ele>60.26821</ele>
        <time>2020-06-18T18:36:06.955Z</time>
      </trkpt>
      <trkpt lat="50.61736" lon="3.55049">
        <ele>60.450103</ele>
        <time>2020-06-18T18:36:10.613Z</time>
      </trkpt>
      <trkpt lat="50.6173" lon="3.55043">
        <ele>60.554238</ele>
        <time>2020-06-18T18:36:13.269Z</time>
      </trkpt>
      <trkpt lat="50.61659" lon="3.54822">
        <ele>63.881072</ele>
        <time>2020-06-18T18:37:09.267Z</time>
      </trkpt>
      <trkpt lat="50.61654" lon="3.54815">
        <ele>64.035916</ele>
        <time>2020-06-18T18:37:12.226Z</time>
      </trkpt>
      <trkpt lat="50.6165" lon="3.54809">
        <ele>64.17884</ele>
        <time>2020-06-18T18:37:14.681Z</time>
      </trkpt>
      <trkpt lat="50.61635" lon="3.54797">
        <ele>64.607405</ele>
        <time>2020-06-18T18:37:20.550Z</time>
      </trkpt>
      <trkpt lat="50.61619" lon="3.54796">
        <ele>64.987177</ele>
        <time>2020-06-18T18:37:26.505Z</time>
      </trkpt>
      <trkpt lat="50.61615" lon="3.54793">
        <ele>65.095501</ele>
        <time>2020-06-18T18:37:28.445Z</time>
      </trkpt>
      <trkpt lat="50.61606" lon="3.54799">
        <ele>65.332848</ele>
        <time>2020-06-18T18:37:31.774Z</time>
      </trkpt>
      <trkpt lat="50.61558" lon="3.54784">
        <ele>66.321374</ele>
        <time>2020-06-18T18:37:49.212Z</time>
      </trkpt>
      <trkpt lat="50.61434" lon="3.54691">
        <ele>68.801363</ele>
        <time>2020-06-18T18:38:35.013Z</time>
      </trkpt>
      <trkpt lat="50.61434" lon="3.54678">
        <ele>68.952321</ele>
        <time>2020-06-18T18:38:36.893Z</time>
      </trkpt>
      <trkpt lat="50.61446" lon="3.54392">
        <ele>69.465873</ele>
        <time>2020-06-18T18:39:11.232Z</time>
      </trkpt>
      <trkpt lat="50.61447" lon="3.54377">
        <ele>69.413913</ele>
        <time>2020-06-18T18:39:12.750Z</time>
      </trkpt>
      <trkpt lat="50.61338" lon="3.54284">
        <ele>68.725503</ele>
        <time>2020-06-18T18:39:31.650Z</time>
      </trkpt>
      <trkpt lat="50.61305" lon="3.54248">
        <ele>68.5031</ele>
        <time>2020-06-18T18:39:37.682Z</time>
      </trkpt>
      <trkpt lat="50.61102" lon="3.53912">
        <ele>68.598063</ele>
        <time>2020-06-18T18:40:29.443Z</time>
      </trkpt>
      <trkpt lat="50.61094" lon="3.53899">
        <ele>68.635572</ele>
        <time>2020-06-18T18:40:32.028Z</time>
      </trkpt>
      <trkpt lat="50.61064" lon="3.53851">
        <ele>68.774409</ele>
        <time>2020-06-18T18:40:41.047Z</time>
      </trkpt>
      <trkpt lat="50.61046" lon="3.5384">
        <ele>68.881338</ele>
        <time>2020-06-18T18:40:45.021Z</time>
      </trkpt>
      <trkpt lat="50.61039" lon="3.53841">
        <ele>68.990209</ele>
        <time>2020-06-18T18:40:46.962Z</time>
      </trkpt>
      <trkpt lat="50.61025" lon="3.53846">
        <ele>69.1924</ele>
        <time>2020-06-18T18:40:50.069Z</time>
      </trkpt>
      <trkpt lat="50.60945" lon="3.53893">
        <ele>70.426124</ele>
        <time>2020-06-18T18:41:10.798Z</time>
      </trkpt>
      <trkpt lat="50.60797" lon="3.54048">
        <ele>73.398853</ele>
        <time>2020-06-18T18:41:58.948Z</time>
      </trkpt>
      <trkpt lat="50.60725" lon="3.54089">
        <ele>74.748272</ele>
        <time>2020-06-18T18:42:18.776Z</time>
      </trkpt>
      <trkpt lat="50.60666" lon="3.5411">
        <ele>75.592474</ele>
        <time>2020-06-18T18:42:33.480Z</time>
      </trkpt>
      <trkpt lat="50.60654" lon="3.54108">
        <ele>75.755558</ele>
        <time>2020-06-18T18:42:36.833Z</time>
      </trkpt>
      <trkpt lat="50.60637" lon="3.54106">
        <ele>75.993213</ele>
        <time>2020-06-18T18:42:40.516Z</time>
      </trkpt>
      <trkpt lat="50.60585" lon="3.54096">
        <ele>76.701293</ele>
        <time>2020-06-18T18:42:53.233Z</time>
      </trkpt>
      <trkpt lat="50.60554" lon="3.54114">
        <ele>77.162934</ele>
        <time>2020-06-18T18:43:01.031Z</time>
      </trkpt>
      <trkpt lat="50.60536" lon="3.54139">
        <ele>77.463724</ele>
        <time>2020-06-18T18:43:06.362Z</time>
      </trkpt>
      <trkpt lat="50.60453" lon="3.54299">
        <ele>79.130994</ele>
        <time>2020-06-18T18:43:39.080Z</time>
      </trkpt>
      <trkpt lat="50.60435" lon="3.54302">
        <ele>79.361158</ele>
        <time>2020-06-18T18:43:43.817Z</time>
      </trkpt>
      <trkpt lat="50.60411" lon="3.54293">
        <ele>79.37819</ele>
        <time>2020-06-18T18:43:48.666Z</time>
      </trkpt>
      <trkpt lat="50.60399" lon="3.54294">
        <ele>79.345058</ele>
        <time>2020-06-18T18:43:51.417Z</time>
      </trkpt>
      <trkpt lat="50.60391" lon="3.54297">
        <ele>79.318981</ele>
        <time>2020-06-18T18:43:53.121Z</time>
      </trkpt>
      <trkpt lat="50.60358" lon="3.54328">
        <ele>79.207934</ele>
        <time>2020-06-18T18:44:00.265Z</time>
      </trkpt>
      <trkpt lat="50.60349" lon="3.54347">
        <ele>79.164504</ele>
        <time>2020-06-18T18:44:02.633Z</time>
      </trkpt>
      <trkpt lat="50.60345" lon="3.54362">
        <ele>79.134502</ele>
        <time>2020-06-18T18:44:04.736Z</time>
      </trkpt>
      <trkpt lat="50.60336" lon="3.54429">
        <ele>79.007961</ele>
        <time>2020-06-18T18:44:11.494Z</time>
      </trkpt>
      <trkpt lat="50.60331" lon="3.54448">
        <ele>78.971442</ele>
        <time>2020-06-18T18:44:13.284Z</time>
      </trkpt>
      <trkpt lat="50.60325" lon="3.54456">
        <ele>78.947761</ele>
        <time>2020-06-18T18:44:14.391Z</time>
      </trkpt>
      <trkpt lat="50.60249" lon="3.54486">
        <ele>77.486545</ele>
        <time>2020-06-18T18:44:24.747Z</time>
      </trkpt>
      <trkpt lat="50.6023" lon="3.54482">
        <ele>77.076879</ele>
        <time>2020-06-18T18:44:27.231Z</time>
      </trkpt>
      <trkpt lat="50.60058" lon="3.54363">
        <ele>72.969446</ele>
        <time>2020-06-18T18:44:51.075Z</time>
      </trkpt>
      <trkpt lat="50.60041" lon="3.54359">
        <ele>72.587626</ele>
        <time>2020-06-18T18:44:53.317Z</time>
      </trkpt>
      <trkpt lat="50.5996" lon="3.54388">
        <ele>70.818264</ele>
        <time>2020-06-18T18:45:04.383Z</time>
      </trkpt>
      <trkpt lat="50.599" lon="3.5444">
        <ele>69.725851</ele>
        <time>2020-06-18T18:45:13.849Z</time>
      </trkpt>
      <trkpt lat="50.59873" lon="3.5446">
        <ele>69.239479</ele>
        <time>2020-06-18T18:45:18.131Z</time>
      </trkpt>
      <trkpt lat="50.59746" lon="3.54399">
        <ele>66.696991</ele>
        <time>2020-06-18T18:45:36.060Z</time>
      </trkpt>
      <trkpt lat="50.59634" lon="3.5434">
        <ele>64.015951</ele>
        <time>2020-06-18T18:45:51.075Z</time>
      </trkpt>
      <trkpt lat="50.59482" lon="3.5426">
        <ele>59.735993</ele>
        <time>2020-06-18T18:46:10.996Z</time>
      </trkpt>
      <trkpt lat="50.59369" lon="3.54211">
        <ele>58.073724</ele>
        <time>2020-06-18T18:46:26.719Z</time>
      </trkpt>
      <trkpt lat="50.59332" lon="3.54209">
        <ele>57.625731</ele>
        <time>2020-06-18T18:46:32.277Z</time>
      </trkpt>
      <trkpt lat="50.593" lon="3.54211">
        <ele>57.235305</ele>
        <time>2020-06-18T18:46:37.511Z</time>
      </trkpt>
      <trkpt lat="50.59273" lon="3.54214">
        <ele>57.102029</ele>
        <time>2020-06-18T18:46:43.955Z</time>
      </trkpt>
      <trkpt lat="50.59246" lon="3.5422">
        <ele>57.095059</ele>
        <time>2020-06-18T18:46:50.796Z</time>
      </trkpt>
      <trkpt lat="50.59142" lon="3.5424">
        <ele>57.069159</ele>
        <time>2020-06-18T18:47:17.883Z</time>
      </trkpt>
      <trkpt lat="50.59007" lon="3.54263">
        <ele>56.223256</ele>
        <time>2020-06-18T18:47:47.945Z</time>
      </trkpt>
      <trkpt lat="50.5899" lon="3.54265">
        <ele>56.081231</ele>
        <time>2020-06-18T18:47:51.590Z</time>
      </trkpt>
      <trkpt lat="50.58922" lon="3.54275">
        <ele>55.524765</ele>
        <time>2020-06-18T18:48:05.310Z</time>
      </trkpt>
      <trkpt lat="50.58896" lon="3.54278">
        <ele>55.299545</ele>
        <time>2020-06-18T18:48:10.426Z</time>
      </trkpt>
      <trkpt lat="50.58821" lon="3.54285">
        <ele>54.650651</ele>
        <time>2020-06-18T18:48:25.662Z</time>
      </trkpt>
      <trkpt lat="50.58778" lon="3.54301">
        <ele>54.263663</ele>
        <time>2020-06-18T18:48:35.339Z</time>
      </trkpt>
      <trkpt lat="50.58736" lon="3.54294">
        <ele>54.128227</ele>
        <time>2020-06-18T18:48:45.528Z</time>
      </trkpt>
      <trkpt lat="50.58711" lon="3.54278">
        <ele>54.242907</ele>
        <time>2020-06-18T18:48:50.764Z</time>
      </trkpt>
      <trkpt lat="50.58625" lon="3.54242">
        <ele>54.625429</ele>
        <time>2020-06-18T18:49:09.073Z</time>
      </trkpt>
      <trkpt lat="50.58598" lon="3.54226">
        <ele>54.749483</ele>
        <time>2020-06-18T18:49:15.298Z</time>
      </trkpt>
      <trkpt lat="50.58553" lon="3.54197">
        <ele>54.896661</ele>
        <time>2020-06-18T18:49:25.554Z</time>
      </trkpt>
      <trkpt lat="50.58501" lon="3.5416">
        <ele>55.033031</ele>
        <time>2020-06-18T18:49:36.608Z</time>
      </trkpt>
      <trkpt lat="50.58484" lon="3.5415">
        <ele>55.075788</ele>
        <time>2020-06-18T18:49:39.970Z</time>
      </trkpt>
      <trkpt lat="50.58466" lon="3.54148">
        <ele>55.120293</ele>
        <time>2020-06-18T18:49:43.192Z</time>
      </trkpt>
      <trkpt lat="50.58442" lon="3.54149">
        <ele>55.176425</ele>
        <time>2020-06-18T18:49:47.250Z</time>
      </trkpt>
      <trkpt lat="50.58379" lon="3.5417">
        <ele>55.348271</ele>
        <time>2020-06-18T18:49:58.621Z</time>
      </trkpt>
      <trkpt lat="50.58328" lon="3.54173">
        <ele>55.495312</ele>
        <time>2020-06-18T18:50:07.700Z</time>
      </trkpt>
      <trkpt lat="50.58271" lon="3.54171">
        <ele>55.660533</ele>
        <time>2020-06-18T18:50:18.680Z</time>
      </trkpt>
      <trkpt lat="50.58133" lon="3.54166">
        <ele>56.700362</ele>
        <time>2020-06-18T18:50:48.785Z</time>
      </trkpt>
      <trkpt lat="50.58073" lon="3.54162">
        <ele>57.257716</ele>
        <time>2020-06-18T18:51:02.945Z</time>
      </trkpt>
      <trkpt lat="50.58049" lon="3.54169">
        <ele>57.474987</ele>
        <time>2020-06-18T18:51:08.551Z</time>
      </trkpt>
      <trkpt lat="50.58035" lon="3.5418">
        <ele>57.594417</ele>
        <time>2020-06-18T18:51:12.277Z</time>
      </trkpt>
      <trkpt lat="50.57878" lon="3.5433">
        <ele>58.861052</ele>
        <time>2020-06-18T18:51:51.038Z</time>
      </trkpt>
      <trkpt lat="50.57702" lon="3.54488">
        <ele>59.757245</ele>
        <time>2020-06-18T18:52:29.474Z</time>
      </trkpt>
      <trkpt lat="50.57516" lon="3.54664">
        <ele>61.817915</ele>
        <time>2020-06-18T18:53:17.865Z</time>
      </trkpt>
      <trkpt lat="50.57498" lon="3.54675">
        <ele>62.064595</ele>
        <time>2020-06-18T18:53:22.287Z</time>
      </trkpt>
      <trkpt lat="50.57486" lon="3.54682">
        <ele>62.236001</ele>
        <time>2020-06-18T18:53:25.991Z</time>
      </trkpt>
      <trkpt lat="50.57386" lon="3.54712">
        <ele>63.532691</ele>
        <time>2020-06-18T18:53:51.903Z</time>
      </trkpt>
      <trkpt lat="50.57377" lon="3.54713">
        <ele>63.64247</ele>
        <time>2020-06-18T18:53:54.510Z</time>
      </trkpt>
      <trkpt lat="50.57294" lon="3.54682">
        <ele>64.70981</ele>
        <time>2020-06-18T18:54:21.099Z</time>
      </trkpt>
      <trkpt lat="50.57164" lon="3.54635">
        <ele>65.206399</ele>
        <time>2020-06-18T18:54:57.083Z</time>
      </trkpt>
      <trkpt lat="50.57072" lon="3.54601">
        <ele>65.091123</ele>
        <time>2020-06-18T18:55:17.708Z</time>
      </trkpt>
      <trkpt lat="50.57059" lon="3.54646">
        <ele>64.672038</ele>
        <time>2020-06-18T18:55:24.257Z</time>
      </trkpt>
      <trkpt lat="50.57053" lon="3.54657">
        <ele>64.545905</ele>
        <time>2020-06-18T18:55:26.125Z</time>
      </trkpt>
      <trkpt lat="50.57046" lon="3.5466">
        <ele>64.447132</ele>
        <time>2020-06-18T18:55:27.622Z</time>
      </trkpt>
      <trkpt lat="50.56527" lon="3.54533">
        <ele>57.000955</ele>
        <time>2020-06-18T18:57:12.080Z</time>
      </trkpt>
      <trkpt lat="50.5641" lon="3.54559">
        <ele>54.76344</ele>
        <time>2020-06-18T18:57:34.509Z</time>
      </trkpt>
      <trkpt lat="50.563" lon="3.54585">
        <ele>52.454013</ele>
        <time>2020-06-18T18:57:55.070Z</time>
      </trkpt>
      <trkpt lat="50.56289" lon="3.54586">
        <ele>52.208899</ele>
        <time>2020-06-18T18:57:57.096Z</time>
      </trkpt>
      <trkpt lat="50.56257" lon="3.5459">
        <ele>51.510406</ele>
        <time>2020-06-18T18:58:03.214Z</time>
      </trkpt>
      <trkpt lat="50.56186" lon="3.54615">
        <ele>50.05988</ele>
        <time>2020-06-18T18:58:16.848Z</time>
      </trkpt>
      <trkpt lat="50.55942" lon="3.54781">
        <ele>45.970201</ele>
        <time>2020-06-18T18:59:09.429Z</time>
      </trkpt>
      <trkpt lat="50.5592" lon="3.54781">
        <ele>45.650992</ele>
        <time>2020-06-18T18:59:13.854Z</time>
      </trkpt>
      <trkpt lat="50.55898" lon="3.54766">
        <ele>45.3059</ele>
        <time>2020-06-18T18:59:18.566Z</time>
      </trkpt>
      <trkpt lat="50.55854" lon="3.54922">
        <ele>44.120069</ele>
        <time>2020-06-18T18:59:33.963Z</time>
      </trkpt>
      <trkpt lat="50.55828" lon="3.54903">
        <ele>43.844081</ele>
        <time>2020-06-18T18:59:39.861Z</time>
      </trkpt>
      <trkpt lat="50.55713" lon="3.54836">
        <ele>42.884298</ele>
        <time>2020-06-18T19:00:06.816Z</time>
      </trkpt>
      <trkpt lat="50.55629" lon="3.54826">
        <ele>42.459273</ele>
        <time>2020-06-18T19:00:25.801Z</time>
      </trkpt>
      <trkpt lat="50.55581" lon="3.54823">
        <ele>42.226903</ele>
        <time>2020-06-18T19:00:36.456Z</time>
      </trkpt>
      <trkpt lat="50.554" lon="3.54809">
        <ele>41.770722</ele>
        <time>2020-06-18T19:01:17.999Z</time>
      </trkpt>
      <trkpt lat="50.55364" lon="3.54813">
        <ele>41.901758</ele>
        <time>2020-06-18T19:01:27.153Z</time>
      </trkpt>
      <trkpt lat="50.55207" lon="3.54961">
        <ele>42.632823</ele>
        <time>2020-06-18T19:02:16.066Z</time>
      </trkpt>
      <trkpt lat="50.55191" lon="3.55031">
        <ele>42.878815</ele>
        <time>2020-06-18T19:02:26.200Z</time>
      </trkpt>
      <trkpt lat="50.55157" lon="3.55116">
        <ele>43.21053</ele>
        <time>2020-06-18T19:02:39.980Z</time>
      </trkpt>
      <trkpt lat="50.55145" lon="3.55144">
        <ele>43.321936</ele>
        <time>2020-06-18T19:02:43.804Z</time>
      </trkpt>
      <trkpt lat="50.55108" lon="3.55228">
        <ele>43.053147</ele>
        <time>2020-06-18T19:02:54.768Z</time>
      </trkpt>
      <trkpt lat="50.55094" lon="3.55255">
        <ele>42.952606</ele>
        <time>2020-06-18T19:02:58.477Z</time>
      </trkpt>
      <trkpt lat="50.55001" lon="3.55282">
        <ele>42.515299</ele>
        <time>2020-06-18T19:03:13.023Z</time>
      </trkpt>
      <trkpt lat="50.54849" lon="3.5518">
        <ele>41.152619</ele>
        <time>2020-06-18T19:03:36.964Z</time>
      </trkpt>
      <trkpt lat="50.54693" lon="3.55074">
        <ele>41.378795</ele>
        <time>2020-06-18T19:04:08.467Z</time>
      </trkpt>
      <trkpt lat="50.54689" lon="3.55072">
        <ele>41.388164</ele>
        <time>2020-06-18T19:04:09.334Z</time>
      </trkpt>
      <trkpt lat="50.54665" lon="3.55052">
        <ele>41.506473</ele>
        <time>2020-06-18T19:04:15.517Z</time>
      </trkpt>
      <trkpt lat="50.54639" lon="3.55029">
        <ele>41.851222</ele>
        <time>2020-06-18T19:04:22.294Z</time>
      </trkpt>
      <trkpt lat="50.54611" lon="3.54994">
        <ele>42.268857</ele>
        <time>2020-06-18T19:04:30.890Z</time>
      </trkpt>
      <trkpt lat="50.54548" lon="3.54956">
        <ele>43.051847</ele>
        <time>2020-06-18T19:04:47.671Z</time>
      </trkpt>
      <trkpt lat="50.54492" lon="3.54932">
        <ele>43.666857</ele>
        <time>2020-06-18T19:05:01.333Z</time>
      </trkpt>
      <trkpt lat="50.54428" lon="3.54902">
        <ele>44.210245</ele>
        <time>2020-06-18T19:05:16.020Z</time>
      </trkpt>
      <trkpt lat="50.54348" lon="3.54866">
        <ele>44.873265</ele>
        <time>2020-06-18T19:05:33.346Z</time>
      </trkpt>
      <trkpt lat="50.54316" lon="3.54851">
        <ele>45.118923</ele>
        <time>2020-06-18T19:05:40.151Z</time>
      </trkpt>
      <trkpt lat="50.54293" lon="3.54836">
        <ele>45.294695</ele>
        <time>2020-06-18T19:05:45.647Z</time>
      </trkpt>
      <trkpt lat="50.5425" lon="3.54789">
        <ele>45.653809</ele>
        <time>2020-06-18T19:05:56.070Z</time>
      </trkpt>
      <trkpt lat="50.54189" lon="3.54724">
        <ele>46.153478</ele>
        <time>2020-06-18T19:06:11.715Z</time>
      </trkpt>
      <trkpt lat="50.54183" lon="3.54702">
        <ele>46.262385</ele>
        <time>2020-06-18T19:06:15.364Z</time>
      </trkpt>
      <trkpt lat="50.54148" lon="3.54582">
        <ele>46.888077</ele>
        <time>2020-06-18T19:06:33.780Z</time>
      </trkpt>
      <trkpt lat="50.54141" lon="3.5453">
        <ele>47.141117</ele>
        <time>2020-06-18T19:06:41.219Z</time>
      </trkpt>
      <trkpt lat="50.54138" lon="3.54508">
        <ele>47.251207</ele>
        <time>2020-06-18T19:06:44.519Z</time>
      </trkpt>
      <trkpt lat="50.54133" lon="3.54488">
        <ele>47.352335</ele>
        <time>2020-06-18T19:06:47.483Z</time>
      </trkpt>
      <trkpt lat="50.54113" lon="3.54448">
        <ele>47.545247</ele>
        <time>2020-06-18T19:06:54.069Z</time>
      </trkpt>
      <trkpt lat="50.54093" lon="3.54426">
        <ele>47.462798</ele>
        <time>2020-06-18T19:06:58.947Z</time>
      </trkpt>
      <trkpt lat="50.54011" lon="3.54358">
        <ele>47.154622</ele>
        <time>2020-06-18T19:07:14.888Z</time>
      </trkpt>
      <trkpt lat="50.53985" lon="3.54339">
        <ele>47.059038</ele>
        <time>2020-06-18T19:07:19.176Z</time>
      </trkpt>
      <trkpt lat="50.53958" lon="3.54335">
        <ele>46.967527</ele>
        <time>2020-06-18T19:07:23.138Z</time>
      </trkpt>
      <trkpt lat="50.53932" lon="3.54346">
        <ele>46.558858</ele>
        <time>2020-06-18T19:07:26.959Z</time>
      </trkpt>
      <trkpt lat="50.53806" lon="3.54383">
        <ele>44.46678</ele>
        <time>2020-06-18T19:07:44.251Z</time>
      </trkpt>
      <trkpt lat="50.53683" lon="3.5442">
        <ele>42.495206</ele>
        <time>2020-06-18T19:08:00.951Z</time>
      </trkpt>
      <trkpt lat="50.53569" lon="3.54336">
        <ele>40.733427</ele>
        <time>2020-06-18T19:08:26.223Z</time>
      </trkpt>
      <trkpt lat="50.53466" lon="3.54251">
        <ele>39.462369</ele>
        <time>2020-06-18T19:08:50.276Z</time>
      </trkpt>
      <trkpt lat="50.53452" lon="3.54235">
        <ele>39.276275</ele>
        <time>2020-06-18T19:08:53.885Z</time>
      </trkpt>
      <trkpt lat="50.53424" lon="3.54177">
        <ele>38.994299</ele>
        <time>2020-06-18T19:09:03.784Z</time>
      </trkpt>
      <trkpt lat="50.5338" lon="3.53948">
        <ele>38.146337</ele>
        <time>2020-06-18T19:09:37.920Z</time>
      </trkpt>
      <trkpt lat="50.53363" lon="3.53717">
        <ele>37.63188</ele>
        <time>2020-06-18T19:10:11.932Z</time>
      </trkpt>
      <trkpt lat="50.53338" lon="3.536">
        <ele>37.153029</ele>
        <time>2020-06-18T19:10:29.508Z</time>
      </trkpt>
      <trkpt lat="50.53181" lon="3.53222">
        <ele>35.024924</ele>
        <time>2020-06-18T19:11:30.842Z</time>
      </trkpt>
      <trkpt lat="50.53094" lon="3.52967">
        <ele>33.747808</ele>
        <time>2020-06-18T19:12:10.594Z</time>
      </trkpt>
      <trkpt lat="50.53077" lon="3.52917">
        <ele>33.604648</ele>
        <time>2020-06-18T19:12:18.748Z</time>
      </trkpt>
      <trkpt lat="50.53069" lon="3.52893">
        <ele>33.550038</ele>
        <time>2020-06-18T19:12:22.480Z</time>
      </trkpt>
      <trkpt lat="50.53059" lon="3.5286">
        <ele>33.473312</ele>
        <time>2020-06-18T19:12:27.868Z</time>
      </trkpt>
      <trkpt lat="50.53055" lon="3.5285">
        <ele>33.448388</ele>
        <time>2020-06-18T19:12:29.560Z</time>
      </trkpt>
      <trkpt lat="50.53039" lon="3.52801">
        <ele>33.334257</ele>
        <time>2020-06-18T19:12:37.660Z</time>
      </trkpt>
      <trkpt lat="50.5297" lon="3.52582">
        <ele>33.053303</ele>
        <time>2020-06-18T19:13:14.813Z</time>
      </trkpt>
      <trkpt lat="50.52931" lon="3.5261">
        <ele>33.022624</ele>
        <time>2020-06-18T19:13:25.536Z</time>
      </trkpt>
      <trkpt lat="50.52909" lon="3.52621">
        <ele>33.00658</ele>
        <time>2020-06-18T19:13:30.950Z</time>
      </trkpt>
      <trkpt lat="50.52873" lon="3.52627">
        <ele>32.949944</ele>
        <time>2020-06-18T19:13:39.481Z</time>
      </trkpt>
      <trkpt lat="50.52846" lon="3.5263">
        <ele>32.85017</ele>
        <time>2020-06-18T19:13:45.913Z</time>
      </trkpt>
      <trkpt lat="50.52827" lon="3.52632">
        <ele>32.783703</ele>
        <time>2020-06-18T19:13:50.205Z</time>
      </trkpt>
      <trkpt lat="50.52796" lon="3.52637">
        <ele>32.671801</ele>
        <time>2020-06-18T19:13:57.251Z</time>
      </trkpt>
      <trkpt lat="50.52783" lon="3.52639">
        <ele>32.623903</ele>
        <time>2020-06-18T19:14:00.102Z</time>
      </trkpt>
      <trkpt lat="50.52741" lon="3.52643">
        <ele>32.472693</ele>
        <time>2020-06-18T19:14:09.502Z</time>
      </trkpt>
      <trkpt lat="50.52742" lon="3.52633">
        <ele>32.451272</ele>
        <time>2020-06-18T19:14:10.526Z</time>
      </trkpt>
      <trkpt lat="50.52749" lon="3.52608">
        <ele>32.388023</ele>
        <time>2020-06-18T19:14:13.467Z</time>
      </trkpt>
      <trkpt lat="50.52746" lon="3.52606">
        <ele>32.377452</ele>
        <time>2020-06-18T19:14:13.888Z</time>
      </trkpt>
      <trkpt lat="50.52739" lon="3.52632">
        <ele>32.31184</ele>
        <time>2020-06-18T19:14:16.868Z</time>
      </trkpt>
      <trkpt lat="50.52727" lon="3.52624">
        <ele>32.266111</ele>
        <time>2020-06-18T19:14:19.040Z</time>
      </trkpt>
      <trkpt lat="50.52718" lon="3.52627">
        <ele>32.233007</ele>
        <time>2020-06-18T19:14:20.341Z</time>
      </trkpt>
      <trkpt lat="50.52691" lon="3.52636">
        <ele>32.128722</ele>
        <time>2020-06-18T19:14:24.969Z</time>
      </trkpt>
      <trkpt lat="50.52687" lon="3.52641">
        <ele>32.109678</ele>
        <time>2020-06-18T19:14:25.686Z</time>
      </trkpt>
      <trkpt lat="50.52667" lon="3.5268">
        <ele>31.99462</ele>
        <time>2020-06-18T19:14:32.658Z</time>
      </trkpt>
      <trkpt lat="50.52662" lon="3.5269">
        <ele>31.965889</ele>
        <time>2020-06-18T19:14:34.270Z</time>
      </trkpt>
      <trkpt lat="50.52649" lon="3.52715">
        <ele>31.891026</ele>
        <time>2020-06-18T19:14:39.065Z</time>
      </trkpt>
      <trkpt lat="50.52634" lon="3.52726">
        <ele>31.826978</ele>
        <time>2020-06-18T19:14:42.984Z</time>
      </trkpt>
      <trkpt lat="50.52619" lon="3.52721">
        <ele>31.771958</ele>
        <time>2020-06-18T19:14:46.562Z</time>
      </trkpt>
      <trkpt lat="50.52611" lon="3.52716">
        <ele>31.739856</ele>
        <time>2020-06-18T19:14:48.710Z</time>
      </trkpt>
      <trkpt lat="50.5259" lon="3.52691">
        <ele>31.673635</ele>
        <time>2020-06-18T19:14:54.755Z</time>
      </trkpt>
      <trkpt lat="50.5258" lon="3.52681">
        <ele>31.665823</ele>
        <time>2020-06-18T19:14:57.863Z</time>
      </trkpt>
      <trkpt lat="50.52574" lon="3.52675">
        <ele>31.661214</ele>
        <time>2020-06-18T19:14:59.503Z</time>
      </trkpt>
      <trkpt lat="50.52569" lon="3.52669">
        <ele>31.657518</ele>
        <time>2020-06-18T19:15:00.950Z</time>
      </trkpt>
      <trkpt lat="50.52563" lon="3.5264">
        <ele>31.645318</ele>
        <time>2020-06-18T19:15:05.835Z</time>
      </trkpt>
      <trkpt lat="50.52544" lon="3.5264">
        <ele>31.63345</ele>
        <time>2020-06-18T19:15:09.248Z</time>
      </trkpt>
      <trkpt lat="50.52508" lon="3.5263">
        <ele>31.610638</ele>
        <time>2020-06-18T19:15:15.871Z</time>
      </trkpt>
      <trkpt lat="50.52426" lon="3.52603">
        <ele>31.463696</ele>
        <time>2020-06-18T19:15:30.323Z</time>
      </trkpt>
      <trkpt lat="50.52355" lon="3.52578">
        <ele>30.905547</ele>
        <time>2020-06-18T19:15:42.096Z</time>
      </trkpt>
      <trkpt lat="50.52343" lon="3.52573">
        <ele>30.810492</ele>
        <time>2020-06-18T19:15:43.771Z</time>
      </trkpt>
      <trkpt lat="50.52285" lon="3.52565">
        <ele>30.35935</ele>
        <time>2020-06-18T19:15:52.600Z</time>
      </trkpt>
      <trkpt lat="50.5224" lon="3.52579">
        <ele>29.857062</ele>
        <time>2020-06-18T19:15:59.084Z</time>
      </trkpt>
      <trkpt lat="50.52239" lon="3.52579">
        <ele>29.839807</ele>
        <time>2020-06-18T19:15:59.210Z</time>
      </trkpt>
      <trkpt lat="50.52115" lon="3.52624">
        <ele>28.05457</ele>
        <time>2020-06-18T19:16:16.714Z</time>
      </trkpt>
      <trkpt lat="50.52109" lon="3.52626">
        <ele>27.973375</ele>
        <time>2020-06-18T19:16:17.572Z</time>
      </trkpt>
      <trkpt lat="50.52079" lon="3.52637">
        <ele>27.592091</ele>
        <time>2020-06-18T19:16:21.931Z</time>
      </trkpt>
      <trkpt lat="50.52054" lon="3.52645">
        <ele>27.418466</ele>
        <time>2020-06-18T19:16:25.599Z</time>
      </trkpt>
      <trkpt lat="50.51976" lon="3.52663">
        <ele>26.871172</ele>
        <time>2020-06-18T19:16:37.742Z</time>
      </trkpt>
      <trkpt lat="50.51922" lon="3.52672">
        <ele>26.499998</ele>
        <time>2020-06-18T19:16:46.502Z</time>
      </trkpt>
      <trkpt lat="50.51909" lon="3.52671">
        <ele>26.410247</ele>
        <time>2020-06-18T19:16:48.632Z</time>
      </trkpt>
      <trkpt lat="50.519" lon="3.52671">
        <ele>26.384978</ele>
        <time>2020-06-18T19:16:50.364Z</time>
      </trkpt>
      <trkpt lat="50.5187" lon="3.52669">
        <ele>26.311315</ele>
        <time>2020-06-18T19:16:55.495Z</time>
      </trkpt>
      <trkpt lat="50.51851" lon="3.52668">
        <ele>26.264928</ele>
        <time>2020-06-18T19:16:58.732Z</time>
      </trkpt>
      <trkpt lat="50.51846" lon="3.52668">
        <ele>26.251958</ele>
        <time>2020-06-18T19:16:59.637Z</time>
      </trkpt>
      <trkpt lat="50.51799" lon="3.52666">
        <ele>26.132992</ele>
        <time>2020-06-18T19:17:07.698Z</time>
      </trkpt>
      <trkpt lat="50.51708" lon="3.52663">
        <ele>25.870039</ele>
        <time>2020-06-18T19:17:22.699Z</time>
      </trkpt>
      <trkpt lat="50.51704" lon="3.52663">
        <ele>25.853164</ele>
        <time>2020-06-18T19:17:23.372Z</time>
      </trkpt>
      <trkpt lat="50.51698" lon="3.52662">
        <ele>25.825463</ele>
        <time>2020-06-18T19:17:24.375Z</time>
      </trkpt>
      <trkpt lat="50.51687" lon="3.52662">
        <ele>25.777421</ele>
        <time>2020-06-18T19:17:26.155Z</time>
      </trkpt>
      <trkpt lat="50.5163" lon="3.52659">
        <ele>25.532014</ele>
        <time>2020-06-18T19:17:35.222Z</time>
      </trkpt>
      <trkpt lat="50.51628" lon="3.52634">
        <ele>25.462527</ele>
        <time>2020-06-18T19:17:38.752Z</time>
      </trkpt>
      <trkpt lat="50.51612" lon="3.5255">
        <ele>25.219317</ele>
        <time>2020-06-18T19:17:51.322Z</time>
      </trkpt>
      <trkpt lat="50.51567" lon="3.52422">
        <ele>24.86923</ele>
        <time>2020-06-18T19:18:12.020Z</time>
      </trkpt>
      <trkpt lat="50.51552" lon="3.52391">
        <ele>24.774439</ele>
        <time>2020-06-18T19:18:17.950Z</time>
      </trkpt>
      <trkpt lat="50.51516" lon="3.52341">
        <ele>24.596057</ele>
        <time>2020-06-18T19:18:29.143Z</time>
      </trkpt>
      <trkpt lat="50.51474" lon="3.52286">
        <ele>24.44984</ele>
        <time>2020-06-18T19:18:41.725Z</time>
      </trkpt>
      <trkpt lat="50.5147" lon="3.52279">
        <ele>24.43966</ele>
        <time>2020-06-18T19:18:43.015Z</time>
      </trkpt>
      <trkpt lat="50.51455" lon="3.52244">
        <ele>24.388597</ele>
        <time>2020-06-18T19:18:49.235Z</time>
      </trkpt>
      <trkpt lat="50.51449" lon="3.52228">
        <ele>24.366497</ele>
        <time>2020-06-18T19:18:52.003Z</time>
      </trkpt>
      <trkpt lat="50.51432" lon="3.52181">
        <ele>24.302525</ele>
        <time>2020-06-18T19:18:59.816Z</time>
      </trkpt>
      <trkpt lat="50.51409" lon="3.52114">
        <ele>24.212134</ele>
        <time>2020-06-18T19:19:11.273Z</time>
      </trkpt>
      <trkpt lat="50.51378" lon="3.5203">
        <ele>24.183614</ele>
        <time>2020-06-18T19:19:26.516Z</time>
      </trkpt>
      <trkpt lat="50.51361" lon="3.52002">
        <ele>24.189988</ele>
        <time>2020-06-18T19:19:32.497Z</time>
      </trkpt>
      <trkpt lat="50.51355" lon="3.51998">
        <ele>24.191721</ele>
        <time>2020-06-18T19:19:33.969Z</time>
      </trkpt>
      <trkpt lat="50.51351" lon="3.51997">
        <ele>24.192833</ele>
        <time>2020-06-18T19:19:34.993Z</time>
      </trkpt>
      <trkpt lat="50.51345" lon="3.51994">
        <ele>24.194451</ele>
        <time>2020-06-18T19:19:36.441Z</time>
      </trkpt>
      <trkpt lat="50.51329" lon="3.51987">
        <ele>24.198908</ele>
        <time>2020-06-18T19:19:40.663Z</time>
      </trkpt>
      <trkpt lat="50.51256" lon="3.51954">
        <ele>24.219067</ele>
        <time>2020-06-18T19:19:59.371Z</time>
      </trkpt>
      <trkpt lat="50.51228" lon="3.51935">
        <ele>24.173972</ele>
        <time>2020-06-18T19:20:06.884Z</time>
      </trkpt>
      <trkpt lat="50.51185" lon="3.51902">
        <ele>24.088924</ele>
        <time>2020-06-18T19:20:18.425Z</time>
      </trkpt>
      <trkpt lat="50.51125" lon="3.51846">
        <ele>23.962782</ele>
        <time>2020-06-18T19:20:34.842Z</time>
      </trkpt>
      <trkpt lat="50.51101" lon="3.5182">
        <ele>23.909557</ele>
        <time>2020-06-18T19:20:41.477Z</time>
      </trkpt>
      <trkpt lat="50.51097" lon="3.51815">
        <ele>23.901633</ele>
        <time>2020-06-18T19:20:42.479Z</time>
      </trkpt>
      <trkpt lat="50.51095" lon="3.51812">
        <ele>23.893257</ele>
        <time>2020-06-18T19:20:43.236Z</time>
      </trkpt>
      <trkpt lat="50.5109" lon="3.518">
        <ele>23.838936</ele>
        <time>2020-06-18T19:20:45.297Z</time>
      </trkpt>
      <trkpt lat="50.51092" lon="3.51783">
        <ele>23.776822</ele>
        <time>2020-06-18T19:20:46.926Z</time>
      </trkpt>
      <trkpt lat="50.51093" lon="3.51776">
        <ele>23.750512</ele>
        <time>2020-06-18T19:20:47.625Z</time>
      </trkpt>
      <trkpt lat="50.51094" lon="3.5177">
        <ele>23.725285</ele>
        <time>2020-06-18T19:20:48.287Z</time>
      </trkpt>
      <trkpt lat="50.51104" lon="3.51739">
        <ele>23.600679</ele>
        <time>2020-06-18T19:20:51.658Z</time>
      </trkpt>
      <trkpt lat="50.51114" lon="3.51704">
        <ele>23.457795</ele>
        <time>2020-06-18T19:20:55.424Z</time>
      </trkpt>
      <trkpt lat="50.51124" lon="3.5167">
        <ele>23.315246</ele>
        <time>2020-06-18T19:20:59.185Z</time>
      </trkpt>
      <trkpt lat="50.51135" lon="3.51641">
        <ele>23.192898</ele>
        <time>2020-06-18T19:21:02.409Z</time>
      </trkpt>
      <trkpt lat="50.51197" lon="3.51535">
        <ele>22.828589</ele>
        <time>2020-06-18T19:21:16.975Z</time>
      </trkpt>
      <trkpt lat="50.51201" lon="3.51522">
        <ele>22.822195</ele>
        <time>2020-06-18T19:21:18.423Z</time>
      </trkpt>
      <trkpt lat="50.51205" lon="3.51506">
        <ele>22.814698</ele>
        <time>2020-06-18T19:21:20.239Z</time>
      </trkpt>
      <trkpt lat="50.51214" lon="3.51479">
        <ele>22.801578</ele>
        <time>2020-06-18T19:21:23.484Z</time>
      </trkpt>
      <trkpt lat="50.51226" lon="3.51449">
        <ele>22.785917</ele>
        <time>2020-06-18T19:21:27.488Z</time>
      </trkpt>
      <trkpt lat="50.51239" lon="3.51418">
        <ele>22.77022</ele>
        <time>2020-06-18T19:21:31.507Z</time>
      </trkpt>
      <trkpt lat="50.51244" lon="3.51405">
        <ele>22.76343</ele>
        <time>2020-06-18T19:21:33.369Z</time>
      </trkpt>
      <trkpt lat="50.51326" lon="3.51213">
        <ele>23.221778</ele>
        <time>2020-06-18T19:22:02.515Z</time>
      </trkpt>
      <trkpt lat="50.51339" lon="3.51141">
        <ele>23.467055</ele>
        <time>2020-06-18T19:22:12.440Z</time>
      </trkpt>
      <trkpt lat="50.51347" lon="3.51036">
        <ele>23.8473</ele>
        <time>2020-06-18T19:22:26.498Z</time>
      </trkpt>
      <trkpt lat="50.5137" lon="3.50913">
        <ele>24.350927</ele>
        <time>2020-06-18T19:22:43.325Z</time>
      </trkpt>
      <trkpt lat="50.51382" lon="3.50734">
        <ele>25.028717</ele>
        <time>2020-06-18T19:23:07.533Z</time>
      </trkpt>
      <trkpt lat="50.51385" lon="3.50682">
        <ele>25.210749</ele>
        <time>2020-06-18T19:23:14.451Z</time>
      </trkpt>
      <trkpt lat="50.51383" lon="3.50594">
        <ele>25.517556</ele>
        <time>2020-06-18T19:23:26.052Z</time>
      </trkpt>
      <trkpt lat="50.51413" lon="3.50213">
        <ele>25.943537</ele>
        <time>2020-06-18T19:24:12.185Z</time>
      </trkpt>
      <trkpt lat="50.51429" lon="3.50165">
        <ele>25.749883</ele>
        <time>2020-06-18T19:24:17.590Z</time>
      </trkpt>
      <trkpt lat="50.51429" lon="3.5015">
        <ele>25.696833</ele>
        <time>2020-06-18T19:24:19.116Z</time>
      </trkpt>
      <trkpt lat="50.51417" lon="3.50101">
        <ele>25.510553</ele>
        <time>2020-06-18T19:24:24.150Z</time>
      </trkpt>
      <trkpt lat="50.51394" lon="3.50042">
        <ele>25.261357</ele>
        <time>2020-06-18T19:24:30.941Z</time>
      </trkpt>
      <trkpt lat="50.51388" lon="3.50031">
        <ele>25.208112</ele>
        <time>2020-06-18T19:24:32.272Z</time>
      </trkpt>
      <trkpt lat="50.51365" lon="3.50016">
        <ele>25.070443</ele>
        <time>2020-06-18T19:24:36.064Z</time>
      </trkpt>
      <trkpt lat="50.51349" lon="3.49997">
        <ele>24.940416</ele>
        <time>2020-06-18T19:24:39.041Z</time>
      </trkpt>
      <trkpt lat="50.51329" lon="3.49959">
        <ele>24.725066</ele>
        <time>2020-06-18T19:24:43.893Z</time>
      </trkpt>
      <trkpt lat="50.51322" lon="3.49943">
        <ele>24.645288</ele>
        <time>2020-06-18T19:24:45.708Z</time>
      </trkpt>
      <trkpt lat="50.51323" lon="3.49797">
        <ele>24.020252</ele>
        <time>2020-06-18T19:25:00.255Z</time>
      </trkpt>
      <trkpt lat="50.51322" lon="3.49739">
        <ele>23.762167</ele>
        <time>2020-06-18T19:25:06.151Z</time>
      </trkpt>
      <trkpt lat="50.51308" lon="3.49699">
        <ele>23.537759</ele>
        <time>2020-06-18T19:25:10.569Z</time>
      </trkpt>
      <trkpt lat="50.5129" lon="3.49667">
        <ele>23.328229</ele>
        <time>2020-06-18T19:25:14.747Z</time>
      </trkpt>
      <trkpt lat="50.51284" lon="3.49655">
        <ele>23.246472</ele>
        <time>2020-06-18T19:25:16.344Z</time>
      </trkpt>
      <trkpt lat="50.51281" lon="3.49649">
        <ele>23.211518</ele>
        <time>2020-06-18T19:25:17.006Z</time>
      </trkpt>
      <trkpt lat="50.51271" lon="3.4958">
        <ele>22.859642</ele>
        <time>2020-06-18T19:25:23.870Z</time>
      </trkpt>
      <trkpt lat="50.51269" lon="3.49574">
        <ele>22.823209</ele>
        <time>2020-06-18T19:25:24.550Z</time>
      </trkpt>
      <trkpt lat="50.51219" lon="3.4955">
        <ele>22.416595</ele>
        <time>2020-06-18T19:25:32.311Z</time>
      </trkpt>
      <trkpt lat="50.51187" lon="3.49526">
        <ele>22.187521</ele>
        <time>2020-06-18T19:25:37.447Z</time>
      </trkpt>
      <trkpt lat="50.51121" lon="3.49492">
        <ele>21.730283</ele>
        <time>2020-06-18T19:25:47.711Z</time>
      </trkpt>
      <trkpt lat="50.51048" lon="3.49357">
        <ele>21.432388</ele>
        <time>2020-06-18T19:26:06.629Z</time>
      </trkpt>
      <trkpt lat="50.51039" lon="3.49338">
        <ele>21.502092</ele>
        <time>2020-06-18T19:26:09.455Z</time>
      </trkpt>
      <trkpt lat="50.5104" lon="3.49284">
        <ele>21.662288</ele>
        <time>2020-06-18T19:26:16.269Z</time>
      </trkpt>
      <trkpt lat="50.51084" lon="3.49038">
        <ele>22.600782</ele>
        <time>2020-06-18T19:26:52.267Z</time>
      </trkpt>
      <trkpt lat="50.5114" lon="3.48908">
        <ele>23.326866</ele>
        <time>2020-06-18T19:27:13.913Z</time>
      </trkpt>
      <trkpt lat="50.51144" lon="3.48878">
        <ele>23.351985</ele>
        <time>2020-06-18T19:27:17.242Z</time>
      </trkpt>
      <trkpt lat="50.5114" lon="3.48867">
        <ele>23.328829</ele>
        <time>2020-06-18T19:27:19.093Z</time>
      </trkpt>
      <trkpt lat="50.51135" lon="3.4885">
        <ele>23.291594</ele>
        <time>2020-06-18T19:27:21.202Z</time>
      </trkpt>
      <trkpt lat="50.51113" lon="3.48814">
        <ele>23.195079</ele>
        <time>2020-06-18T19:27:27.035Z</time>
      </trkpt>
      <trkpt lat="50.51096" lon="3.4873">
        <ele>23.024886</ele>
        <time>2020-06-18T19:27:35.938Z</time>
      </trkpt>
      <trkpt lat="50.5108" lon="3.48708">
        <ele>22.958603</ele>
        <time>2020-06-18T19:27:39.329Z</time>
      </trkpt>
      <trkpt lat="50.51065" lon="3.48691">
        <ele>22.903983</ele>
        <time>2020-06-18T19:27:42.047Z</time>
      </trkpt>
      <trkpt lat="50.51084" lon="3.48625">
        <ele>22.669935</ele>
        <time>2020-06-18T19:27:48.830Z</time>
      </trkpt>
      <trkpt lat="50.51087" lon="3.48604">
        <ele>22.573955</ele>
        <time>2020-06-18T19:27:50.787Z</time>
      </trkpt>
      <trkpt lat="50.51082" lon="3.48534">
        <ele>22.261602</ele>
        <time>2020-06-18T19:27:57.535Z</time>
      </trkpt>
      <trkpt lat="50.5108" lon="3.48506">
        <ele>22.137616</ele>
        <time>2020-06-18T19:28:00.263Z</time>
      </trkpt>
      <trkpt lat="50.51082" lon="3.4846">
        <ele>21.932332</ele>
        <time>2020-06-18T19:28:04.841Z</time>
      </trkpt>
      <trkpt lat="50.51087" lon="3.48377">
        <ele>21.58246</ele>
        <time>2020-06-18T19:28:13.255Z</time>
      </trkpt>
      <trkpt lat="50.51092" lon="3.48355">
        <ele>21.572747</ele>
        <time>2020-06-18T19:28:15.822Z</time>
      </trkpt>
      <trkpt lat="50.511" lon="3.48334">
        <ele>21.563078</ele>
        <time>2020-06-18T19:28:18.286Z</time>
      </trkpt>
      <trkpt lat="50.5112" lon="3.48278">
        <ele>21.53671</ele>
        <time>2020-06-18T19:28:25.515Z</time>
      </trkpt>
      <trkpt lat="50.5113" lon="3.48251">
        <ele>21.523693</ele>
        <time>2020-06-18T19:28:29.439Z</time>
      </trkpt>
      <trkpt lat="50.51135" lon="3.48237">
        <ele>21.517408</ele>
        <time>2020-06-18T19:28:31.175Z</time>
      </trkpt>
      <trkpt lat="50.51143" lon="3.48169">
        <ele>21.48917</ele>
        <time>2020-06-18T19:28:39.126Z</time>
      </trkpt>
      <trkpt lat="50.51138" lon="3.48111">
        <ele>21.468881</ele>
        <time>2020-06-18T19:28:45.832Z</time>
      </trkpt>
      <trkpt lat="50.51132" lon="3.48019">
        <ele>21.468881</ele>
        <time>2020-06-18T19:28:56.260Z</time>
      </trkpt>
      <trkpt lat="50.51129" lon="3.48001">
        <ele>21.468881</ele>
        <time>2020-06-18T19:28:58.127Z</time>
      </trkpt>
      <trkpt lat="50.51125" lon="3.47964">
        <ele>21.468881</ele>
        <time>2020-06-18T19:29:02.383Z</time>
      </trkpt>
      <trkpt lat="50.51122" lon="3.47856">
        <ele>21.468881</ele>
        <time>2020-06-18T19:29:14.082Z</time>
      </trkpt>
      <trkpt lat="50.51109" lon="3.47824">
        <ele>21.468881</ele>
        <time>2020-06-18T19:29:17.977Z</time>
      </trkpt>
      <trkpt lat="50.5109" lon="3.47798">
        <ele>21.468881</ele>
        <time>2020-06-18T19:29:22.205Z</time>
      </trkpt>
      <trkpt lat="50.51082" lon="3.47786">
        <ele>21.468881</ele>
        <time>2020-06-18T19:29:23.958Z</time>
      </trkpt>
      <trkpt lat="50.51082" lon="3.47786">
        <ele>21.468881</ele>
        <time>2020-06-18T19:29:24.036Z</time>
      </trkpt>
    </trkseg>
  </trk>
</gpx>